<?xml version="1.0" encoding="UTF-8" standalone="no" ?>
<gpx xmlns="http://www.topografix.com/GPX/1/1" xmlns:xsi="http://www.w3.org/2001/XMLSchema-instance" xsi:schemaLocation="http://www.topografix.com/GPX/1/1 http://www.topografix.com/GPX/1/1/gpx.xsd" version="1.1" creator="VisuGPX - https://www.visugpx.com">
  <metadata>
    <name>Saint-Jean-du-Doigt (plage) à Plouezoc'h (Le Dourduff)</name>
    <desc><![CDATA[Un GR34 sur la côte orientale de la baie et de la rade de Morlaix]]></desc>
  </metadata>
  <trk>
    <name><![CDATA[Boucle au départ de la Plage de Saint-Jean-du-Doigt]]></name>
    <extensions>
      <line xmlns="http://www.topografix.com/GPX/gpx_style/0/2">
        <color>880000</color>
        <width>4</width>
      </line>
    </extensions>
    <trkseg>
      <trkpt lat="48.70237" lon="-3.77688">
        <ele>7.6</ele>
        <time>2023-01-02T12:29:32+01:00</time>
      </trkpt>
      <trkpt lat="48.70234" lon="-3.77724">
        <ele>6.7</ele>
        <time>2023-01-02T12:29:58+01:00</time>
      </trkpt>
      <trkpt lat="48.70226" lon="-3.77747">
        <ele>7.4</ele>
        <time>2023-01-02T12:30:11+01:00</time>
      </trkpt>
      <trkpt lat="48.70205" lon="-3.77826">
        <ele>6.1</ele>
        <time>2023-01-02T12:30:49+01:00</time>
      </trkpt>
      <trkpt lat="48.70192" lon="-3.77887">
        <ele>6.8</ele>
        <time>2023-01-02T12:31:19+01:00</time>
      </trkpt>
      <trkpt lat="48.70186" lon="-3.77909">
        <ele>5.9</ele>
        <time>2023-01-02T12:31:33+01:00</time>
      </trkpt>
      <trkpt lat="48.70179" lon="-3.77935">
        <ele>5.5</ele>
        <time>2023-01-02T12:31:46+01:00</time>
      </trkpt>
      <trkpt lat="48.70173" lon="-3.77964">
        <ele>5.5</ele>
        <time>2023-01-02T12:32:00+01:00</time>
      </trkpt>
      <trkpt lat="48.70161" lon="-3.78019">
        <ele>5.8</ele>
        <time>2023-01-02T12:32:25+01:00</time>
      </trkpt>
      <trkpt lat="48.70142" lon="-3.78109">
        <ele>5.8</ele>
        <time>2023-01-02T12:33:07+01:00</time>
      </trkpt>
      <trkpt lat="48.70136" lon="-3.78135">
        <ele>6</ele>
        <time>2023-01-02T12:33:21+01:00</time>
      </trkpt>
      <trkpt lat="48.70125" lon="-3.78192">
        <ele>6.5</ele>
        <time>2023-01-02T12:33:49+01:00</time>
      </trkpt>
      <trkpt lat="48.70107" lon="-3.7827">
        <ele>8.7</ele>
        <time>2023-01-02T12:34:34+01:00</time>
      </trkpt>
      <trkpt lat="48.70094" lon="-3.78325">
        <ele>10.9</ele>
        <time>2023-01-02T12:35:03+01:00</time>
      </trkpt>
      <trkpt lat="48.70089" lon="-3.78348">
        <ele>12.8</ele>
        <time>2023-01-02T12:35:21+01:00</time>
      </trkpt>
      <trkpt lat="48.70082" lon="-3.78377">
        <ele>14.7</ele>
        <time>2023-01-02T12:35:36+01:00</time>
      </trkpt>
      <trkpt lat="48.7008" lon="-3.78404">
        <ele>16.5</ele>
        <time>2023-01-02T12:35:52+01:00</time>
      </trkpt>
      <trkpt lat="48.70064" lon="-3.78486">
        <ele>22.7</ele>
        <time>2023-01-02T12:37:35+01:00</time>
      </trkpt>
      <trkpt lat="48.70059" lon="-3.78516">
        <ele>24.3</ele>
        <time>2023-01-02T12:37:50+01:00</time>
      </trkpt>
      <trkpt lat="48.70045" lon="-3.786">
        <ele>32.5</ele>
        <time>2023-01-02T12:38:37+01:00</time>
      </trkpt>
      <trkpt lat="48.70035" lon="-3.78654">
        <ele>36.9</ele>
        <time>2023-01-02T12:39:07+01:00</time>
      </trkpt>
      <trkpt lat="48.7002" lon="-3.78707">
        <ele>41.2</ele>
        <time>2023-01-02T12:39:31+01:00</time>
      </trkpt>
      <trkpt lat="48.70003" lon="-3.78739">
        <ele>43.7</ele>
        <time>2023-01-02T12:39:44+01:00</time>
      </trkpt>
      <trkpt lat="48.69984" lon="-3.78791">
        <ele>48.9</ele>
        <time>2023-01-02T12:40:32+01:00</time>
      </trkpt>
      <trkpt lat="48.69974" lon="-3.78843">
        <ele>53</ele>
        <time>2023-01-02T12:41:04+01:00</time>
      </trkpt>
      <trkpt lat="48.6997" lon="-3.78897">
        <ele>59.8</ele>
        <time>2023-01-02T12:41:35+01:00</time>
      </trkpt>
      <trkpt lat="48.69957" lon="-3.78918">
        <ele>62.5</ele>
        <time>2023-01-02T12:41:49+01:00</time>
      </trkpt>
      <trkpt lat="48.69941" lon="-3.78937">
        <ele>64.9</ele>
        <time>2023-01-02T12:42:03+01:00</time>
      </trkpt>
      <trkpt lat="48.69965" lon="-3.78933">
        <ele>64.2</ele>
        <time>2023-01-02T12:42:40+01:00</time>
      </trkpt>
      <trkpt lat="48.69973" lon="-3.78942">
        <ele>64.8</ele>
        <time>2023-01-02T12:42:59+01:00</time>
      </trkpt>
      <trkpt lat="48.69988" lon="-3.7897">
        <ele>67.3</ele>
        <time>2023-01-02T12:43:13+01:00</time>
      </trkpt>
      <trkpt lat="48.69998" lon="-3.79007">
        <ele>68.3</ele>
        <time>2023-01-02T12:43:29+01:00</time>
      </trkpt>
      <trkpt lat="48.70007" lon="-3.79047">
        <ele>70.1</ele>
        <time>2023-01-02T12:43:46+01:00</time>
      </trkpt>
      <trkpt lat="48.70017" lon="-3.79071">
        <ele>70.6</ele>
        <time>2023-01-02T12:44:01+01:00</time>
      </trkpt>
      <trkpt lat="48.70037" lon="-3.79112">
        <ele>71.7</ele>
        <time>2023-01-02T12:44:19+01:00</time>
      </trkpt>
      <trkpt lat="48.70057" lon="-3.79138">
        <ele>69.9</ele>
        <time>2023-01-02T12:45:28+01:00</time>
      </trkpt>
      <trkpt lat="48.70081" lon="-3.79165">
        <ele>71</ele>
        <time>2023-01-02T12:45:48+01:00</time>
      </trkpt>
      <trkpt lat="48.70098" lon="-3.79178">
        <ele>71.6</ele>
        <time>2023-01-02T12:46:05+01:00</time>
      </trkpt>
      <trkpt lat="48.70112" lon="-3.79161">
        <ele>70.8</ele>
        <time>2023-01-02T12:46:20+01:00</time>
      </trkpt>
      <trkpt lat="48.70127" lon="-3.79146">
        <ele>70.7</ele>
        <time>2023-01-02T12:46:49+01:00</time>
      </trkpt>
      <trkpt lat="48.70141" lon="-3.79133">
        <ele>70.9</ele>
        <time>2023-01-02T12:47:05+01:00</time>
      </trkpt>
      <trkpt lat="48.70155" lon="-3.7912">
        <ele>70.8</ele>
        <time>2023-01-02T12:47:25+01:00</time>
      </trkpt>
      <trkpt lat="48.70175" lon="-3.79104">
        <ele>70.2</ele>
        <time>2023-01-02T12:48:25+01:00</time>
      </trkpt>
      <trkpt lat="48.70185" lon="-3.7909">
        <ele>69</ele>
        <time>2023-01-02T12:48:44+01:00</time>
      </trkpt>
      <trkpt lat="48.70193" lon="-3.7907">
        <ele>66.8</ele>
        <time>2023-01-02T12:49:54+01:00</time>
      </trkpt>
      <trkpt lat="48.70197" lon="-3.79048">
        <ele>63.9</ele>
        <time>2023-01-02T12:50:17+01:00</time>
      </trkpt>
      <trkpt lat="48.702" lon="-3.79021">
        <ele>61.4</ele>
        <time>2023-01-02T12:50:38+01:00</time>
      </trkpt>
      <trkpt lat="48.70208" lon="-3.79002">
        <ele>58.7</ele>
        <time>2023-01-02T12:51:07+01:00</time>
      </trkpt>
      <trkpt lat="48.70215" lon="-3.7898">
        <ele>57.3</ele>
        <time>2023-01-02T12:51:21+01:00</time>
      </trkpt>
      <trkpt lat="48.7023" lon="-3.78962">
        <ele>54.4</ele>
      </trkpt>
      <trkpt lat="48.70245" lon="-3.78944">
        <ele>51.8</ele>
      </trkpt>
      <trkpt lat="48.7026" lon="-3.78938">
        <ele>49.6</ele>
        <time>2023-01-02T12:52:11+01:00</time>
      </trkpt>
      <trkpt lat="48.70276" lon="-3.78942">
        <ele>47.4</ele>
        <time>2023-01-02T12:52:50+01:00</time>
      </trkpt>
      <trkpt lat="48.70277" lon="-3.78975">
        <ele>42.8</ele>
        <time>2023-01-02T12:53:23+01:00</time>
      </trkpt>
      <trkpt lat="48.70273" lon="-3.78999">
        <ele>40.7</ele>
        <time>2023-01-02T12:54:08+01:00</time>
      </trkpt>
      <trkpt lat="48.70263" lon="-3.79024">
        <ele>40.5</ele>
        <time>2023-01-02T12:54:28+01:00</time>
      </trkpt>
      <trkpt lat="48.70264" lon="-3.79045">
        <ele>38.5</ele>
        <time>2023-01-02T12:55:01+01:00</time>
      </trkpt>
      <trkpt lat="48.70273" lon="-3.79038">
        <ele>34.5</ele>
        <time>2023-01-02T12:55:41+01:00</time>
      </trkpt>
      <trkpt lat="48.70278" lon="-3.7901">
        <ele>36.7</ele>
        <time>2023-01-02T12:56:19+01:00</time>
      </trkpt>
      <trkpt lat="48.7028" lon="-3.79041">
        <ele>29.9</ele>
        <time>2023-01-02T12:56:44+01:00</time>
      </trkpt>
      <trkpt lat="48.70274" lon="-3.7907">
        <ele>29.7</ele>
        <time>2023-01-02T12:57:05+01:00</time>
      </trkpt>
      <trkpt lat="48.70275" lon="-3.79099">
        <ele>28.8</ele>
        <time>2023-01-02T12:57:24+01:00</time>
      </trkpt>
      <trkpt lat="48.70277" lon="-3.79127">
        <ele>31.9</ele>
        <time>2023-01-02T12:57:40+01:00</time>
      </trkpt>
      <trkpt lat="48.70284" lon="-3.79153">
        <ele>31.3</ele>
        <time>2023-01-02T12:58:00+01:00</time>
      </trkpt>
      <trkpt lat="48.70297" lon="-3.79175">
        <ele>29.9</ele>
        <time>2023-01-02T12:58:23+01:00</time>
      </trkpt>
      <trkpt lat="48.70314" lon="-3.79184">
        <ele>25.8</ele>
        <time>2023-01-02T12:58:48+01:00</time>
      </trkpt>
      <trkpt lat="48.70333" lon="-3.79184">
        <ele>17.5</ele>
        <time>2023-01-02T12:59:12+01:00</time>
      </trkpt>
      <trkpt lat="48.70353" lon="-3.79193">
        <ele>17.2</ele>
        <time>2023-01-02T12:59:33+01:00</time>
      </trkpt>
      <trkpt lat="48.70363" lon="-3.79217">
        <ele>17.5</ele>
        <time>2023-01-02T13:00:17+01:00</time>
      </trkpt>
      <trkpt lat="48.70365" lon="-3.79231">
        <ele>20.5</ele>
        <time>2023-01-02T13:00:40+01:00</time>
      </trkpt>
      <trkpt lat="48.70389" lon="-3.79255">
        <ele>19.8</ele>
        <time>2023-01-02T13:01:07+01:00</time>
      </trkpt>
      <trkpt lat="48.70393" lon="-3.79283">
        <ele>21.7</ele>
        <time>2023-01-02T13:01:43+01:00</time>
      </trkpt>
      <trkpt lat="48.70402" lon="-3.7931">
        <ele>21</ele>
        <time>2023-01-02T13:02:07+01:00</time>
      </trkpt>
      <trkpt lat="48.70411" lon="-3.79335">
        <ele>26.8</ele>
        <time>2023-01-02T13:02:24+01:00</time>
      </trkpt>
      <trkpt lat="48.70429" lon="-3.79344">
        <ele>20.4</ele>
        <time>2023-01-02T13:02:50+01:00</time>
      </trkpt>
      <trkpt lat="48.70448" lon="-3.79346">
        <ele>13.1</ele>
        <time>2023-01-02T13:03:12+01:00</time>
      </trkpt>
      <trkpt lat="48.70464" lon="-3.79361">
        <ele>12.8</ele>
        <time>2023-01-02T13:03:31+01:00</time>
      </trkpt>
      <trkpt lat="48.70476" lon="-3.79386">
        <ele>17</ele>
        <time>2023-01-02T13:03:51+01:00</time>
      </trkpt>
      <trkpt lat="48.70491" lon="-3.79403">
        <ele>14.7</ele>
        <time>2023-01-02T13:04:09+01:00</time>
      </trkpt>
      <trkpt lat="48.70508" lon="-3.79412">
        <ele>12.6</ele>
        <time>2023-01-02T13:04:31+01:00</time>
      </trkpt>
      <trkpt lat="48.70525" lon="-3.79421">
        <ele>11.6</ele>
        <time>2023-01-02T13:04:45+01:00</time>
      </trkpt>
      <trkpt lat="48.70543" lon="-3.79429">
        <ele>11.1</ele>
        <time>2023-01-02T13:05:14+01:00</time>
      </trkpt>
      <trkpt lat="48.70553" lon="-3.79454">
        <ele>9</ele>
        <time>2023-01-02T13:05:32+01:00</time>
      </trkpt>
      <trkpt lat="48.7055" lon="-3.79482">
        <ele>12.2</ele>
        <time>2023-01-02T13:05:54+01:00</time>
      </trkpt>
      <trkpt lat="48.7055" lon="-3.7951">
        <ele>15.3</ele>
        <time>2023-01-02T13:06:10+01:00</time>
      </trkpt>
      <trkpt lat="48.70553" lon="-3.79539">
        <ele>15.7</ele>
        <time>2023-01-02T13:06:29+01:00</time>
      </trkpt>
      <trkpt lat="48.70566" lon="-3.79559">
        <ele>11.7</ele>
        <time>2023-01-02T13:06:56+01:00</time>
      </trkpt>
      <trkpt lat="48.70574" lon="-3.79585">
        <ele>13.4</ele>
        <time>2023-01-02T13:07:14+01:00</time>
      </trkpt>
      <trkpt lat="48.70568" lon="-3.79611">
        <ele>16.6</ele>
        <time>2023-01-02T13:07:35+01:00</time>
      </trkpt>
      <trkpt lat="48.70586" lon="-3.79623">
        <ele>16.2</ele>
        <time>2023-01-02T13:08:02+01:00</time>
      </trkpt>
      <trkpt lat="48.70603" lon="-3.79612">
        <ele>10.7</ele>
        <time>2023-01-02T13:08:18+01:00</time>
      </trkpt>
      <trkpt lat="48.70617" lon="-3.79631">
        <ele>14.8</ele>
        <time>2023-01-02T13:08:36+01:00</time>
      </trkpt>
      <trkpt lat="48.70632" lon="-3.79646">
        <ele>16.4</ele>
        <time>2023-01-02T13:09:00+01:00</time>
      </trkpt>
      <trkpt lat="48.7065" lon="-3.79661">
        <ele>16.6</ele>
        <time>2023-01-02T13:09:15+01:00</time>
      </trkpt>
      <trkpt lat="48.70669" lon="-3.79671">
        <ele>12.8</ele>
        <time>2023-01-02T13:09:31+01:00</time>
      </trkpt>
      <trkpt lat="48.70682" lon="-3.7969">
        <ele>17.3</ele>
        <time>2023-01-02T13:09:46+01:00</time>
      </trkpt>
      <trkpt lat="48.70692" lon="-3.79713">
        <ele>22.4</ele>
        <time>2023-01-02T13:10:10+01:00</time>
      </trkpt>
      <trkpt lat="48.7071" lon="-3.79727">
        <ele>21.7</ele>
        <time>2023-01-02T13:10:39+01:00</time>
      </trkpt>
      <trkpt lat="48.70727" lon="-3.79741">
        <ele>19.9</ele>
        <time>2023-01-02T13:10:52+01:00</time>
      </trkpt>
      <trkpt lat="48.70744" lon="-3.79748">
        <ele>18</ele>
        <time>2023-01-02T13:11:08+01:00</time>
      </trkpt>
      <trkpt lat="48.70763" lon="-3.79761">
        <ele>17</ele>
        <time>2023-01-02T13:11:29+01:00</time>
      </trkpt>
      <trkpt lat="48.70783" lon="-3.79778">
        <ele>15.7</ele>
        <time>2023-01-02T13:11:56+01:00</time>
      </trkpt>
      <trkpt lat="48.70798" lon="-3.79785">
        <ele>12.8</ele>
        <time>2023-01-02T13:12:19+01:00</time>
      </trkpt>
      <trkpt lat="48.70818" lon="-3.79783">
        <ele>9.8</ele>
        <time>2023-01-02T13:12:39+01:00</time>
      </trkpt>
      <trkpt lat="48.70836" lon="-3.79784">
        <ele>9.1</ele>
        <time>2023-01-02T13:12:55+01:00</time>
      </trkpt>
      <trkpt lat="48.70858" lon="-3.79785">
        <ele>8.1</ele>
        <time>2023-01-02T13:13:15+01:00</time>
      </trkpt>
      <trkpt lat="48.70875" lon="-3.79786">
        <ele>7.3</ele>
        <time>2023-01-02T13:13:47+01:00</time>
      </trkpt>
      <trkpt lat="48.70892" lon="-3.79793">
        <ele>7.4</ele>
        <time>2023-01-02T13:14:02+01:00</time>
      </trkpt>
      <trkpt lat="48.70911" lon="-3.79799">
        <ele>6.9</ele>
        <time>2023-01-02T13:14:22+01:00</time>
      </trkpt>
      <trkpt lat="48.70923" lon="-3.79821">
        <ele>7.7</ele>
        <time>2023-01-02T13:14:40+01:00</time>
      </trkpt>
      <trkpt lat="48.70937" lon="-3.79838">
        <ele>7.7</ele>
        <time>2023-01-02T13:15:07+01:00</time>
      </trkpt>
      <trkpt lat="48.70952" lon="-3.79857">
        <ele>10</ele>
        <time>2023-01-02T13:17:24+01:00</time>
      </trkpt>
      <trkpt lat="48.70972" lon="-3.79866">
        <ele>10.5</ele>
        <time>2023-01-02T13:17:39+01:00</time>
      </trkpt>
      <trkpt lat="48.70991" lon="-3.79857">
        <ele>10.4</ele>
        <time>2023-01-02T13:17:55+01:00</time>
      </trkpt>
      <trkpt lat="48.7101" lon="-3.79855">
        <ele>9.5</ele>
        <time>2023-01-02T13:18:10+01:00</time>
      </trkpt>
      <trkpt lat="48.71027" lon="-3.79863">
        <ele>9.2</ele>
        <time>2023-01-02T13:18:26+01:00</time>
      </trkpt>
      <trkpt lat="48.71046" lon="-3.79874">
        <ele>9.3</ele>
        <time>2023-01-02T13:18:42+01:00</time>
      </trkpt>
      <trkpt lat="48.71066" lon="-3.79879">
        <ele>10.1</ele>
        <time>2023-01-02T13:18:58+01:00</time>
      </trkpt>
      <trkpt lat="48.71085" lon="-3.79885">
        <ele>11.8</ele>
        <time>2023-01-02T13:19:16+01:00</time>
      </trkpt>
      <trkpt lat="48.71102" lon="-3.79877">
        <ele>10.5</ele>
        <time>2023-01-02T13:19:35+01:00</time>
      </trkpt>
      <trkpt lat="48.7112" lon="-3.79862">
        <ele>8.8</ele>
        <time>2023-01-02T13:19:51+01:00</time>
      </trkpt>
      <trkpt lat="48.71137" lon="-3.79848">
        <ele>8.4</ele>
        <time>2023-01-02T13:20:09+01:00</time>
      </trkpt>
      <trkpt lat="48.71155" lon="-3.79843">
        <ele>7</ele>
        <time>2023-01-02T13:20:27+01:00</time>
      </trkpt>
      <trkpt lat="48.71171" lon="-3.7986">
        <ele>9</ele>
        <time>2023-01-02T13:20:44+01:00</time>
      </trkpt>
      <trkpt lat="48.71184" lon="-3.7988">
        <ele>10</ele>
        <time>2023-01-02T13:21:03+01:00</time>
      </trkpt>
      <trkpt lat="48.71202" lon="-3.79885">
        <ele>10.1</ele>
        <time>2023-01-02T13:21:28+01:00</time>
      </trkpt>
      <trkpt lat="48.71221" lon="-3.79881">
        <ele>9</ele>
        <time>2023-01-02T13:21:46+01:00</time>
      </trkpt>
      <trkpt lat="48.71239" lon="-3.79875">
        <ele>8</ele>
        <time>2023-01-02T13:22:02+01:00</time>
      </trkpt>
      <trkpt lat="48.71258" lon="-3.79877">
        <ele>7.8</ele>
        <time>2023-01-02T13:22:21+01:00</time>
      </trkpt>
      <trkpt lat="48.7127" lon="-3.79899">
        <ele>8.9</ele>
        <time>2023-01-02T13:23:39+01:00</time>
      </trkpt>
      <trkpt lat="48.71287" lon="-3.79914">
        <ele>8.1</ele>
        <time>2023-01-02T13:23:58+01:00</time>
      </trkpt>
      <trkpt lat="48.71289" lon="-3.79945">
        <ele>8.7</ele>
        <time>2023-01-02T13:24:16+01:00</time>
      </trkpt>
      <trkpt lat="48.71294" lon="-3.79974">
        <ele>7.4</ele>
        <time>2023-01-02T13:24:35+01:00</time>
      </trkpt>
      <trkpt lat="48.71293" lon="-3.80002">
        <ele>8.5</ele>
        <time>2023-01-02T13:24:53+01:00</time>
      </trkpt>
      <trkpt lat="48.71297" lon="-3.80031">
        <ele>7.6</ele>
        <time>2023-01-02T13:25:13+01:00</time>
      </trkpt>
      <trkpt lat="48.71301" lon="-3.80059">
        <ele>6.9</ele>
        <time>2023-01-02T13:25:30+01:00</time>
      </trkpt>
      <trkpt lat="48.71293" lon="-3.80086">
        <ele>7.4</ele>
        <time>2023-01-02T13:25:48+01:00</time>
      </trkpt>
      <trkpt lat="48.71274" lon="-3.80097">
        <ele>9</ele>
        <time>2023-01-02T13:26:08+01:00</time>
      </trkpt>
      <trkpt lat="48.71257" lon="-3.80108">
        <ele>10</ele>
        <time>2023-01-02T13:26:24+01:00</time>
      </trkpt>
      <trkpt lat="48.7124" lon="-3.80124">
        <ele>10.1</ele>
        <time>2023-01-02T13:26:40+01:00</time>
      </trkpt>
      <trkpt lat="48.71224" lon="-3.8014">
        <ele>13.4</ele>
        <time>2023-01-02T13:27:00+01:00</time>
      </trkpt>
      <trkpt lat="48.71213" lon="-3.80164">
        <ele>11.5</ele>
        <time>2023-01-02T13:27:16+01:00</time>
      </trkpt>
      <trkpt lat="48.71208" lon="-3.80191">
        <ele>10.5</ele>
        <time>2023-01-02T13:27:32+01:00</time>
      </trkpt>
      <trkpt lat="48.71206" lon="-3.80219">
        <ele>10</ele>
        <time>2023-01-02T13:27:50+01:00</time>
      </trkpt>
      <trkpt lat="48.71208" lon="-3.80246">
        <ele>9.3</ele>
        <time>2023-01-02T13:28:08+01:00</time>
      </trkpt>
      <trkpt lat="48.71203" lon="-3.80274">
        <ele>10.5</ele>
        <time>2023-01-02T13:28:28+01:00</time>
      </trkpt>
      <trkpt lat="48.71188" lon="-3.80292">
        <ele>11.1</ele>
        <time>2023-01-02T13:28:46+01:00</time>
      </trkpt>
      <trkpt lat="48.71175" lon="-3.80312">
        <ele>11.2</ele>
        <time>2023-01-02T13:29:07+01:00</time>
      </trkpt>
      <trkpt lat="48.71161" lon="-3.80331">
        <ele>13</ele>
        <time>2023-01-02T13:29:23+01:00</time>
      </trkpt>
      <trkpt lat="48.71143" lon="-3.80348">
        <ele>12.6</ele>
        <time>2023-01-02T13:30:04+01:00</time>
      </trkpt>
      <trkpt lat="48.71124" lon="-3.80356">
        <ele>15.6</ele>
        <time>2023-01-02T13:30:24+01:00</time>
      </trkpt>
      <trkpt lat="48.71122" lon="-3.80385">
        <ele>11.5</ele>
        <time>2023-01-02T13:30:46+01:00</time>
      </trkpt>
      <trkpt lat="48.71116" lon="-3.80411">
        <ele>11.7</ele>
        <time>2023-01-02T13:31:04+01:00</time>
      </trkpt>
      <trkpt lat="48.71114" lon="-3.8044">
        <ele>11.2</ele>
        <time>2023-01-02T13:31:23+01:00</time>
      </trkpt>
      <trkpt lat="48.71111" lon="-3.80467">
        <ele>11.2</ele>
        <time>2023-01-02T13:31:39+01:00</time>
      </trkpt>
      <trkpt lat="48.71109" lon="-3.80497">
        <ele>10.4</ele>
        <time>2023-01-02T13:31:59+01:00</time>
      </trkpt>
      <trkpt lat="48.71108" lon="-3.80527">
        <ele>10.2</ele>
        <time>2023-01-02T13:32:20+01:00</time>
      </trkpt>
      <trkpt lat="48.71109" lon="-3.80555">
        <ele>10.1</ele>
        <time>2023-01-02T13:32:37+01:00</time>
      </trkpt>
      <trkpt lat="48.71116" lon="-3.80584">
        <ele>8.6</ele>
        <time>2023-01-02T13:33:06+01:00</time>
      </trkpt>
      <trkpt lat="48.71123" lon="-3.80612">
        <ele>6.5</ele>
        <time>2023-01-02T13:33:19+01:00</time>
      </trkpt>
      <trkpt lat="48.71126" lon="-3.80642">
        <ele>6.3</ele>
        <time>2023-01-02T13:33:35+01:00</time>
      </trkpt>
      <trkpt lat="48.71127" lon="-3.80674">
        <ele>6.8</ele>
        <time>2023-01-02T13:33:53+01:00</time>
      </trkpt>
      <trkpt lat="48.71132" lon="-3.80701">
        <ele>6.3</ele>
        <time>2023-01-02T13:34:09+01:00</time>
      </trkpt>
      <trkpt lat="48.71137" lon="-3.80728">
        <ele>7.3</ele>
        <time>2023-01-02T13:34:24+01:00</time>
      </trkpt>
      <trkpt lat="48.71146" lon="-3.80757">
        <ele>6.7</ele>
        <time>2023-01-02T13:34:50+01:00</time>
      </trkpt>
      <trkpt lat="48.71151" lon="-3.80785">
        <ele>5.9</ele>
        <time>2023-01-02T13:35:03+01:00</time>
      </trkpt>
      <trkpt lat="48.71159" lon="-3.80812">
        <ele>5.3</ele>
        <time>2023-01-02T13:35:20+01:00</time>
      </trkpt>
      <trkpt lat="48.71165" lon="-3.8084">
        <ele>5.6</ele>
        <time>2023-01-02T13:35:37+01:00</time>
      </trkpt>
      <trkpt lat="48.71172" lon="-3.8087">
        <ele>6.3</ele>
        <time>2023-01-02T13:35:52+01:00</time>
      </trkpt>
      <trkpt lat="48.71181" lon="-3.80897">
        <ele>5.6</ele>
        <time>2023-01-02T13:36:08+01:00</time>
      </trkpt>
      <trkpt lat="48.7119" lon="-3.80924">
        <ele>5.8</ele>
        <time>2023-01-02T13:36:23+01:00</time>
      </trkpt>
      <trkpt lat="48.71196" lon="-3.80954">
        <ele>6.8</ele>
        <time>2023-01-02T13:36:38+01:00</time>
      </trkpt>
      <trkpt lat="48.71207" lon="-3.8098">
        <ele>5.8</ele>
        <time>2023-01-02T13:36:54+01:00</time>
      </trkpt>
      <trkpt lat="48.71216" lon="-3.81007">
        <ele>5.4</ele>
        <time>2023-01-02T13:37:10+01:00</time>
      </trkpt>
      <trkpt lat="48.71226" lon="-3.8103">
        <ele>6.5</ele>
        <time>2023-01-02T13:37:28+01:00</time>
      </trkpt>
      <trkpt lat="48.71235" lon="-3.81056">
        <ele>5.7</ele>
        <time>2023-01-02T13:37:45+01:00</time>
      </trkpt>
      <trkpt lat="48.71253" lon="-3.81067">
        <ele>4.3</ele>
        <time>2023-01-02T13:38:19+01:00</time>
      </trkpt>
      <trkpt lat="48.71267" lon="-3.81085">
        <ele>3.8</ele>
        <time>2023-01-02T13:38:36+01:00</time>
      </trkpt>
      <trkpt lat="48.71279" lon="-3.8111">
        <ele>3</ele>
        <time>2023-01-02T13:38:54+01:00</time>
      </trkpt>
      <trkpt lat="48.71287" lon="-3.81136">
        <ele>3.6</ele>
        <time>2023-01-02T13:39:12+01:00</time>
      </trkpt>
      <trkpt lat="48.71295" lon="-3.81163">
        <ele>3.7</ele>
        <time>2023-01-02T13:39:30+01:00</time>
      </trkpt>
      <trkpt lat="48.71304" lon="-3.81189">
        <ele>4</ele>
        <time>2023-01-02T13:39:48+01:00</time>
      </trkpt>
      <trkpt lat="48.7131" lon="-3.81216">
        <ele>3.8</ele>
        <time>2023-01-02T13:40:04+01:00</time>
      </trkpt>
      <trkpt lat="48.71321" lon="-3.81241">
        <ele>3.7</ele>
        <time>2023-01-02T13:40:22+01:00</time>
      </trkpt>
      <trkpt lat="48.71317" lon="-3.81269">
        <ele>5.3</ele>
        <time>2023-01-02T13:41:47+01:00</time>
      </trkpt>
      <trkpt lat="48.71305" lon="-3.8129">
        <ele>7</ele>
        <time>2023-01-02T13:42:04+01:00</time>
      </trkpt>
      <trkpt lat="48.7129" lon="-3.81312">
        <ele>7</ele>
        <time>2023-01-02T13:42:22+01:00</time>
      </trkpt>
      <trkpt lat="48.71264" lon="-3.81348">
        <ele>7</ele>
        <time>2023-01-02T13:42:38+01:00</time>
      </trkpt>
      <trkpt lat="48.71279" lon="-3.81365">
        <ele>7.1</ele>
        <time>2023-01-02T13:43:01+01:00</time>
      </trkpt>
      <trkpt lat="48.71295" lon="-3.8138">
        <ele>7.7</ele>
        <time>2023-01-02T13:43:16+01:00</time>
      </trkpt>
      <trkpt lat="48.71313" lon="-3.81396">
        <ele>8.5</ele>
        <time>2023-01-02T13:43:32+01:00</time>
      </trkpt>
      <trkpt lat="48.71331" lon="-3.81408">
        <ele>9.6</ele>
        <time>2023-01-02T13:43:48+01:00</time>
      </trkpt>
      <trkpt lat="48.7135" lon="-3.81417">
        <ele>10.6</ele>
        <time>2023-01-02T13:44:06+01:00</time>
      </trkpt>
      <trkpt lat="48.71368" lon="-3.81432">
        <ele>11.8</ele>
        <time>2023-01-02T13:45:25+01:00</time>
      </trkpt>
      <trkpt lat="48.71382" lon="-3.81451">
        <ele>13.9</ele>
        <time>2023-01-02T13:45:40+01:00</time>
      </trkpt>
      <trkpt lat="48.71393" lon="-3.81477">
        <ele>16.4</ele>
        <time>2023-01-02T13:45:56+01:00</time>
      </trkpt>
      <trkpt lat="48.71404" lon="-3.81498">
        <ele>17.5</ele>
        <time>2023-01-02T13:46:13+01:00</time>
      </trkpt>
      <trkpt lat="48.71421" lon="-3.81518">
        <ele>17.2</ele>
        <time>2023-01-02T13:46:30+01:00</time>
      </trkpt>
      <trkpt lat="48.71438" lon="-3.81535">
        <ele>15.9</ele>
        <time>2023-01-02T13:46:48+01:00</time>
      </trkpt>
      <trkpt lat="48.71455" lon="-3.81547">
        <ele>14</ele>
        <time>2023-01-02T13:47:04+01:00</time>
      </trkpt>
      <trkpt lat="48.7147" lon="-3.81562">
        <ele>12.1</ele>
        <time>2023-01-02T13:47:20+01:00</time>
      </trkpt>
      <trkpt lat="48.71485" lon="-3.8158">
        <ele>11.1</ele>
        <time>2023-01-02T13:47:37+01:00</time>
      </trkpt>
      <trkpt lat="48.71502" lon="-3.81591">
        <ele>9.9</ele>
        <time>2023-01-02T13:47:53+01:00</time>
      </trkpt>
      <trkpt lat="48.7152" lon="-3.81608">
        <ele>8.6</ele>
        <time>2023-01-02T13:48:09+01:00</time>
      </trkpt>
      <trkpt lat="48.71538" lon="-3.81617">
        <ele>7.6</ele>
        <time>2023-01-02T13:48:29+01:00</time>
      </trkpt>
      <trkpt lat="48.71556" lon="-3.81599">
        <ele>7</ele>
        <time>2023-01-02T13:48:47+01:00</time>
      </trkpt>
      <trkpt lat="48.71577" lon="-3.8158">
        <ele>6.9</ele>
        <time>2023-01-02T13:49:03+01:00</time>
      </trkpt>
      <trkpt lat="48.71592" lon="-3.8163">
        <ele>6.1</ele>
        <time>2023-01-02T13:49:18+01:00</time>
      </trkpt>
      <trkpt lat="48.71608" lon="-3.81647">
        <ele>6.6</ele>
        <time>2023-01-02T13:49:34+01:00</time>
      </trkpt>
      <trkpt lat="48.71625" lon="-3.81657">
        <ele>5.7</ele>
        <time>2023-01-02T13:50:16+01:00</time>
      </trkpt>
      <trkpt lat="48.7164" lon="-3.81672">
        <ele>6.2</ele>
        <time>2023-01-02T13:51:05+01:00</time>
      </trkpt>
      <trkpt lat="48.71659" lon="-3.81681">
        <ele>6.5</ele>
        <time>2023-01-02T13:51:28+01:00</time>
      </trkpt>
      <trkpt lat="48.71679" lon="-3.81687">
        <ele>6.4</ele>
        <time>2023-01-02T13:51:46+01:00</time>
      </trkpt>
      <trkpt lat="48.71696" lon="-3.81698">
        <ele>7.5</ele>
        <time>2023-01-02T13:52:02+01:00</time>
      </trkpt>
      <trkpt lat="48.71715" lon="-3.8169">
        <ele>7</ele>
        <time>2023-01-02T13:52:20+01:00</time>
      </trkpt>
      <trkpt lat="48.71735" lon="-3.81683">
        <ele>6.4</ele>
        <time>2023-01-02T13:52:36+01:00</time>
      </trkpt>
      <trkpt lat="48.71754" lon="-3.81689">
        <ele>6.8</ele>
        <time>2023-01-02T13:52:52+01:00</time>
      </trkpt>
      <trkpt lat="48.71768" lon="-3.81711">
        <ele>7</ele>
        <time>2023-01-02T13:53:09+01:00</time>
      </trkpt>
      <trkpt lat="48.71783" lon="-3.81731">
        <ele>7.4</ele>
        <time>2023-01-02T13:53:27+01:00</time>
      </trkpt>
      <trkpt lat="48.71799" lon="-3.81743">
        <ele>7</ele>
        <time>2023-01-02T13:53:46+01:00</time>
      </trkpt>
      <trkpt lat="48.71815" lon="-3.81759">
        <ele>6.9</ele>
        <time>2023-01-02T13:54:02+01:00</time>
      </trkpt>
      <trkpt lat="48.71827" lon="-3.81781">
        <ele>8.2</ele>
        <time>2023-01-02T13:54:20+01:00</time>
      </trkpt>
      <trkpt lat="48.71813" lon="-3.81803">
        <ele>11.3</ele>
        <time>2023-01-02T13:55:22+01:00</time>
      </trkpt>
      <trkpt lat="48.71811" lon="-3.81831">
        <ele>15.3</ele>
        <time>2023-01-02T13:55:49+01:00</time>
      </trkpt>
      <trkpt lat="48.71819" lon="-3.81857">
        <ele>17.5</ele>
        <time>2023-01-02T13:56:15+01:00</time>
      </trkpt>
      <trkpt lat="48.71805" lon="-3.81874">
        <ele>19</ele>
        <time>2023-01-02T13:56:39+01:00</time>
      </trkpt>
      <trkpt lat="48.718" lon="-3.81903">
        <ele>19.9</ele>
        <time>2023-01-02T13:57:01+01:00</time>
      </trkpt>
      <trkpt lat="48.71798" lon="-3.81933">
        <ele>19.2</ele>
        <time>2023-01-02T13:57:23+01:00</time>
      </trkpt>
      <trkpt lat="48.71799" lon="-3.81962">
        <ele>17.1</ele>
        <time>2023-01-02T13:58:13+01:00</time>
      </trkpt>
      <trkpt lat="48.71814" lon="-3.81979">
        <ele>17.1</ele>
        <time>2023-01-02T13:58:31+01:00</time>
      </trkpt>
      <trkpt lat="48.71828" lon="-3.81996">
        <ele>17.6</ele>
        <time>2023-01-02T13:59:02+01:00</time>
      </trkpt>
      <trkpt lat="48.71845" lon="-3.82011">
        <ele>17.8</ele>
        <time>2023-01-02T13:59:25+01:00</time>
      </trkpt>
      <trkpt lat="48.71846" lon="-3.82042">
        <ele>15.1</ele>
        <time>2023-01-02T14:00:03+01:00</time>
      </trkpt>
      <trkpt lat="48.71858" lon="-3.82068">
        <ele>12.7</ele>
        <time>2023-01-02T14:00:28+01:00</time>
      </trkpt>
      <trkpt lat="48.71874" lon="-3.82084">
        <ele>8.8</ele>
        <time>2023-01-02T14:00:52+01:00</time>
      </trkpt>
      <trkpt lat="48.71856" lon="-3.82097">
        <ele>10.9</ele>
        <time>2023-01-02T14:02:01+01:00</time>
      </trkpt>
      <trkpt lat="48.71842" lon="-3.82079">
        <ele>8.5</ele>
        <time>2023-01-02T14:02:23+01:00</time>
      </trkpt>
      <trkpt lat="48.71829" lon="-3.82054">
        <ele>10</ele>
        <time>2023-01-02T14:02:45+01:00</time>
      </trkpt>
      <trkpt lat="48.71816" lon="-3.82035">
        <ele>9.5</ele>
        <time>2023-01-02T14:03:06+01:00</time>
      </trkpt>
      <trkpt lat="48.71803" lon="-3.82013">
        <ele>10.5</ele>
        <time>2023-01-02T14:03:24+01:00</time>
      </trkpt>
      <trkpt lat="48.71786" lon="-3.82004">
        <ele>11.4</ele>
        <time>2023-01-02T14:03:42+01:00</time>
      </trkpt>
      <trkpt lat="48.71767" lon="-3.82">
        <ele>11.9</ele>
        <time>2023-01-02T14:03:59+01:00</time>
      </trkpt>
      <trkpt lat="48.71749" lon="-3.81993">
        <ele>13.4</ele>
        <time>2023-01-02T14:04:23+01:00</time>
      </trkpt>
      <trkpt lat="48.71733" lon="-3.81975">
        <ele>18.2</ele>
        <time>2023-01-02T14:04:46+01:00</time>
      </trkpt>
      <trkpt lat="48.71715" lon="-3.81973">
        <ele>21.8</ele>
        <time>2023-01-02T14:05:14+01:00</time>
      </trkpt>
      <trkpt lat="48.71698" lon="-3.8196">
        <ele>26</ele>
        <time>2023-01-02T14:06:13+01:00</time>
      </trkpt>
      <trkpt lat="48.71694" lon="-3.81934">
        <ele>24.1</ele>
        <time>2023-01-02T14:06:47+01:00</time>
      </trkpt>
      <trkpt lat="48.71693" lon="-3.81904">
        <ele>20.7</ele>
        <time>2023-01-02T14:07:37+01:00</time>
      </trkpt>
      <trkpt lat="48.71674" lon="-3.81902">
        <ele>15.7</ele>
        <time>2023-01-02T14:08:07+01:00</time>
      </trkpt>
      <trkpt lat="48.71656" lon="-3.81895">
        <ele>13.4</ele>
        <time>2023-01-02T14:08:32+01:00</time>
      </trkpt>
      <trkpt lat="48.7164" lon="-3.81877">
        <ele>11.3</ele>
        <time>2023-01-02T14:09:04+01:00</time>
      </trkpt>
      <trkpt lat="48.71622" lon="-3.81861">
        <ele>8.2</ele>
        <time>2023-01-02T14:09:26+01:00</time>
      </trkpt>
      <trkpt lat="48.71603" lon="-3.81853">
        <ele>7</ele>
        <time>2023-01-02T14:09:42+01:00</time>
      </trkpt>
      <trkpt lat="48.71586" lon="-3.81844">
        <ele>6.7</ele>
        <time>2023-01-02T14:09:57+01:00</time>
      </trkpt>
      <trkpt lat="48.71568" lon="-3.81839">
        <ele>7.4</ele>
        <time>2023-01-02T14:10:14+01:00</time>
      </trkpt>
      <trkpt lat="48.7155" lon="-3.8184">
        <ele>8</ele>
        <time>2023-01-02T14:10:29+01:00</time>
      </trkpt>
      <trkpt lat="48.71531" lon="-3.81838">
        <ele>8.7</ele>
        <time>2023-01-02T14:10:45+01:00</time>
      </trkpt>
      <trkpt lat="48.71511" lon="-3.81836">
        <ele>10.9</ele>
        <time>2023-01-02T14:11:05+01:00</time>
      </trkpt>
      <trkpt lat="48.71492" lon="-3.81842">
        <ele>14.7</ele>
        <time>2023-01-02T14:11:28+01:00</time>
      </trkpt>
      <trkpt lat="48.71473" lon="-3.81838">
        <ele>17.2</ele>
        <time>2023-01-02T14:11:46+01:00</time>
      </trkpt>
      <trkpt lat="48.71455" lon="-3.81832">
        <ele>17.1</ele>
        <time>2023-01-02T14:12:03+01:00</time>
      </trkpt>
      <trkpt lat="48.71435" lon="-3.81834">
        <ele>18</ele>
        <time>2023-01-02T14:12:22+01:00</time>
      </trkpt>
      <trkpt lat="48.71416" lon="-3.81832">
        <ele>17.9</ele>
        <time>2023-01-02T14:12:46+01:00</time>
      </trkpt>
      <trkpt lat="48.71398" lon="-3.81838">
        <ele>16.7</ele>
        <time>2023-01-02T14:13:05+01:00</time>
      </trkpt>
      <trkpt lat="48.71379" lon="-3.81845">
        <ele>14.1</ele>
        <time>2023-01-02T14:13:27+01:00</time>
      </trkpt>
      <trkpt lat="48.71359" lon="-3.81844">
        <ele>10.8</ele>
        <time>2023-01-02T14:13:45+01:00</time>
      </trkpt>
      <trkpt lat="48.71342" lon="-3.8185">
        <ele>7.8</ele>
        <time>2023-01-02T14:14:05+01:00</time>
      </trkpt>
      <trkpt lat="48.71328" lon="-3.81832">
        <ele>7.2</ele>
        <time>2023-01-02T14:15:32+01:00</time>
      </trkpt>
      <trkpt lat="48.71313" lon="-3.81811">
        <ele>7.5</ele>
        <time>2023-01-02T14:15:48+01:00</time>
      </trkpt>
      <trkpt lat="48.71304" lon="-3.81787">
        <ele>8</ele>
        <time>2023-01-02T14:16:05+01:00</time>
      </trkpt>
      <trkpt lat="48.71295" lon="-3.81762">
        <ele>9.3</ele>
        <time>2023-01-02T14:16:21+01:00</time>
      </trkpt>
      <trkpt lat="48.71281" lon="-3.81738">
        <ele>8</ele>
        <time>2023-01-02T14:16:39+01:00</time>
      </trkpt>
      <trkpt lat="48.71268" lon="-3.81715">
        <ele>7.3</ele>
        <time>2023-01-02T14:16:59+01:00</time>
      </trkpt>
      <trkpt lat="48.71249" lon="-3.81702">
        <ele>6.4</ele>
        <time>2023-01-02T14:17:14+01:00</time>
      </trkpt>
      <trkpt lat="48.71232" lon="-3.8169">
        <ele>5.8</ele>
        <time>2023-01-02T14:17:30+01:00</time>
      </trkpt>
      <trkpt lat="48.71212" lon="-3.81681">
        <ele>5.3</ele>
        <time>2023-01-02T14:35:14+01:00</time>
      </trkpt>
      <trkpt lat="48.71194" lon="-3.8168">
        <ele>5.1</ele>
        <time>2023-01-02T14:35:27+01:00</time>
      </trkpt>
      <trkpt lat="48.71183" lon="-3.81674">
        <ele>5.6</ele>
        <time>2023-01-05T13:43:18+01:00</time>
      </trkpt>
      <trkpt lat="48.71104" lon="-3.81708">
        <ele>6.9</ele>
        <time>2023-01-05T13:44:30+01:00</time>
      </trkpt>
      <trkpt lat="48.71088" lon="-3.81722">
        <ele>6.9</ele>
        <time>2023-01-05T13:44:44+01:00</time>
      </trkpt>
      <trkpt lat="48.71073" lon="-3.81742">
        <ele>7.3</ele>
        <time>2023-01-05T13:44:57+01:00</time>
      </trkpt>
      <trkpt lat="48.71059" lon="-3.81762">
        <ele>7.6</ele>
        <time>2023-01-05T13:45:11+01:00</time>
      </trkpt>
      <trkpt lat="48.71048" lon="-3.81785">
        <ele>8.7</ele>
        <time>2023-01-05T13:45:24+01:00</time>
      </trkpt>
      <trkpt lat="48.71038" lon="-3.81813">
        <ele>7.8</ele>
        <time>2023-01-05T13:45:38+01:00</time>
      </trkpt>
      <trkpt lat="48.71028" lon="-3.8184">
        <ele>7.2</ele>
        <time>2023-01-05T13:45:51+01:00</time>
      </trkpt>
      <trkpt lat="48.71016" lon="-3.81866">
        <ele>6.7</ele>
        <time>2023-01-05T13:46:05+01:00</time>
      </trkpt>
      <trkpt lat="48.70999" lon="-3.81885">
        <ele>7.5</ele>
        <time>2023-01-05T13:46:18+01:00</time>
      </trkpt>
      <trkpt lat="48.70982" lon="-3.81896">
        <ele>6.2</ele>
        <time>2023-01-05T13:46:29+01:00</time>
      </trkpt>
      <trkpt lat="48.70965" lon="-3.81909">
        <ele>6.1</ele>
        <time>2023-01-05T13:46:44+01:00</time>
      </trkpt>
      <trkpt lat="48.70946" lon="-3.81921">
        <ele>7</ele>
        <time>2023-01-05T13:47:16+01:00</time>
      </trkpt>
      <trkpt lat="48.70929" lon="-3.81931">
        <ele>7.2</ele>
        <time>2023-01-05T13:47:27+01:00</time>
      </trkpt>
      <trkpt lat="48.70913" lon="-3.81946">
        <ele>8</ele>
        <time>2023-01-05T13:47:40+01:00</time>
      </trkpt>
      <trkpt lat="48.70897" lon="-3.81964">
        <ele>7.9</ele>
        <time>2023-01-05T13:47:56+01:00</time>
      </trkpt>
      <trkpt lat="48.7088" lon="-3.81982">
        <ele>9.5</ele>
        <time>2023-01-05T13:48:10+01:00</time>
      </trkpt>
      <trkpt lat="48.70863" lon="-3.82">
        <ele>11.7</ele>
        <time>2023-01-05T13:48:23+01:00</time>
      </trkpt>
      <trkpt lat="48.70845" lon="-3.82015">
        <ele>13.5</ele>
        <time>2023-01-05T13:48:37+01:00</time>
      </trkpt>
      <trkpt lat="48.70824" lon="-3.82026">
        <ele>15</ele>
        <time>2023-01-05T13:48:50+01:00</time>
      </trkpt>
      <trkpt lat="48.70804" lon="-3.8203">
        <ele>15</ele>
        <time>2023-01-05T13:49:05+01:00</time>
      </trkpt>
      <trkpt lat="48.70784" lon="-3.82029">
        <ele>14.1</ele>
        <time>2023-01-05T13:49:18+01:00</time>
      </trkpt>
      <trkpt lat="48.70771" lon="-3.82007">
        <ele>15.3</ele>
        <time>2023-01-05T13:49:34+01:00</time>
      </trkpt>
      <trkpt lat="48.70752" lon="-3.82002">
        <ele>15.6</ele>
        <time>2023-01-05T13:49:45+01:00</time>
      </trkpt>
      <trkpt lat="48.70732" lon="-3.81997">
        <ele>17</ele>
        <time>2023-01-05T13:50:01+01:00</time>
      </trkpt>
      <trkpt lat="48.70714" lon="-3.8199">
        <ele>19.4</ele>
        <time>2023-01-05T13:50:17+01:00</time>
      </trkpt>
      <trkpt lat="48.70696" lon="-3.81987">
        <ele>20.4</ele>
        <time>2023-01-05T13:50:31+01:00</time>
      </trkpt>
      <trkpt lat="48.70677" lon="-3.81989">
        <ele>19.5</ele>
        <time>2023-01-05T13:50:44+01:00</time>
      </trkpt>
      <trkpt lat="48.70658" lon="-3.81986">
        <ele>20.6</ele>
        <time>2023-01-05T13:50:56+01:00</time>
      </trkpt>
      <trkpt lat="48.7064" lon="-3.81979">
        <ele>23.2</ele>
        <time>2023-01-05T13:51:08+01:00</time>
      </trkpt>
      <trkpt lat="48.70622" lon="-3.81979">
        <ele>23.3</ele>
        <time>2023-01-05T13:51:21+01:00</time>
      </trkpt>
      <trkpt lat="48.70603" lon="-3.81983">
        <ele>21.8</ele>
        <time>2023-01-05T13:51:37+01:00</time>
      </trkpt>
      <trkpt lat="48.70583" lon="-3.81981">
        <ele>21.1</ele>
        <time>2023-01-05T13:51:50+01:00</time>
      </trkpt>
      <trkpt lat="48.70565" lon="-3.81972">
        <ele>23.4</ele>
        <time>2023-01-05T13:52:05+01:00</time>
      </trkpt>
      <trkpt lat="48.70545" lon="-3.81976">
        <ele>23.8</ele>
        <time>2023-01-05T13:52:19+01:00</time>
      </trkpt>
      <trkpt lat="48.70525" lon="-3.81979">
        <ele>23.8</ele>
        <time>2023-01-05T13:52:33+01:00</time>
      </trkpt>
      <trkpt lat="48.70507" lon="-3.81976">
        <ele>24.4</ele>
        <time>2023-01-05T13:52:46+01:00</time>
      </trkpt>
      <trkpt lat="48.70489" lon="-3.8197">
        <ele>24.6</ele>
        <time>2023-01-05T13:53:01+01:00</time>
      </trkpt>
      <trkpt lat="48.70469" lon="-3.81968">
        <ele>23.7</ele>
        <time>2023-01-05T13:53:12+01:00</time>
      </trkpt>
      <trkpt lat="48.70451" lon="-3.81962">
        <ele>24.5</ele>
        <time>2023-01-05T13:53:26+01:00</time>
      </trkpt>
      <trkpt lat="48.7043" lon="-3.81956">
        <ele>24.6</ele>
        <time>2023-01-05T13:53:40+01:00</time>
      </trkpt>
      <trkpt lat="48.70415" lon="-3.8194">
        <ele>26.5</ele>
        <time>2023-01-05T13:53:52+01:00</time>
      </trkpt>
      <trkpt lat="48.70396" lon="-3.81931">
        <ele>27.4</ele>
        <time>2023-01-05T13:54:04+01:00</time>
      </trkpt>
      <trkpt lat="48.70377" lon="-3.81926">
        <ele>28.1</ele>
        <time>2023-01-05T13:54:18+01:00</time>
      </trkpt>
      <trkpt lat="48.70357" lon="-3.81919">
        <ele>29.5</ele>
        <time>2023-01-05T13:54:39+01:00</time>
      </trkpt>
      <trkpt lat="48.70336" lon="-3.81913">
        <ele>29.6</ele>
        <time>2023-01-05T13:54:56+01:00</time>
      </trkpt>
      <trkpt lat="48.70316" lon="-3.81908">
        <ele>29.3</ele>
        <time>2023-01-05T13:55:09+01:00</time>
      </trkpt>
      <trkpt lat="48.70298" lon="-3.81898">
        <ele>29.7</ele>
        <time>2023-01-05T13:55:23+01:00</time>
      </trkpt>
      <trkpt lat="48.70282" lon="-3.81882">
        <ele>31.6</ele>
        <time>2023-01-05T13:55:37+01:00</time>
      </trkpt>
      <trkpt lat="48.70267" lon="-3.81864">
        <ele>32.2</ele>
        <time>2023-01-05T13:55:51+01:00</time>
      </trkpt>
      <trkpt lat="48.70252" lon="-3.81848">
        <ele>31.3</ele>
        <time>2023-01-05T13:56:05+01:00</time>
      </trkpt>
      <trkpt lat="48.70238" lon="-3.8183">
        <ele>30.9</ele>
        <time>2023-01-05T13:56:26+01:00</time>
      </trkpt>
      <trkpt lat="48.70221" lon="-3.81816">
        <ele>30.6</ele>
        <time>2023-01-05T13:56:41+01:00</time>
      </trkpt>
      <trkpt lat="48.70205" lon="-3.81801">
        <ele>31.3</ele>
        <time>2023-01-05T13:56:55+01:00</time>
      </trkpt>
      <trkpt lat="48.70185" lon="-3.81786">
        <ele>31.1</ele>
        <time>2023-01-05T13:57:09+01:00</time>
      </trkpt>
      <trkpt lat="48.70169" lon="-3.81773">
        <ele>31.3</ele>
        <time>2023-01-05T13:57:22+01:00</time>
      </trkpt>
      <trkpt lat="48.70152" lon="-3.81759">
        <ele>33.1</ele>
        <time>2023-01-05T13:57:35+01:00</time>
      </trkpt>
      <trkpt lat="48.70136" lon="-3.8174">
        <ele>34.8</ele>
        <time>2023-01-05T13:57:49+01:00</time>
      </trkpt>
      <trkpt lat="48.70119" lon="-3.81729">
        <ele>34.4</ele>
        <time>2023-01-05T13:57:58+01:00</time>
      </trkpt>
      <trkpt lat="48.70101" lon="-3.81726">
        <ele>34.1</ele>
        <time>2023-01-05T13:58:08+01:00</time>
      </trkpt>
      <trkpt lat="48.70083" lon="-3.81719">
        <ele>35.6</ele>
        <time>2023-01-05T13:58:22+01:00</time>
      </trkpt>
      <trkpt lat="48.70065" lon="-3.81714">
        <ele>37</ele>
        <time>2023-01-05T13:58:35+01:00</time>
      </trkpt>
      <trkpt lat="48.70047" lon="-3.81703">
        <ele>38.7</ele>
        <time>2023-01-05T13:58:49+01:00</time>
      </trkpt>
      <trkpt lat="48.70028" lon="-3.81693">
        <ele>40.3</ele>
        <time>2023-01-05T13:59:05+01:00</time>
      </trkpt>
      <trkpt lat="48.70011" lon="-3.81682">
        <ele>42.2</ele>
        <time>2023-01-05T13:59:19+01:00</time>
      </trkpt>
      <trkpt lat="48.69992" lon="-3.8168">
        <ele>42.2</ele>
        <time>2023-01-05T13:59:33+01:00</time>
      </trkpt>
      <trkpt lat="48.69972" lon="-3.81672">
        <ele>43</ele>
        <time>2023-01-05T13:59:48+01:00</time>
      </trkpt>
      <trkpt lat="48.6995" lon="-3.81664">
        <ele>43.6</ele>
        <time>2023-01-05T14:00:03+01:00</time>
      </trkpt>
      <trkpt lat="48.69929" lon="-3.81659">
        <ele>42.6</ele>
        <time>2023-01-05T14:00:14+01:00</time>
      </trkpt>
      <trkpt lat="48.69908" lon="-3.81654">
        <ele>41.9</ele>
        <time>2023-01-05T14:00:28+01:00</time>
      </trkpt>
      <trkpt lat="48.6989" lon="-3.8165">
        <ele>42.1</ele>
        <time>2023-01-05T14:00:40+01:00</time>
      </trkpt>
      <trkpt lat="48.69872" lon="-3.81644">
        <ele>42.1</ele>
        <time>2023-01-05T14:00:52+01:00</time>
      </trkpt>
      <trkpt lat="48.69853" lon="-3.81638">
        <ele>42.4</ele>
        <time>2023-01-05T14:01:05+01:00</time>
      </trkpt>
      <trkpt lat="48.69836" lon="-3.81628">
        <ele>44.2</ele>
        <time>2023-01-05T14:01:18+01:00</time>
      </trkpt>
      <trkpt lat="48.69817" lon="-3.8162">
        <ele>44.5</ele>
        <time>2023-01-05T14:01:39+01:00</time>
      </trkpt>
      <trkpt lat="48.69832" lon="-3.81641">
        <ele>42.5</ele>
        <time>2023-01-05T14:02:33+01:00</time>
      </trkpt>
      <trkpt lat="48.69845" lon="-3.81661">
        <ele>38.8</ele>
        <time>2023-01-05T14:02:46+01:00</time>
      </trkpt>
      <trkpt lat="48.6986" lon="-3.81676">
        <ele>36.9</ele>
        <time>2023-01-05T14:03:02+01:00</time>
      </trkpt>
      <trkpt lat="48.69876" lon="-3.81697">
        <ele>33.6</ele>
        <time>2023-01-05T14:03:18+01:00</time>
      </trkpt>
      <trkpt lat="48.6989" lon="-3.81717">
        <ele>30.1</ele>
        <time>2023-01-05T14:03:33+01:00</time>
      </trkpt>
      <trkpt lat="48.69907" lon="-3.81733">
        <ele>28.2</ele>
        <time>2023-01-05T14:03:49+01:00</time>
      </trkpt>
      <trkpt lat="48.69915" lon="-3.8176">
        <ele>22.9</ele>
        <time>2023-01-05T14:05:02+01:00</time>
      </trkpt>
      <trkpt lat="48.69934" lon="-3.8177">
        <ele>21.2</ele>
        <time>2023-01-05T14:05:16+01:00</time>
      </trkpt>
      <trkpt lat="48.69955" lon="-3.81777">
        <ele>21.3</ele>
        <time>2023-01-05T14:05:32+01:00</time>
      </trkpt>
      <trkpt lat="48.69973" lon="-3.81784">
        <ele>21.7</ele>
        <time>2023-01-05T14:05:43+01:00</time>
      </trkpt>
      <trkpt lat="48.69993" lon="-3.81797">
        <ele>18.6</ele>
        <time>2023-01-05T14:05:56+01:00</time>
      </trkpt>
      <trkpt lat="48.70002" lon="-3.81822">
        <ele>15.2</ele>
        <time>2023-01-05T14:06:11+01:00</time>
      </trkpt>
      <trkpt lat="48.69984" lon="-3.81833">
        <ele>13.5</ele>
        <time>2023-01-05T14:06:27+01:00</time>
      </trkpt>
      <trkpt lat="48.69964" lon="-3.81828">
        <ele>13.3</ele>
        <time>2023-01-05T14:06:43+01:00</time>
      </trkpt>
      <trkpt lat="48.69945" lon="-3.8183">
        <ele>11.7</ele>
        <time>2023-01-05T14:07:01+01:00</time>
      </trkpt>
      <trkpt lat="48.69946" lon="-3.81858">
        <ele>9.2</ele>
        <time>2023-01-05T14:07:39+01:00</time>
      </trkpt>
      <trkpt lat="48.69961" lon="-3.81873">
        <ele>8.8</ele>
        <time>2023-01-05T14:07:54+01:00</time>
      </trkpt>
      <trkpt lat="48.69978" lon="-3.81886">
        <ele>8.1</ele>
        <time>2023-01-05T14:08:12+01:00</time>
      </trkpt>
      <trkpt lat="48.69994" lon="-3.819">
        <ele>7.7</ele>
        <time>2023-01-05T14:08:27+01:00</time>
      </trkpt>
      <trkpt lat="48.70013" lon="-3.81913">
        <ele>7.1</ele>
        <time>2023-01-05T14:08:43+01:00</time>
      </trkpt>
      <trkpt lat="48.7003" lon="-3.81927">
        <ele>7</ele>
        <time>2023-01-05T14:08:57+01:00</time>
      </trkpt>
      <trkpt lat="48.70046" lon="-3.81944">
        <ele>7</ele>
        <time>2023-01-05T14:09:10+01:00</time>
      </trkpt>
      <trkpt lat="48.70054" lon="-3.8197">
        <ele>7.1</ele>
        <time>2023-01-05T14:09:28+01:00</time>
      </trkpt>
      <trkpt lat="48.70058" lon="-3.82001">
        <ele>7.8</ele>
        <time>2023-01-05T14:09:47+01:00</time>
      </trkpt>
      <trkpt lat="48.70059" lon="-3.8203">
        <ele>6.8</ele>
        <time>2023-01-05T14:09:58+01:00</time>
      </trkpt>
      <trkpt lat="48.70064" lon="-3.82058">
        <ele>6.4</ele>
        <time>2023-01-05T14:10:12+01:00</time>
      </trkpt>
      <trkpt lat="48.70073" lon="-3.82083">
        <ele>5.8</ele>
        <time>2023-01-05T14:10:25+01:00</time>
      </trkpt>
      <trkpt lat="48.70083" lon="-3.82109">
        <ele>5</ele>
        <time>2023-01-05T14:10:41+01:00</time>
      </trkpt>
      <trkpt lat="48.70093" lon="-3.82134">
        <ele>4.6</ele>
        <time>2023-01-05T14:10:55+01:00</time>
      </trkpt>
      <trkpt lat="48.70107" lon="-3.82154">
        <ele>4.2</ele>
        <time>2023-01-05T14:11:14+01:00</time>
      </trkpt>
      <trkpt lat="48.70107" lon="-3.82182">
        <ele>5.3</ele>
        <time>2023-01-05T14:13:50+01:00</time>
      </trkpt>
      <trkpt lat="48.70122" lon="-3.82202">
        <ele>5.8</ele>
        <time>2023-01-05T14:15:41+01:00</time>
      </trkpt>
      <trkpt lat="48.70137" lon="-3.82219">
        <ele>5.2</ele>
        <time>2023-01-05T14:15:53+01:00</time>
      </trkpt>
      <trkpt lat="48.7015" lon="-3.82241">
        <ele>5</ele>
        <time>2023-01-05T14:16:06+01:00</time>
      </trkpt>
      <trkpt lat="48.70166" lon="-3.82261">
        <ele>5</ele>
        <time>2023-01-05T14:16:22+01:00</time>
      </trkpt>
      <trkpt lat="48.70181" lon="-3.8228">
        <ele>4.6</ele>
        <time>2023-01-05T14:16:35+01:00</time>
      </trkpt>
      <trkpt lat="48.70194" lon="-3.82301">
        <ele>5.7</ele>
        <time>2023-01-05T14:16:49+01:00</time>
      </trkpt>
      <trkpt lat="48.70208" lon="-3.82326">
        <ele>4.9</ele>
        <time>2023-01-05T14:17:04+01:00</time>
      </trkpt>
      <trkpt lat="48.70216" lon="-3.82351">
        <ele>4</ele>
        <time>2023-01-05T14:17:28+01:00</time>
      </trkpt>
      <trkpt lat="48.70226" lon="-3.82374">
        <ele>3.5</ele>
        <time>2023-01-05T14:17:38+01:00</time>
      </trkpt>
      <trkpt lat="48.70237" lon="-3.824">
        <ele>2.8</ele>
        <time>2023-01-05T14:17:51+01:00</time>
      </trkpt>
      <trkpt lat="48.70249" lon="-3.82425">
        <ele>2</ele>
        <time>2023-01-05T14:18:05+01:00</time>
      </trkpt>
      <trkpt lat="48.70258" lon="-3.82451">
        <ele>3.6</ele>
        <time>2023-01-05T14:18:17+01:00</time>
      </trkpt>
      <trkpt lat="48.70267" lon="-3.8248">
        <ele>3.7</ele>
        <time>2023-01-05T14:18:31+01:00</time>
      </trkpt>
      <trkpt lat="48.70277" lon="-3.82505">
        <ele>3.5</ele>
        <time>2023-01-05T14:18:44+01:00</time>
      </trkpt>
      <trkpt lat="48.70287" lon="-3.82528">
        <ele>4</ele>
        <time>2023-01-05T14:18:55+01:00</time>
      </trkpt>
      <trkpt lat="48.70293" lon="-3.82557">
        <ele>4</ele>
        <time>2023-01-05T14:19:29+01:00</time>
      </trkpt>
      <trkpt lat="48.70303" lon="-3.82581">
        <ele>4.9</ele>
        <time>2023-01-05T14:19:40+01:00</time>
      </trkpt>
      <trkpt lat="48.70314" lon="-3.82605">
        <ele>4.6</ele>
        <time>2023-01-05T14:19:53+01:00</time>
      </trkpt>
      <trkpt lat="48.70325" lon="-3.82633">
        <ele>3.8</ele>
        <time>2023-01-05T14:20:09+01:00</time>
      </trkpt>
      <trkpt lat="48.70335" lon="-3.82659">
        <ele>4.2</ele>
        <time>2023-01-05T14:20:23+01:00</time>
      </trkpt>
      <trkpt lat="48.70346" lon="-3.82684">
        <ele>4.1</ele>
        <time>2023-01-05T14:20:36+01:00</time>
      </trkpt>
      <trkpt lat="48.70354" lon="-3.82712">
        <ele>4.7</ele>
        <time>2023-01-05T14:20:49+01:00</time>
      </trkpt>
      <trkpt lat="48.70362" lon="-3.82737">
        <ele>5.4</ele>
        <time>2023-01-05T14:21:03+01:00</time>
      </trkpt>
      <trkpt lat="48.70367" lon="-3.82768">
        <ele>5.7</ele>
        <time>2023-01-05T14:21:19+01:00</time>
      </trkpt>
      <trkpt lat="48.70376" lon="-3.82795">
        <ele>6.1</ele>
        <time>2023-01-05T14:21:34+01:00</time>
      </trkpt>
      <trkpt lat="48.70386" lon="-3.82819">
        <ele>6.6</ele>
        <time>2023-01-05T14:21:48+01:00</time>
      </trkpt>
      <trkpt lat="48.70399" lon="-3.82841">
        <ele>6.9</ele>
        <time>2023-01-05T14:22:01+01:00</time>
      </trkpt>
      <trkpt lat="48.70412" lon="-3.82865">
        <ele>7.4</ele>
        <time>2023-01-05T14:22:15+01:00</time>
      </trkpt>
      <trkpt lat="48.70426" lon="-3.82883">
        <ele>8.9</ele>
        <time>2023-01-05T14:22:30+01:00</time>
      </trkpt>
      <trkpt lat="48.70442" lon="-3.82897">
        <ele>9.9</ele>
        <time>2023-01-05T14:22:44+01:00</time>
      </trkpt>
      <trkpt lat="48.70462" lon="-3.82911">
        <ele>11.8</ele>
        <time>2023-01-05T14:22:59+01:00</time>
      </trkpt>
      <trkpt lat="48.70445" lon="-3.82893">
        <ele>10</ele>
        <time>2023-01-05T14:23:29+01:00</time>
      </trkpt>
      <trkpt lat="48.70427" lon="-3.82882">
        <ele>8.9</ele>
        <time>2023-01-05T14:23:42+01:00</time>
      </trkpt>
      <trkpt lat="48.70428" lon="-3.82851">
        <ele>6.9</ele>
        <time>2023-01-05T14:24:10+01:00</time>
      </trkpt>
      <trkpt lat="48.70441" lon="-3.8283">
        <ele>5.7</ele>
        <time>2023-01-05T14:24:29+01:00</time>
      </trkpt>
      <trkpt lat="48.7046" lon="-3.82838">
        <ele>6.8</ele>
        <time>2023-01-05T14:24:48+01:00</time>
      </trkpt>
      <trkpt lat="48.70479" lon="-3.82846">
        <ele>7.7</ele>
        <time>2023-01-05T14:25:08+01:00</time>
      </trkpt>
      <trkpt lat="48.70496" lon="-3.82854">
        <ele>8.6</ele>
        <time>2023-01-05T14:25:19+01:00</time>
      </trkpt>
      <trkpt lat="48.70514" lon="-3.82858">
        <ele>10.7</ele>
        <time>2023-01-05T14:25:41+01:00</time>
      </trkpt>
      <trkpt lat="48.70534" lon="-3.82858">
        <ele>13.5</ele>
        <time>2023-01-05T14:25:57+01:00</time>
      </trkpt>
      <trkpt lat="48.70553" lon="-3.82852">
        <ele>16.2</ele>
        <time>2023-01-05T14:26:13+01:00</time>
      </trkpt>
      <trkpt lat="48.7057" lon="-3.82843">
        <ele>16.7</ele>
        <time>2023-01-05T14:26:27+01:00</time>
      </trkpt>
      <trkpt lat="48.70589" lon="-3.82841">
        <ele>16.4</ele>
        <time>2023-01-05T14:26:43+01:00</time>
      </trkpt>
      <trkpt lat="48.70606" lon="-3.82849">
        <ele>15.5</ele>
        <time>2023-01-05T14:26:57+01:00</time>
      </trkpt>
      <trkpt lat="48.70626" lon="-3.82862">
        <ele>14.5</ele>
        <time>2023-01-05T14:27:25+01:00</time>
      </trkpt>
      <trkpt lat="48.70646" lon="-3.82855">
        <ele>12.3</ele>
        <time>2023-01-05T14:27:42+01:00</time>
      </trkpt>
      <trkpt lat="48.70665" lon="-3.8284">
        <ele>10.4</ele>
        <time>2023-01-05T14:28:05+01:00</time>
      </trkpt>
      <trkpt lat="48.70678" lon="-3.82822">
        <ele>8.9</ele>
        <time>2023-01-05T14:28:17+01:00</time>
      </trkpt>
      <trkpt lat="48.70692" lon="-3.82799">
        <ele>7.8</ele>
        <time>2023-01-05T14:28:33+01:00</time>
      </trkpt>
      <trkpt lat="48.70708" lon="-3.82782">
        <ele>6.7</ele>
        <time>2023-01-05T14:28:48+01:00</time>
      </trkpt>
      <trkpt lat="48.70726" lon="-3.82771">
        <ele>6</ele>
        <time>2023-01-05T14:29:08+01:00</time>
      </trkpt>
      <trkpt lat="48.70742" lon="-3.82754">
        <ele>6</ele>
        <time>2023-01-05T14:29:22+01:00</time>
      </trkpt>
      <trkpt lat="48.70755" lon="-3.82734">
        <ele>6</ele>
        <time>2023-01-05T14:29:33+01:00</time>
      </trkpt>
      <trkpt lat="48.7077" lon="-3.82716">
        <ele>5.6</ele>
        <time>2023-01-05T14:29:46+01:00</time>
      </trkpt>
      <trkpt lat="48.7079" lon="-3.82708">
        <ele>5</ele>
        <time>2023-01-05T14:30:03+01:00</time>
      </trkpt>
      <trkpt lat="48.70793" lon="-3.82736">
        <ele>6</ele>
        <time>2023-01-05T14:30:16+01:00</time>
      </trkpt>
      <trkpt lat="48.70791" lon="-3.82767">
        <ele>4.6</ele>
        <time>2023-01-05T14:30:31+01:00</time>
      </trkpt>
      <trkpt lat="48.70779" lon="-3.82791">
        <ele>5.3</ele>
        <time>2023-01-05T14:30:45+01:00</time>
      </trkpt>
      <trkpt lat="48.70774" lon="-3.8282">
        <ele>5.7</ele>
        <time>2023-01-05T14:31:21+01:00</time>
      </trkpt>
      <trkpt lat="48.7077" lon="-3.82851">
        <ele>5.3</ele>
        <time>2023-01-05T14:31:36+01:00</time>
      </trkpt>
      <trkpt lat="48.70782" lon="-3.82875">
        <ele>5.1</ele>
        <time>2023-01-05T14:32:01+01:00</time>
      </trkpt>
      <trkpt lat="48.70797" lon="-3.82895">
        <ele>5.7</ele>
        <time>2023-01-05T14:32:17+01:00</time>
      </trkpt>
      <trkpt lat="48.70816" lon="-3.82911">
        <ele>5.9</ele>
        <time>2023-01-05T14:32:33+01:00</time>
      </trkpt>
      <trkpt lat="48.70832" lon="-3.82928">
        <ele>5.8</ele>
        <time>2023-01-05T14:32:44+01:00</time>
      </trkpt>
      <trkpt lat="48.70843" lon="-3.82952">
        <ele>7.8</ele>
        <time>2023-01-05T14:32:59+01:00</time>
      </trkpt>
      <trkpt lat="48.7086" lon="-3.82962">
        <ele>7.7</ele>
        <time>2023-01-05T14:33:13+01:00</time>
      </trkpt>
      <trkpt lat="48.70876" lon="-3.82978">
        <ele>8.6</ele>
        <time>2023-01-05T14:33:26+01:00</time>
      </trkpt>
      <trkpt lat="48.70896" lon="-3.82987">
        <ele>10.3</ele>
        <time>2023-01-05T14:33:59+01:00</time>
      </trkpt>
      <trkpt lat="48.7091" lon="-3.83009">
        <ele>11.6</ele>
        <time>2023-01-05T14:34:13+01:00</time>
      </trkpt>
      <trkpt lat="48.70926" lon="-3.83029">
        <ele>11.6</ele>
        <time>2023-01-05T14:34:28+01:00</time>
      </trkpt>
      <trkpt lat="48.70942" lon="-3.83047">
        <ele>11.6</ele>
        <time>2023-01-05T14:34:46+01:00</time>
      </trkpt>
      <trkpt lat="48.70959" lon="-3.83063">
        <ele>10.6</ele>
        <time>2023-01-05T14:35:02+01:00</time>
      </trkpt>
      <trkpt lat="48.70975" lon="-3.83077">
        <ele>10.6</ele>
        <time>2023-01-05T14:35:17+01:00</time>
      </trkpt>
      <trkpt lat="48.70993" lon="-3.83083">
        <ele>9.5</ele>
        <time>2023-01-05T14:35:32+01:00</time>
      </trkpt>
      <trkpt lat="48.71008" lon="-3.831">
        <ele>10.2</ele>
        <time>2023-01-05T14:35:43+01:00</time>
      </trkpt>
      <trkpt lat="48.71025" lon="-3.83111">
        <ele>11</ele>
        <time>2023-01-05T14:35:55+01:00</time>
      </trkpt>
      <trkpt lat="48.71046" lon="-3.83117">
        <ele>10.8</ele>
        <time>2023-01-05T14:36:09+01:00</time>
      </trkpt>
      <trkpt lat="48.71064" lon="-3.83126">
        <ele>10.8</ele>
        <time>2023-01-05T14:36:22+01:00</time>
      </trkpt>
      <trkpt lat="48.71083" lon="-3.83129">
        <ele>10.3</ele>
        <time>2023-01-05T14:36:46+01:00</time>
      </trkpt>
      <trkpt lat="48.71098" lon="-3.83112">
        <ele>9</ele>
        <time>2023-01-05T14:37:01+01:00</time>
      </trkpt>
      <trkpt lat="48.71104" lon="-3.83082">
        <ele>7.2</ele>
        <time>2023-01-05T14:37:32+01:00</time>
      </trkpt>
      <trkpt lat="48.71123" lon="-3.83087">
        <ele>6.8</ele>
        <time>2023-01-05T14:38:46+01:00</time>
      </trkpt>
      <trkpt lat="48.71141" lon="-3.83087">
        <ele>6</ele>
        <time>2023-01-05T14:39:03+01:00</time>
      </trkpt>
      <trkpt lat="48.71148" lon="-3.83113">
        <ele>7</ele>
        <time>2023-01-05T14:40:17+01:00</time>
      </trkpt>
      <trkpt lat="48.7115" lon="-3.83142">
        <ele>7.7</ele>
        <time>2023-01-05T14:40:34+01:00</time>
      </trkpt>
      <trkpt lat="48.71139" lon="-3.83168">
        <ele>9</ele>
        <time>2023-01-05T14:41:10+01:00</time>
      </trkpt>
      <trkpt lat="48.71137" lon="-3.83196">
        <ele>9.2</ele>
        <time>2023-01-05T14:41:27+01:00</time>
      </trkpt>
      <trkpt lat="48.71128" lon="-3.83223">
        <ele>9.8</ele>
        <time>2023-01-05T14:41:46+01:00</time>
      </trkpt>
      <trkpt lat="48.71114" lon="-3.83243">
        <ele>13.8</ele>
        <time>2023-01-05T14:42:52+01:00</time>
      </trkpt>
      <trkpt lat="48.711" lon="-3.83262">
        <ele>16.1</ele>
        <time>2023-01-05T14:43:43+01:00</time>
      </trkpt>
      <trkpt lat="48.71087" lon="-3.83286">
        <ele>16.5</ele>
        <time>2023-01-05T14:44:03+01:00</time>
      </trkpt>
      <trkpt lat="48.71086" lon="-3.83315">
        <ele>13.7</ele>
        <time>2023-01-05T14:45:36+01:00</time>
      </trkpt>
      <trkpt lat="48.71074" lon="-3.83337">
        <ele>14.2</ele>
        <time>2023-01-05T14:45:51+01:00</time>
      </trkpt>
      <trkpt lat="48.71062" lon="-3.8336">
        <ele>15.4</ele>
        <time>2023-01-05T14:46:07+01:00</time>
      </trkpt>
      <trkpt lat="48.71051" lon="-3.83384">
        <ele>16.6</ele>
        <time>2023-01-05T14:46:24+01:00</time>
      </trkpt>
      <trkpt lat="48.71042" lon="-3.8341">
        <ele>17.9</ele>
        <time>2023-01-05T14:46:42+01:00</time>
      </trkpt>
      <trkpt lat="48.71023" lon="-3.83417">
        <ele>19.5</ele>
        <time>2023-01-05T14:47:04+01:00</time>
      </trkpt>
      <trkpt lat="48.71009" lon="-3.834">
        <ele>17.8</ele>
        <time>2023-01-05T14:47:21+01:00</time>
      </trkpt>
      <trkpt lat="48.70992" lon="-3.83388">
        <ele>16.5</ele>
        <time>2023-01-05T14:47:39+01:00</time>
      </trkpt>
      <trkpt lat="48.70977" lon="-3.83367">
        <ele>16</ele>
        <time>2023-01-05T14:47:57+01:00</time>
      </trkpt>
      <trkpt lat="48.7096" lon="-3.83356">
        <ele>16.3</ele>
        <time>2023-01-05T14:48:14+01:00</time>
      </trkpt>
      <trkpt lat="48.70949" lon="-3.83381">
        <ele>15.9</ele>
        <time>2023-01-05T14:48:36+01:00</time>
      </trkpt>
      <trkpt lat="48.70938" lon="-3.83405">
        <ele>14.4</ele>
        <time>2023-01-05T14:48:50+01:00</time>
      </trkpt>
      <trkpt lat="48.70925" lon="-3.8343">
        <ele>11.3</ele>
        <time>2023-01-05T14:49:09+01:00</time>
      </trkpt>
      <trkpt lat="48.70905" lon="-3.83435">
        <ele>9.5</ele>
        <time>2023-01-05T14:49:26+01:00</time>
      </trkpt>
      <trkpt lat="48.70884" lon="-3.83436">
        <ele>8.4</ele>
        <time>2023-01-05T14:49:49+01:00</time>
      </trkpt>
      <trkpt lat="48.70865" lon="-3.83441">
        <ele>7.4</ele>
        <time>2023-01-05T14:50:09+01:00</time>
      </trkpt>
      <trkpt lat="48.70847" lon="-3.83433">
        <ele>7.4</ele>
        <time>2023-01-05T14:50:36+01:00</time>
      </trkpt>
      <trkpt lat="48.70826" lon="-3.83435">
        <ele>6.6</ele>
        <time>2023-01-05T14:50:52+01:00</time>
      </trkpt>
      <trkpt lat="48.70807" lon="-3.83437">
        <ele>6.7</ele>
        <time>2023-01-05T14:51:07+01:00</time>
      </trkpt>
      <trkpt lat="48.7079" lon="-3.83444">
        <ele>7.2</ele>
        <time>2023-01-05T14:51:23+01:00</time>
      </trkpt>
      <trkpt lat="48.70776" lon="-3.83462">
        <ele>5.8</ele>
        <time>2023-01-05T14:51:40+01:00</time>
      </trkpt>
      <trkpt lat="48.70759" lon="-3.83474">
        <ele>7</ele>
        <time>2023-01-05T14:52:08+01:00</time>
      </trkpt>
      <trkpt lat="48.70745" lon="-3.83491">
        <ele>5.8</ele>
        <time>2023-01-05T14:52:20+01:00</time>
      </trkpt>
      <trkpt lat="48.70726" lon="-3.835">
        <ele>8.2</ele>
        <time>2023-01-05T14:52:36+01:00</time>
      </trkpt>
      <trkpt lat="48.70709" lon="-3.83519">
        <ele>5.9</ele>
        <time>2023-01-05T14:52:52+01:00</time>
      </trkpt>
      <trkpt lat="48.70693" lon="-3.83533">
        <ele>5.6</ele>
        <time>2023-01-05T14:53:07+01:00</time>
      </trkpt>
      <trkpt lat="48.70676" lon="-3.83546">
        <ele>6.2</ele>
        <time>2023-01-05T14:53:25+01:00</time>
      </trkpt>
      <trkpt lat="48.70663" lon="-3.83566">
        <ele>6.1</ele>
        <time>2023-01-05T14:53:44+01:00</time>
      </trkpt>
      <trkpt lat="48.70649" lon="-3.83586">
        <ele>5.8</ele>
        <time>2023-01-05T14:54:00+01:00</time>
      </trkpt>
      <trkpt lat="48.70636" lon="-3.8361">
        <ele>7.1</ele>
        <time>2023-01-05T14:54:17+01:00</time>
      </trkpt>
      <trkpt lat="48.70629" lon="-3.83635">
        <ele>5.8</ele>
        <time>2023-01-05T14:54:32+01:00</time>
      </trkpt>
      <trkpt lat="48.70622" lon="-3.83662">
        <ele>6.1</ele>
        <time>2023-01-05T14:54:48+01:00</time>
      </trkpt>
      <trkpt lat="48.70612" lon="-3.8369">
        <ele>7</ele>
        <time>2023-01-05T14:55:03+01:00</time>
      </trkpt>
      <trkpt lat="48.7061" lon="-3.8372">
        <ele>6.4</ele>
        <time>2023-01-05T14:55:20+01:00</time>
      </trkpt>
      <trkpt lat="48.70602" lon="-3.83746">
        <ele>7.8</ele>
        <time>2023-01-05T14:55:34+01:00</time>
      </trkpt>
      <trkpt lat="48.70604" lon="-3.83776">
        <ele>7.4</ele>
        <time>2023-01-05T14:55:52+01:00</time>
      </trkpt>
      <trkpt lat="48.70597" lon="-3.83803">
        <ele>11.3</ele>
        <time>2023-01-05T14:56:08+01:00</time>
      </trkpt>
      <trkpt lat="48.70608" lon="-3.8383">
        <ele>11.9</ele>
        <time>2023-01-05T14:56:22+01:00</time>
      </trkpt>
      <trkpt lat="48.70619" lon="-3.83852">
        <ele>10.7</ele>
        <time>2023-01-05T14:56:37+01:00</time>
      </trkpt>
      <trkpt lat="48.70633" lon="-3.83875">
        <ele>9.5</ele>
        <time>2023-01-05T14:56:53+01:00</time>
      </trkpt>
      <trkpt lat="48.70647" lon="-3.83897">
        <ele>9.3</ele>
        <time>2023-01-05T14:57:09+01:00</time>
      </trkpt>
      <trkpt lat="48.7066" lon="-3.83917">
        <ele>7</ele>
        <time>2023-01-05T14:57:27+01:00</time>
      </trkpt>
      <trkpt lat="48.70672" lon="-3.83938">
        <ele>8.8</ele>
        <time>2023-01-05T14:57:40+01:00</time>
      </trkpt>
      <trkpt lat="48.70686" lon="-3.83956">
        <ele>9.1</ele>
        <time>2023-01-05T14:57:54+01:00</time>
      </trkpt>
      <trkpt lat="48.70696" lon="-3.83982">
        <ele>10.8</ele>
        <time>2023-01-05T14:58:15+01:00</time>
      </trkpt>
      <trkpt lat="48.70699" lon="-3.8401">
        <ele>13.4</ele>
        <time>2023-01-05T14:58:29+01:00</time>
      </trkpt>
      <trkpt lat="48.70701" lon="-3.84041">
        <ele>15.9</ele>
        <time>2023-01-05T14:58:50+01:00</time>
      </trkpt>
      <trkpt lat="48.70686" lon="-3.8406">
        <ele>20.9</ele>
        <time>2023-01-05T14:59:06+01:00</time>
      </trkpt>
      <trkpt lat="48.70674" lon="-3.84081">
        <ele>24.2</ele>
        <time>2023-01-05T14:59:30+01:00</time>
      </trkpt>
      <trkpt lat="48.70656" lon="-3.84092">
        <ele>27.1</ele>
        <time>2023-01-05T14:59:56+01:00</time>
      </trkpt>
      <trkpt lat="48.70639" lon="-3.84104">
        <ele>33.1</ele>
        <time>2023-01-05T15:00:25+01:00</time>
      </trkpt>
      <trkpt lat="48.70623" lon="-3.84118">
        <ele>32.2</ele>
        <time>2023-01-05T15:02:49+01:00</time>
      </trkpt>
      <trkpt lat="48.70606" lon="-3.8413">
        <ele>30</ele>
        <time>2023-01-05T15:03:25+01:00</time>
      </trkpt>
      <trkpt lat="48.70592" lon="-3.84152">
        <ele>21.2</ele>
        <time>2023-01-05T15:03:47+01:00</time>
      </trkpt>
      <trkpt lat="48.70573" lon="-3.84162">
        <ele>16.6</ele>
        <time>2023-01-05T15:04:09+01:00</time>
      </trkpt>
      <trkpt lat="48.70554" lon="-3.84164">
        <ele>15.6</ele>
        <time>2023-01-05T15:04:39+01:00</time>
      </trkpt>
      <trkpt lat="48.7054" lon="-3.84143">
        <ele>15</ele>
        <time>2023-01-05T15:04:54+01:00</time>
      </trkpt>
      <trkpt lat="48.70523" lon="-3.84129">
        <ele>13.6</ele>
        <time>2023-01-05T15:05:24+01:00</time>
      </trkpt>
      <trkpt lat="48.70509" lon="-3.8411">
        <ele>14.1</ele>
        <time>2023-01-05T15:05:38+01:00</time>
      </trkpt>
      <trkpt lat="48.70489" lon="-3.84099">
        <ele>11.6</ele>
        <time>2023-01-05T15:05:59+01:00</time>
      </trkpt>
      <trkpt lat="48.70472" lon="-3.84084">
        <ele>10.8</ele>
        <time>2023-01-05T15:06:14+01:00</time>
      </trkpt>
      <trkpt lat="48.70453" lon="-3.84074">
        <ele>10.4</ele>
        <time>2023-01-05T15:06:32+01:00</time>
      </trkpt>
      <trkpt lat="48.70432" lon="-3.84068">
        <ele>10.5</ele>
        <time>2023-01-05T15:06:50+01:00</time>
      </trkpt>
      <trkpt lat="48.70413" lon="-3.84061">
        <ele>12</ele>
        <time>2023-01-05T15:07:05+01:00</time>
      </trkpt>
      <trkpt lat="48.70394" lon="-3.84061">
        <ele>12</ele>
        <time>2023-01-05T15:07:21+01:00</time>
      </trkpt>
      <trkpt lat="48.70376" lon="-3.84052">
        <ele>15.2</ele>
        <time>2023-01-05T15:07:37+01:00</time>
      </trkpt>
      <trkpt lat="48.70357" lon="-3.84041">
        <ele>18</ele>
        <time>2023-01-05T15:07:57+01:00</time>
      </trkpt>
      <trkpt lat="48.70338" lon="-3.84038">
        <ele>16.2</ele>
        <time>2023-01-05T15:08:13+01:00</time>
      </trkpt>
      <trkpt lat="48.70319" lon="-3.8403">
        <ele>14.5</ele>
        <time>2023-01-05T15:08:32+01:00</time>
      </trkpt>
      <trkpt lat="48.70303" lon="-3.84017">
        <ele>13.7</ele>
        <time>2023-01-05T15:08:48+01:00</time>
      </trkpt>
      <trkpt lat="48.70284" lon="-3.84009">
        <ele>12.7</ele>
        <time>2023-01-05T15:09:04+01:00</time>
      </trkpt>
      <trkpt lat="48.70263" lon="-3.84007">
        <ele>11.7</ele>
        <time>2023-01-05T15:09:20+01:00</time>
      </trkpt>
      <trkpt lat="48.70245" lon="-3.84002">
        <ele>13.2</ele>
        <time>2023-01-05T15:09:33+01:00</time>
      </trkpt>
      <trkpt lat="48.70226" lon="-3.83996">
        <ele>14.6</ele>
        <time>2023-01-05T15:09:51+01:00</time>
      </trkpt>
      <trkpt lat="48.70207" lon="-3.83991">
        <ele>11.8</ele>
        <time>2023-01-05T15:10:07+01:00</time>
      </trkpt>
      <trkpt lat="48.70187" lon="-3.83985">
        <ele>10.6</ele>
        <time>2023-01-05T15:10:25+01:00</time>
      </trkpt>
      <trkpt lat="48.70169" lon="-3.83989">
        <ele>8.4</ele>
        <time>2023-01-05T15:10:38+01:00</time>
      </trkpt>
      <trkpt lat="48.7015" lon="-3.83984">
        <ele>9.9</ele>
        <time>2023-01-05T15:10:52+01:00</time>
      </trkpt>
      <trkpt lat="48.7013" lon="-3.8399">
        <ele>9.3</ele>
        <time>2023-01-05T15:11:07+01:00</time>
      </trkpt>
      <trkpt lat="48.70112" lon="-3.83983">
        <ele>11.9</ele>
        <time>2023-01-05T15:11:23+01:00</time>
      </trkpt>
      <trkpt lat="48.70094" lon="-3.83981">
        <ele>12</ele>
        <time>2023-01-05T15:11:37+01:00</time>
      </trkpt>
      <trkpt lat="48.70074" lon="-3.83982">
        <ele>11.2</ele>
        <time>2023-01-05T15:11:53+01:00</time>
      </trkpt>
      <trkpt lat="48.70056" lon="-3.8398">
        <ele>12</ele>
        <time>2023-01-05T15:12:08+01:00</time>
      </trkpt>
      <trkpt lat="48.70037" lon="-3.83981">
        <ele>13.1</ele>
        <time>2023-01-05T15:12:30+01:00</time>
      </trkpt>
      <trkpt lat="48.70017" lon="-3.83979">
        <ele>15.1</ele>
        <time>2023-01-05T15:12:46+01:00</time>
      </trkpt>
      <trkpt lat="48.69999" lon="-3.83984">
        <ele>13.6</ele>
        <time>2023-01-05T15:13:01+01:00</time>
      </trkpt>
      <trkpt lat="48.69981" lon="-3.83991">
        <ele>10.7</ele>
        <time>2023-01-05T15:13:17+01:00</time>
      </trkpt>
      <trkpt lat="48.69962" lon="-3.83996">
        <ele>9.8</ele>
        <time>2023-01-05T15:13:33+01:00</time>
      </trkpt>
      <trkpt lat="48.69944" lon="-3.84003">
        <ele>9.4</ele>
        <time>2023-01-05T15:13:51+01:00</time>
      </trkpt>
      <trkpt lat="48.69924" lon="-3.83999">
        <ele>12.5</ele>
        <time>2023-01-05T15:14:04+01:00</time>
      </trkpt>
      <trkpt lat="48.69904" lon="-3.84002">
        <ele>12.4</ele>
        <time>2023-01-05T15:14:19+01:00</time>
      </trkpt>
      <trkpt lat="48.69885" lon="-3.84005">
        <ele>11.2</ele>
        <time>2023-01-05T15:14:34+01:00</time>
      </trkpt>
      <trkpt lat="48.69866" lon="-3.84007">
        <ele>10.2</ele>
        <time>2023-01-05T15:14:54+01:00</time>
      </trkpt>
      <trkpt lat="48.69846" lon="-3.84005">
        <ele>10.5</ele>
        <time>2023-01-05T15:15:10+01:00</time>
      </trkpt>
      <trkpt lat="48.6983" lon="-3.83989">
        <ele>12.8</ele>
        <time>2023-01-05T15:15:21+01:00</time>
      </trkpt>
      <trkpt lat="48.69813" lon="-3.83973">
        <ele>13.7</ele>
        <time>2023-01-05T15:15:35+01:00</time>
      </trkpt>
      <trkpt lat="48.69795" lon="-3.83963">
        <ele>11.4</ele>
        <time>2023-01-05T15:15:53+01:00</time>
      </trkpt>
      <trkpt lat="48.69776" lon="-3.83956">
        <ele>9.9</ele>
        <time>2023-01-05T15:16:12+01:00</time>
      </trkpt>
      <trkpt lat="48.69758" lon="-3.83967">
        <ele>7.5</ele>
        <time>2023-01-05T15:16:46+01:00</time>
      </trkpt>
      <trkpt lat="48.69739" lon="-3.8398">
        <ele>6.4</ele>
        <time>2023-01-05T15:17:00+01:00</time>
      </trkpt>
      <trkpt lat="48.6972" lon="-3.8399">
        <ele>6</ele>
        <time>2023-01-05T15:17:14+01:00</time>
      </trkpt>
      <trkpt lat="48.69701" lon="-3.83996">
        <ele>6.7</ele>
        <time>2023-01-05T15:17:27+01:00</time>
      </trkpt>
      <trkpt lat="48.69685" lon="-3.84013">
        <ele>6.1</ele>
        <time>2023-01-05T15:17:41+01:00</time>
      </trkpt>
      <trkpt lat="48.69669" lon="-3.84028">
        <ele>6.7</ele>
        <time>2023-01-05T15:17:54+01:00</time>
      </trkpt>
      <trkpt lat="48.69656" lon="-3.8405">
        <ele>6.5</ele>
        <time>2023-01-05T15:19:36+01:00</time>
      </trkpt>
      <trkpt lat="48.69643" lon="-3.84068">
        <ele>6.2</ele>
        <time>2023-01-05T15:19:57+01:00</time>
      </trkpt>
      <trkpt lat="48.69628" lon="-3.8409">
        <ele>5.8</ele>
        <time>2023-01-05T15:20:13+01:00</time>
      </trkpt>
      <trkpt lat="48.69614" lon="-3.8411">
        <ele>6.7</ele>
        <time>2023-01-05T15:20:27+01:00</time>
      </trkpt>
      <trkpt lat="48.69602" lon="-3.84131">
        <ele>7</ele>
        <time>2023-01-05T15:20:40+01:00</time>
      </trkpt>
      <trkpt lat="48.6959" lon="-3.84152">
        <ele>6.7</ele>
        <time>2023-01-05T15:26:52+01:00</time>
      </trkpt>
      <trkpt lat="48.69579" lon="-3.84178">
        <ele>7</ele>
        <time>2023-01-05T15:27:13+01:00</time>
      </trkpt>
      <trkpt lat="48.69568" lon="-3.84201">
        <ele>6.8</ele>
        <time>2023-01-05T15:27:36+01:00</time>
      </trkpt>
      <trkpt lat="48.69561" lon="-3.84228">
        <ele>6.6</ele>
        <time>2023-01-05T15:27:55+01:00</time>
      </trkpt>
      <trkpt lat="48.69548" lon="-3.84252">
        <ele>7.6</ele>
        <time>2023-01-05T15:28:11+01:00</time>
      </trkpt>
      <trkpt lat="48.6954" lon="-3.84277">
        <ele>6.6</ele>
        <time>2023-01-05T15:28:27+01:00</time>
      </trkpt>
      <trkpt lat="48.69535" lon="-3.84304">
        <ele>6.5</ele>
        <time>2023-01-05T15:28:43+01:00</time>
      </trkpt>
      <trkpt lat="48.69538" lon="-3.84332">
        <ele>6.1</ele>
        <time>2023-01-05T15:29:01+01:00</time>
      </trkpt>
      <trkpt lat="48.69538" lon="-3.84362">
        <ele>6.8</ele>
        <time>2023-01-05T15:29:15+01:00</time>
      </trkpt>
      <trkpt lat="48.69543" lon="-3.8439">
        <ele>6.3</ele>
        <time>2023-01-05T15:29:29+01:00</time>
      </trkpt>
      <trkpt lat="48.69553" lon="-3.84415">
        <ele>4.8</ele>
        <time>2023-01-05T15:29:53+01:00</time>
      </trkpt>
      <trkpt lat="48.69564" lon="-3.84438">
        <ele>8.7</ele>
        <time>2023-01-05T15:30:09+01:00</time>
      </trkpt>
      <trkpt lat="48.69578" lon="-3.84459">
        <ele>10.2</ele>
        <time>2023-01-05T15:30:30+01:00</time>
      </trkpt>
      <trkpt lat="48.69593" lon="-3.84477">
        <ele>10.6</ele>
        <time>2023-01-05T15:30:48+01:00</time>
      </trkpt>
      <trkpt lat="48.69606" lon="-3.84497">
        <ele>8.5</ele>
        <time>2023-01-05T15:31:06+01:00</time>
      </trkpt>
      <trkpt lat="48.69623" lon="-3.84514">
        <ele>7.9</ele>
        <time>2023-01-05T15:31:26+01:00</time>
      </trkpt>
      <trkpt lat="48.69632" lon="-3.84537">
        <ele>10.4</ele>
        <time>2023-01-05T15:32:30+01:00</time>
      </trkpt>
      <trkpt lat="48.69637" lon="-3.84566">
        <ele>15.1</ele>
        <time>2023-01-05T15:32:57+01:00</time>
      </trkpt>
      <trkpt lat="48.69644" lon="-3.84594">
        <ele>15.8</ele>
        <time>2023-01-05T15:33:16+01:00</time>
      </trkpt>
      <trkpt lat="48.69641" lon="-3.84622">
        <ele>20.7</ele>
        <time>2023-01-05T15:33:59+01:00</time>
      </trkpt>
      <trkpt lat="48.69635" lon="-3.84649">
        <ele>23.1</ele>
        <time>2023-01-05T15:35:07+01:00</time>
      </trkpt>
      <trkpt lat="48.6962" lon="-3.84667">
        <ele>23.2</ele>
        <time>2023-01-05T15:35:29+01:00</time>
      </trkpt>
      <trkpt lat="48.69602" lon="-3.84678">
        <ele>21.3</ele>
        <time>2023-01-05T15:36:03+01:00</time>
      </trkpt>
      <trkpt lat="48.69589" lon="-3.847">
        <ele>18.1</ele>
        <time>2023-01-05T15:36:40+01:00</time>
      </trkpt>
      <trkpt lat="48.69583" lon="-3.84728">
        <ele>16.8</ele>
        <time>2023-01-05T15:36:59+01:00</time>
      </trkpt>
      <trkpt lat="48.69582" lon="-3.84758">
        <ele>15.3</ele>
        <time>2023-01-05T15:37:25+01:00</time>
      </trkpt>
      <trkpt lat="48.69576" lon="-3.84784">
        <ele>15.5</ele>
        <time>2023-01-05T15:38:02+01:00</time>
      </trkpt>
      <trkpt lat="48.69563" lon="-3.84804">
        <ele>16.7</ele>
        <time>2023-01-05T15:38:24+01:00</time>
      </trkpt>
      <trkpt lat="48.6955" lon="-3.84828">
        <ele>12.4</ele>
        <time>2023-01-05T15:38:52+01:00</time>
      </trkpt>
      <trkpt lat="48.69539" lon="-3.84853">
        <ele>12.4</ele>
        <time>2023-01-05T15:39:05+01:00</time>
      </trkpt>
      <trkpt lat="48.69548" lon="-3.84877">
        <ele>7.4</ele>
        <time>2023-01-05T15:39:26+01:00</time>
      </trkpt>
      <trkpt lat="48.69537" lon="-3.849">
        <ele>11</ele>
        <time>2023-01-05T15:39:42+01:00</time>
      </trkpt>
      <trkpt lat="48.69536" lon="-3.84928">
        <ele>11.6</ele>
        <time>2023-01-05T15:40:01+01:00</time>
      </trkpt>
      <trkpt lat="48.69548" lon="-3.84954">
        <ele>9.6</ele>
        <time>2023-01-05T15:40:29+01:00</time>
      </trkpt>
      <trkpt lat="48.69555" lon="-3.84982">
        <ele>11.2</ele>
        <time>2023-01-05T15:40:48+01:00</time>
      </trkpt>
      <trkpt lat="48.69548" lon="-3.85009">
        <ele>10.5</ele>
        <time>2023-01-05T15:41:05+01:00</time>
      </trkpt>
      <trkpt lat="48.69529" lon="-3.85019">
        <ele>11.4</ele>
        <time>2023-01-05T15:41:22+01:00</time>
      </trkpt>
      <trkpt lat="48.69511" lon="-3.85028">
        <ele>11.3</ele>
        <time>2023-01-05T15:41:38+01:00</time>
      </trkpt>
      <trkpt lat="48.69493" lon="-3.85022">
        <ele>16.4</ele>
        <time>2023-01-05T15:42:12+01:00</time>
      </trkpt>
      <trkpt lat="48.69475" lon="-3.85012">
        <ele>20.5</ele>
        <time>2023-01-05T15:42:31+01:00</time>
      </trkpt>
      <trkpt lat="48.69456" lon="-3.8501">
        <ele>18</ele>
        <time>2023-01-05T15:42:50+01:00</time>
      </trkpt>
      <trkpt lat="48.69437" lon="-3.8501">
        <ele>15.5</ele>
        <time>2023-01-05T15:43:08+01:00</time>
      </trkpt>
      <trkpt lat="48.69417" lon="-3.85007">
        <ele>14.2</ele>
        <time>2023-01-05T15:43:31+01:00</time>
      </trkpt>
      <trkpt lat="48.69398" lon="-3.84999">
        <ele>15.4</ele>
        <time>2023-01-05T15:43:47+01:00</time>
      </trkpt>
      <trkpt lat="48.69377" lon="-3.84993">
        <ele>13.9</ele>
        <time>2023-01-05T15:44:02+01:00</time>
      </trkpt>
      <trkpt lat="48.69361" lon="-3.84977">
        <ele>12.5</ele>
        <time>2023-01-05T15:44:16+01:00</time>
      </trkpt>
      <trkpt lat="48.69343" lon="-3.84969">
        <ele>9.6</ele>
        <time>2023-01-05T15:44:35+01:00</time>
      </trkpt>
      <trkpt lat="48.69324" lon="-3.84962">
        <ele>9.1</ele>
        <time>2023-01-05T15:44:59+01:00</time>
      </trkpt>
      <trkpt lat="48.69306" lon="-3.84966">
        <ele>7.3</ele>
        <time>2023-01-05T15:45:29+01:00</time>
      </trkpt>
      <trkpt lat="48.69288" lon="-3.84975">
        <ele>4.5</ele>
        <time>2023-01-05T15:46:32+01:00</time>
      </trkpt>
      <trkpt lat="48.69268" lon="-3.84981">
        <ele>3.7</ele>
        <time>2023-01-05T15:46:45+01:00</time>
      </trkpt>
      <trkpt lat="48.69249" lon="-3.84987">
        <ele>3.5</ele>
        <time>2023-01-05T15:47:00+01:00</time>
      </trkpt>
      <trkpt lat="48.6923" lon="-3.84997">
        <ele>3.2</ele>
        <time>2023-01-05T15:47:15+01:00</time>
      </trkpt>
      <trkpt lat="48.69213" lon="-3.85007">
        <ele>3.3</ele>
        <time>2023-01-05T15:47:29+01:00</time>
      </trkpt>
      <trkpt lat="48.69193" lon="-3.85017">
        <ele>3.4</ele>
        <time>2023-01-05T15:47:47+01:00</time>
      </trkpt>
      <trkpt lat="48.69175" lon="-3.85033">
        <ele>3.5</ele>
        <time>2023-01-05T15:48:02+01:00</time>
      </trkpt>
      <trkpt lat="48.69157" lon="-3.85045">
        <ele>3.7</ele>
        <time>2023-01-05T15:48:16+01:00</time>
      </trkpt>
      <trkpt lat="48.69139" lon="-3.85059">
        <ele>3.9</ele>
        <time>2023-01-05T15:48:31+01:00</time>
      </trkpt>
      <trkpt lat="48.69123" lon="-3.85074">
        <ele>3.9</ele>
        <time>2023-01-05T15:48:49+01:00</time>
      </trkpt>
      <trkpt lat="48.69105" lon="-3.8509">
        <ele>4</ele>
        <time>2023-01-05T15:49:04+01:00</time>
      </trkpt>
      <trkpt lat="48.6909" lon="-3.85109">
        <ele>3.9</ele>
        <time>2023-01-05T15:49:20+01:00</time>
      </trkpt>
      <trkpt lat="48.69073" lon="-3.85125">
        <ele>4.1</ele>
        <time>2023-01-05T15:49:35+01:00</time>
      </trkpt>
      <trkpt lat="48.69056" lon="-3.85143">
        <ele>3.8</ele>
        <time>2023-01-05T15:49:52+01:00</time>
      </trkpt>
      <trkpt lat="48.6904" lon="-3.85154">
        <ele>4.6</ele>
        <time>2023-01-05T15:50:06+01:00</time>
      </trkpt>
      <trkpt lat="48.69023" lon="-3.85167">
        <ele>4.5</ele>
        <time>2023-01-05T15:50:21+01:00</time>
      </trkpt>
      <trkpt lat="48.69015" lon="-3.85192">
        <ele>4.1</ele>
        <time>2023-01-05T15:50:35+01:00</time>
      </trkpt>
      <trkpt lat="48.69001" lon="-3.8521">
        <ele>4.4</ele>
        <time>2023-01-05T15:50:48+01:00</time>
      </trkpt>
      <trkpt lat="48.68985" lon="-3.85226">
        <ele>5.4</ele>
        <time>2023-01-05T15:51:04+01:00</time>
      </trkpt>
      <trkpt lat="48.68971" lon="-3.85246">
        <ele>5.5</ele>
        <time>2023-01-05T15:51:20+01:00</time>
      </trkpt>
      <trkpt lat="48.68952" lon="-3.85238">
        <ele>8.2</ele>
        <time>2023-01-05T15:51:51+01:00</time>
      </trkpt>
      <trkpt lat="48.68932" lon="-3.85245">
        <ele>8.9</ele>
        <time>2023-01-05T15:52:08+01:00</time>
      </trkpt>
      <trkpt lat="48.68929" lon="-3.85274">
        <ele>8.3</ele>
        <time>2023-01-05T15:52:27+01:00</time>
      </trkpt>
      <trkpt lat="48.68919" lon="-3.85298">
        <ele>9.6</ele>
        <time>2023-01-05T15:52:46+01:00</time>
      </trkpt>
      <trkpt lat="48.68908" lon="-3.85322">
        <ele>10</ele>
        <time>2023-01-05T15:52:59+01:00</time>
      </trkpt>
      <trkpt lat="48.68906" lon="-3.85349">
        <ele>10.6</ele>
        <time>2023-01-05T15:54:55+01:00</time>
      </trkpt>
      <trkpt lat="48.68925" lon="-3.85357">
        <ele>8.9</ele>
        <time>2023-01-05T15:55:12+01:00</time>
      </trkpt>
      <trkpt lat="48.68934" lon="-3.85381">
        <ele>8.3</ele>
        <time>2023-01-05T15:55:45+01:00</time>
      </trkpt>
      <trkpt lat="48.68929" lon="-3.85409">
        <ele>9.3</ele>
        <time>2023-01-05T15:57:57+01:00</time>
      </trkpt>
      <trkpt lat="48.68917" lon="-3.85434">
        <ele>11.3</ele>
        <time>2023-01-05T15:58:29+01:00</time>
      </trkpt>
      <trkpt lat="48.689" lon="-3.85447">
        <ele>10.5</ele>
        <time>2023-01-05T15:59:19+01:00</time>
      </trkpt>
      <trkpt lat="48.68882" lon="-3.85456">
        <ele>8.1</ele>
        <time>2023-01-05T15:59:39+01:00</time>
      </trkpt>
      <trkpt lat="48.68866" lon="-3.85442">
        <ele>8.8</ele>
        <time>2023-01-05T16:00:48+01:00</time>
      </trkpt>
      <trkpt lat="48.68849" lon="-3.85427">
        <ele>8.7</ele>
        <time>2023-01-05T16:01:05+01:00</time>
      </trkpt>
      <trkpt lat="48.68832" lon="-3.85414">
        <ele>9.1</ele>
        <time>2023-01-05T16:01:19+01:00</time>
      </trkpt>
      <trkpt lat="48.68814" lon="-3.85412">
        <ele>7.5</ele>
        <time>2023-01-05T16:01:37+01:00</time>
      </trkpt>
      <trkpt lat="48.68795" lon="-3.85409">
        <ele>7.6</ele>
        <time>2023-01-05T16:01:50+01:00</time>
      </trkpt>
      <trkpt lat="48.68776" lon="-3.85416">
        <ele>7.8</ele>
        <time>2023-01-05T16:02:05+01:00</time>
      </trkpt>
      <trkpt lat="48.6876" lon="-3.85397">
        <ele>6.9</ele>
        <time>2023-01-05T16:03:10+01:00</time>
      </trkpt>
      <trkpt lat="48.68749" lon="-3.85375">
        <ele>7.9</ele>
        <time>2023-01-05T16:03:25+01:00</time>
      </trkpt>
      <trkpt lat="48.6873" lon="-3.8537">
        <ele>6.6</ele>
        <time>2023-01-05T16:03:41+01:00</time>
      </trkpt>
      <trkpt lat="48.68712" lon="-3.85357">
        <ele>6.7</ele>
        <time>2023-01-05T16:03:57+01:00</time>
      </trkpt>
      <trkpt lat="48.68694" lon="-3.85347">
        <ele>8</ele>
        <time>2023-01-05T16:04:16+01:00</time>
      </trkpt>
      <trkpt lat="48.68676" lon="-3.85339">
        <ele>9.2</ele>
        <time>2023-01-05T16:04:35+01:00</time>
      </trkpt>
      <trkpt lat="48.68656" lon="-3.8534">
        <ele>9.1</ele>
        <time>2023-01-05T16:04:52+01:00</time>
      </trkpt>
      <trkpt lat="48.68638" lon="-3.85356">
        <ele>7.1</ele>
        <time>2023-01-05T16:05:09+01:00</time>
      </trkpt>
      <trkpt lat="48.68622" lon="-3.85371">
        <ele>7.5</ele>
        <time>2023-01-05T16:05:25+01:00</time>
      </trkpt>
      <trkpt lat="48.68606" lon="-3.85389">
        <ele>7.5</ele>
        <time>2023-01-05T16:05:39+01:00</time>
      </trkpt>
      <trkpt lat="48.6859" lon="-3.85403">
        <ele>8.6</ele>
        <time>2023-01-05T16:05:52+01:00</time>
      </trkpt>
      <trkpt lat="48.68573" lon="-3.85414">
        <ele>9.4</ele>
        <time>2023-01-05T16:06:05+01:00</time>
      </trkpt>
      <trkpt lat="48.68559" lon="-3.85435">
        <ele>8.8</ele>
        <time>2023-01-05T16:06:19+01:00</time>
      </trkpt>
      <trkpt lat="48.68554" lon="-3.85462">
        <ele>6.7</ele>
        <time>2023-01-05T16:06:38+01:00</time>
      </trkpt>
      <trkpt lat="48.68548" lon="-3.85491">
        <ele>6</ele>
        <time>2023-01-05T16:07:17+01:00</time>
      </trkpt>
      <trkpt lat="48.68547" lon="-3.8552">
        <ele>6.6</ele>
        <time>2023-01-05T16:07:55+01:00</time>
      </trkpt>
      <trkpt lat="48.68543" lon="-3.85549">
        <ele>8</ele>
        <time>2023-01-05T16:08:13+01:00</time>
      </trkpt>
      <trkpt lat="48.68526" lon="-3.85559">
        <ele>11.6</ele>
        <time>2023-01-05T16:08:47+01:00</time>
      </trkpt>
      <trkpt lat="48.6851" lon="-3.85546">
        <ele>10.2</ele>
        <time>2023-01-05T16:09:05+01:00</time>
      </trkpt>
      <trkpt lat="48.68491" lon="-3.85544">
        <ele>8.9</ele>
        <time>2023-01-05T16:09:22+01:00</time>
      </trkpt>
      <trkpt lat="48.68472" lon="-3.85533">
        <ele>10.5</ele>
        <time>2023-01-05T16:09:46+01:00</time>
      </trkpt>
      <trkpt lat="48.68459" lon="-3.85514">
        <ele>8.1</ele>
        <time>2023-01-05T16:10:25+01:00</time>
      </trkpt>
      <trkpt lat="48.68443" lon="-3.85499">
        <ele>6.9</ele>
        <time>2023-01-05T16:10:54+01:00</time>
      </trkpt>
      <trkpt lat="48.68425" lon="-3.85488">
        <ele>5.9</ele>
        <time>2023-01-05T16:11:12+01:00</time>
      </trkpt>
      <trkpt lat="48.68407" lon="-3.8548">
        <ele>6.1</ele>
        <time>2023-01-05T16:11:28+01:00</time>
      </trkpt>
      <trkpt lat="48.68393" lon="-3.85462">
        <ele>6.1</ele>
        <time>2023-01-05T16:11:56+01:00</time>
      </trkpt>
      <trkpt lat="48.68395" lon="-3.85433">
        <ele>5.6</ele>
        <time>2023-01-05T16:12:37+01:00</time>
      </trkpt>
      <trkpt lat="48.68411" lon="-3.85421">
        <ele>6.5</ele>
        <time>2023-01-05T16:12:59+01:00</time>
      </trkpt>
      <trkpt lat="48.68426" lon="-3.85403">
        <ele>5.5</ele>
        <time>2023-01-05T16:13:16+01:00</time>
      </trkpt>
      <trkpt lat="48.68443" lon="-3.8539">
        <ele>5</ele>
        <time>2023-01-05T16:13:33+01:00</time>
      </trkpt>
      <trkpt lat="48.68454" lon="-3.85369">
        <ele>4.5</ele>
        <time>2023-01-05T16:13:49+01:00</time>
      </trkpt>
      <trkpt lat="48.6846" lon="-3.85341">
        <ele>4.7</ele>
        <time>2023-01-05T16:14:04+01:00</time>
      </trkpt>
      <trkpt lat="48.68464" lon="-3.85314">
        <ele>5.1</ele>
        <time>2023-01-05T16:14:18+01:00</time>
      </trkpt>
      <trkpt lat="48.68465" lon="-3.85283">
        <ele>5.2</ele>
        <time>2023-01-05T16:14:34+01:00</time>
      </trkpt>
      <trkpt lat="48.68461" lon="-3.85257">
        <ele>5.1</ele>
        <time>2023-01-05T16:14:52+01:00</time>
      </trkpt>
      <trkpt lat="48.68449" lon="-3.85233">
        <ele>5</ele>
        <time>2023-01-05T16:16:55+01:00</time>
      </trkpt>
      <trkpt lat="48.68441" lon="-3.85209">
        <ele>5.7</ele>
        <time>2023-01-05T16:17:06+01:00</time>
      </trkpt>
      <trkpt lat="48.68432" lon="-3.85181">
        <ele>6.4</ele>
        <time>2023-01-05T16:17:23+01:00</time>
      </trkpt>
      <trkpt lat="48.68423" lon="-3.85157">
        <ele>7</ele>
        <time>2023-01-05T16:17:37+01:00</time>
      </trkpt>
      <trkpt lat="48.68411" lon="-3.85134">
        <ele>7.4</ele>
        <time>2023-01-05T16:17:53+01:00</time>
      </trkpt>
      <trkpt lat="48.68395" lon="-3.85115">
        <ele>7.1</ele>
        <time>2023-01-05T16:18:08+01:00</time>
      </trkpt>
      <trkpt lat="48.68377" lon="-3.85106">
        <ele>6.2</ele>
        <time>2023-01-05T16:18:26+01:00</time>
      </trkpt>
      <trkpt lat="48.68365" lon="-3.85085">
        <ele>7.1</ele>
        <time>2023-01-05T16:18:44+01:00</time>
      </trkpt>
      <trkpt lat="48.68375" lon="-3.85061">
        <ele>7.2</ele>
        <time>2023-01-05T16:19:04+01:00</time>
      </trkpt>
      <trkpt lat="48.68382" lon="-3.85034">
        <ele>6.4</ele>
        <time>2023-01-05T16:19:26+01:00</time>
      </trkpt>
      <trkpt lat="48.68371" lon="-3.85012">
        <ele>4.6</ele>
        <time>2023-01-05T16:19:47+01:00</time>
      </trkpt>
      <trkpt lat="48.68362" lon="-3.84985">
        <ele>5.1</ele>
        <time>2023-01-05T16:20:04+01:00</time>
      </trkpt>
      <trkpt lat="48.68346" lon="-3.84968">
        <ele>5.5</ele>
        <time>2023-01-05T16:20:22+01:00</time>
      </trkpt>
      <trkpt lat="48.6833" lon="-3.84956">
        <ele>6.1</ele>
        <time>2023-01-05T16:20:40+01:00</time>
      </trkpt>
      <trkpt lat="48.68312" lon="-3.84941">
        <ele>6.8</ele>
        <time>2023-01-05T16:20:54+01:00</time>
      </trkpt>
      <trkpt lat="48.68296" lon="-3.84929">
        <ele>7.7</ele>
        <time>2023-01-05T16:21:10+01:00</time>
      </trkpt>
      <trkpt lat="48.68277" lon="-3.84923">
        <ele>8.9</ele>
        <time>2023-01-05T16:21:31+01:00</time>
      </trkpt>
      <trkpt lat="48.68258" lon="-3.84919">
        <ele>8.9</ele>
        <time>2023-01-05T16:21:50+01:00</time>
      </trkpt>
      <trkpt lat="48.68239" lon="-3.84912">
        <ele>9.3</ele>
        <time>2023-01-05T16:22:08+01:00</time>
      </trkpt>
      <trkpt lat="48.6822" lon="-3.84912">
        <ele>9.3</ele>
        <time>2023-01-05T16:22:26+01:00</time>
      </trkpt>
      <trkpt lat="48.68202" lon="-3.84914">
        <ele>9.3</ele>
        <time>2023-01-05T16:22:40+01:00</time>
      </trkpt>
      <trkpt lat="48.68182" lon="-3.84915">
        <ele>9.2</ele>
        <time>2023-01-05T16:22:56+01:00</time>
      </trkpt>
      <trkpt lat="48.68164" lon="-3.84914">
        <ele>9.4</ele>
        <time>2023-01-05T16:23:11+01:00</time>
      </trkpt>
      <trkpt lat="48.68144" lon="-3.84917">
        <ele>9.8</ele>
        <time>2023-01-05T16:23:26+01:00</time>
      </trkpt>
      <trkpt lat="48.68126" lon="-3.84924">
        <ele>9.1</ele>
        <time>2023-01-05T16:23:44+01:00</time>
      </trkpt>
      <trkpt lat="48.68109" lon="-3.84932">
        <ele>8.8</ele>
        <time>2023-01-05T16:24:01+01:00</time>
      </trkpt>
      <trkpt lat="48.6809" lon="-3.84929">
        <ele>9.5</ele>
        <time>2023-01-05T16:24:15+01:00</time>
      </trkpt>
      <trkpt lat="48.68071" lon="-3.84919">
        <ele>10.7</ele>
        <time>2023-01-05T16:24:33+01:00</time>
      </trkpt>
      <trkpt lat="48.68053" lon="-3.84908">
        <ele>10.1</ele>
        <time>2023-01-05T16:25:04+01:00</time>
      </trkpt>
      <trkpt lat="48.68036" lon="-3.84894">
        <ele>9</ele>
        <time>2023-01-05T16:25:22+01:00</time>
      </trkpt>
      <trkpt lat="48.68022" lon="-3.84876">
        <ele>8.9</ele>
        <time>2023-01-05T16:25:50+01:00</time>
      </trkpt>
      <trkpt lat="48.68004" lon="-3.84872">
        <ele>6.7</ele>
        <time>2023-01-05T16:26:03+01:00</time>
      </trkpt>
      <trkpt lat="48.67986" lon="-3.84873">
        <ele>5.3</ele>
        <time>2023-01-05T16:26:17+01:00</time>
      </trkpt>
      <trkpt lat="48.67967" lon="-3.84871">
        <ele>5.1</ele>
        <time>2023-01-05T16:26:30+01:00</time>
      </trkpt>
      <trkpt lat="48.67949" lon="-3.84877">
        <ele>5.2</ele>
        <time>2023-01-05T16:27:09+01:00</time>
      </trkpt>
      <trkpt lat="48.67928" lon="-3.84876">
        <ele>6.3</ele>
        <time>2023-01-05T16:27:19+01:00</time>
      </trkpt>
      <trkpt lat="48.67909" lon="-3.84882">
        <ele>6.8</ele>
        <time>2023-01-05T16:27:34+01:00</time>
      </trkpt>
      <trkpt lat="48.6789" lon="-3.8489">
        <ele>7.7</ele>
        <time>2023-01-05T16:27:48+01:00</time>
      </trkpt>
      <trkpt lat="48.67873" lon="-3.84901">
        <ele>7.5</ele>
        <time>2023-01-05T16:28:01+01:00</time>
      </trkpt>
      <trkpt lat="48.67857" lon="-3.84913">
        <ele>6.9</ele>
        <time>2023-01-05T16:28:15+01:00</time>
      </trkpt>
      <trkpt lat="48.67838" lon="-3.84927">
        <ele>6.2</ele>
        <time>2023-01-05T16:28:30+01:00</time>
      </trkpt>
      <trkpt lat="48.67821" lon="-3.84937">
        <ele>5.6</ele>
        <time>2023-01-05T16:28:48+01:00</time>
      </trkpt>
      <trkpt lat="48.67813" lon="-3.84942">
        <ele>5.7</ele>
        <time>2023-01-11T17:10:12+01:00</time>
      </trkpt>
      <trkpt lat="48.67797" lon="-3.84954">
        <ele>5.3</ele>
        <time>2023-01-11T17:10:25+01:00</time>
      </trkpt>
      <trkpt lat="48.6778" lon="-3.84972">
        <ele>5.8</ele>
        <time>2023-01-11T17:10:41+01:00</time>
      </trkpt>
      <trkpt lat="48.67763" lon="-3.84991">
        <ele>5</ele>
        <time>2023-01-11T17:10:56+01:00</time>
      </trkpt>
      <trkpt lat="48.67746" lon="-3.8501">
        <ele>5.2</ele>
        <time>2023-01-11T17:11:18+01:00</time>
      </trkpt>
      <trkpt lat="48.67733" lon="-3.85032">
        <ele>4.6</ele>
        <time>2023-01-11T17:11:31+01:00</time>
      </trkpt>
      <trkpt lat="48.67721" lon="-3.85053">
        <ele>5.9</ele>
        <time>2023-01-11T17:11:58+01:00</time>
      </trkpt>
      <trkpt lat="48.6771" lon="-3.85077">
        <ele>4.3</ele>
        <time>2023-01-11T17:12:11+01:00</time>
      </trkpt>
      <trkpt lat="48.67702" lon="-3.85102">
        <ele>4.8</ele>
        <time>2023-01-11T17:12:28+01:00</time>
      </trkpt>
      <trkpt lat="48.67689" lon="-3.85127">
        <ele>5.3</ele>
        <time>2023-01-11T17:12:53+01:00</time>
      </trkpt>
      <trkpt lat="48.67686" lon="-3.85156">
        <ele>4.7</ele>
        <time>2023-01-11T17:13:11+01:00</time>
      </trkpt>
      <trkpt lat="48.67683" lon="-3.85187">
        <ele>5.2</ele>
        <time>2023-01-11T17:13:28+01:00</time>
      </trkpt>
      <trkpt lat="48.67681" lon="-3.85215">
        <ele>6.2</ele>
        <time>2023-01-11T17:13:45+01:00</time>
      </trkpt>
      <trkpt lat="48.6767" lon="-3.85241">
        <ele>6.4</ele>
        <time>2023-01-11T17:14:06+01:00</time>
      </trkpt>
      <trkpt lat="48.67649" lon="-3.85242">
        <ele>5</ele>
        <time>2023-01-11T17:15:08+01:00</time>
      </trkpt>
      <trkpt lat="48.67632" lon="-3.85238">
        <ele>4.2</ele>
        <time>2023-01-11T17:15:31+01:00</time>
      </trkpt>
      <trkpt lat="48.67623" lon="-3.85214">
        <ele>5.9</ele>
        <time>2023-01-11T17:16:04+01:00</time>
      </trkpt>
      <trkpt lat="48.67631" lon="-3.85187">
        <ele>6.2</ele>
        <time>2023-01-11T17:16:36+01:00</time>
      </trkpt>
      <trkpt lat="48.67649" lon="-3.85185">
        <ele>7.1</ele>
        <time>2023-01-11T17:16:49+01:00</time>
      </trkpt>
      <trkpt lat="48.67666" lon="-3.85172">
        <ele>6.2</ele>
        <time>2023-01-11T17:17:25+01:00</time>
      </trkpt>
      <trkpt lat="48.67675" lon="-3.85148">
        <ele>5.1</ele>
        <time>2023-01-11T17:17:54+01:00</time>
      </trkpt>
      <trkpt lat="48.67681" lon="-3.85119">
        <ele>5</ele>
        <time>2023-01-11T17:18:09+01:00</time>
      </trkpt>
      <trkpt lat="48.67686" lon="-3.85091">
        <ele>4.7</ele>
        <time>2023-01-11T17:18:25+01:00</time>
      </trkpt>
      <trkpt lat="48.67688" lon="-3.85063">
        <ele>4.3</ele>
        <time>2023-01-11T17:18:39+01:00</time>
      </trkpt>
      <trkpt lat="48.67685" lon="-3.85035">
        <ele>4.2</ele>
        <time>2023-01-11T17:18:54+01:00</time>
      </trkpt>
      <trkpt lat="48.67677" lon="-3.8501">
        <ele>4.1</ele>
        <time>2023-01-11T17:19:11+01:00</time>
      </trkpt>
      <trkpt lat="48.67672" lon="-3.84981">
        <ele>4.9</ele>
        <time>2023-01-11T17:19:54+01:00</time>
      </trkpt>
      <trkpt lat="48.67666" lon="-3.84953">
        <ele>5.6</ele>
        <time>2023-01-11T17:20:08+01:00</time>
      </trkpt>
      <trkpt lat="48.67661" lon="-3.84927">
        <ele>5.3</ele>
        <time>2023-01-11T17:20:21+01:00</time>
      </trkpt>
      <trkpt lat="48.67662" lon="-3.84899">
        <ele>5.9</ele>
        <time>2023-01-11T17:20:39+01:00</time>
      </trkpt>
      <trkpt lat="48.67656" lon="-3.84872">
        <ele>5.3</ele>
        <time>2023-01-11T17:20:57+01:00</time>
      </trkpt>
      <trkpt lat="48.67648" lon="-3.84846">
        <ele>5.3</ele>
        <time>2023-01-11T17:21:26+01:00</time>
      </trkpt>
      <trkpt lat="48.6764" lon="-3.8482">
        <ele>6.2</ele>
        <time>2023-01-11T17:21:38+01:00</time>
      </trkpt>
      <trkpt lat="48.67629" lon="-3.84797">
        <ele>6.6</ele>
        <time>2023-01-11T17:21:51+01:00</time>
      </trkpt>
      <trkpt lat="48.67616" lon="-3.84776">
        <ele>7.5</ele>
        <time>2023-01-11T17:22:05+01:00</time>
      </trkpt>
      <trkpt lat="48.67599" lon="-3.84767">
        <ele>6.3</ele>
        <time>2023-01-11T17:22:36+01:00</time>
      </trkpt>
      <trkpt lat="48.67583" lon="-3.84749">
        <ele>6.4</ele>
        <time>2023-01-11T17:22:56+01:00</time>
      </trkpt>
      <trkpt lat="48.67564" lon="-3.84743">
        <ele>6.1</ele>
        <time>2023-01-11T17:23:19+01:00</time>
      </trkpt>
      <trkpt lat="48.6755" lon="-3.84722">
        <ele>9.8</ele>
        <time>2023-01-11T17:24:15+01:00</time>
      </trkpt>
      <trkpt lat="48.67539" lon="-3.84697">
        <ele>14.8</ele>
        <time>2023-01-11T17:24:59+01:00</time>
      </trkpt>
      <trkpt lat="48.67534" lon="-3.84671">
        <ele>21.1</ele>
        <time>2023-01-11T17:25:49+01:00</time>
      </trkpt>
      <trkpt lat="48.67517" lon="-3.84662">
        <ele>21.3</ele>
        <time>2023-01-11T17:26:04+01:00</time>
      </trkpt>
      <trkpt lat="48.67496" lon="-3.84657">
        <ele>20.1</ele>
        <time>2023-01-11T17:26:17+01:00</time>
      </trkpt>
      <trkpt lat="48.67476" lon="-3.84649">
        <ele>20.6</ele>
        <time>2023-01-11T17:26:31+01:00</time>
      </trkpt>
      <trkpt lat="48.67457" lon="-3.84641">
        <ele>20.3</ele>
        <time>2023-01-11T17:26:44+01:00</time>
      </trkpt>
      <trkpt lat="48.67438" lon="-3.84632">
        <ele>20</ele>
        <time>2023-01-11T17:26:57+01:00</time>
      </trkpt>
      <trkpt lat="48.67418" lon="-3.84626">
        <ele>20</ele>
        <time>2023-01-11T17:27:11+01:00</time>
      </trkpt>
      <trkpt lat="48.674" lon="-3.84619">
        <ele>20.6</ele>
        <time>2023-01-11T17:27:21+01:00</time>
      </trkpt>
      <trkpt lat="48.67381" lon="-3.84612">
        <ele>21.2</ele>
        <time>2023-01-11T17:27:33+01:00</time>
      </trkpt>
      <trkpt lat="48.6736" lon="-3.84604">
        <ele>20.9</ele>
        <time>2023-01-11T17:27:48+01:00</time>
      </trkpt>
      <trkpt lat="48.6734" lon="-3.846">
        <ele>20.4</ele>
        <time>2023-01-11T17:28:02+01:00</time>
      </trkpt>
      <trkpt lat="48.6732" lon="-3.84594">
        <ele>20.4</ele>
        <time>2023-01-11T17:28:15+01:00</time>
      </trkpt>
      <trkpt lat="48.673" lon="-3.84587">
        <ele>20.8</ele>
        <time>2023-01-11T17:28:28+01:00</time>
      </trkpt>
      <trkpt lat="48.67282" lon="-3.8458">
        <ele>21.2</ele>
        <time>2023-01-11T17:28:39+01:00</time>
      </trkpt>
      <trkpt lat="48.67262" lon="-3.84571">
        <ele>20.7</ele>
        <time>2023-01-11T17:28:53+01:00</time>
      </trkpt>
      <trkpt lat="48.67244" lon="-3.84563">
        <ele>19.6</ele>
        <time>2023-01-11T17:29:04+01:00</time>
      </trkpt>
      <trkpt lat="48.67227" lon="-3.84555">
        <ele>19.3</ele>
        <time>2023-01-11T17:29:15+01:00</time>
      </trkpt>
      <trkpt lat="48.67208" lon="-3.84548">
        <ele>18.7</ele>
        <time>2023-01-11T17:29:26+01:00</time>
      </trkpt>
      <trkpt lat="48.67189" lon="-3.84545">
        <ele>17.4</ele>
        <time>2023-01-11T17:29:37+01:00</time>
      </trkpt>
      <trkpt lat="48.6717" lon="-3.8454">
        <ele>16.4</ele>
        <time>2023-01-11T17:29:50+01:00</time>
      </trkpt>
      <trkpt lat="48.67152" lon="-3.84539">
        <ele>15.4</ele>
        <time>2023-01-11T17:30:02+01:00</time>
      </trkpt>
      <trkpt lat="48.67132" lon="-3.84544">
        <ele>14</ele>
        <time>2023-01-11T17:30:15+01:00</time>
      </trkpt>
      <trkpt lat="48.67113" lon="-3.84551">
        <ele>13.2</ele>
        <time>2023-01-11T17:30:29+01:00</time>
      </trkpt>
      <trkpt lat="48.671" lon="-3.84572">
        <ele>12.1</ele>
        <time>2023-01-11T17:30:45+01:00</time>
      </trkpt>
      <trkpt lat="48.67088" lon="-3.84593">
        <ele>11</ele>
        <time>2023-01-11T17:31:12+01:00</time>
      </trkpt>
      <trkpt lat="48.67076" lon="-3.84617">
        <ele>9.7</ele>
        <time>2023-01-11T17:31:27+01:00</time>
      </trkpt>
      <trkpt lat="48.67064" lon="-3.8464">
        <ele>9.2</ele>
        <time>2023-01-11T17:31:41+01:00</time>
      </trkpt>
      <trkpt lat="48.67049" lon="-3.84659">
        <ele>7.9</ele>
        <time>2023-01-11T17:31:52+01:00</time>
      </trkpt>
      <trkpt lat="48.67036" lon="-3.84683">
        <ele>7.7</ele>
        <time>2023-01-11T17:32:08+01:00</time>
      </trkpt>
      <trkpt lat="48.67024" lon="-3.84707">
        <ele>7</ele>
        <time>2023-01-11T17:32:28+01:00</time>
      </trkpt>
      <trkpt lat="48.67011" lon="-3.84728">
        <ele>7.7</ele>
        <time>2023-01-11T17:32:41+01:00</time>
      </trkpt>
      <trkpt lat="48.66998" lon="-3.84748">
        <ele>8.6</ele>
        <time>2023-01-11T17:32:52+01:00</time>
      </trkpt>
      <trkpt lat="48.66982" lon="-3.84762">
        <ele>9.7</ele>
        <time>2023-01-11T17:33:05+01:00</time>
      </trkpt>
      <trkpt lat="48.66963" lon="-3.8477">
        <ele>10.6</ele>
        <time>2023-01-11T17:33:21+01:00</time>
      </trkpt>
      <trkpt lat="48.66942" lon="-3.84772">
        <ele>11.6</ele>
        <time>2023-01-11T17:33:37+01:00</time>
      </trkpt>
      <trkpt lat="48.66921" lon="-3.84771">
        <ele>12.2</ele>
        <time>2023-01-11T17:33:48+01:00</time>
      </trkpt>
      <trkpt lat="48.66902" lon="-3.84767">
        <ele>11.8</ele>
        <time>2023-01-11T17:33:58+01:00</time>
      </trkpt>
      <trkpt lat="48.66881" lon="-3.84765">
        <ele>10.1</ele>
        <time>2023-01-11T17:34:11+01:00</time>
      </trkpt>
      <trkpt lat="48.6686" lon="-3.84764">
        <ele>7.7</ele>
        <time>2023-01-11T17:34:26+01:00</time>
      </trkpt>
      <trkpt lat="48.66843" lon="-3.84751">
        <ele>8.5</ele>
        <time>2023-01-11T17:34:42+01:00</time>
      </trkpt>
      <trkpt lat="48.66824" lon="-3.84741">
        <ele>7.7</ele>
        <time>2023-01-11T17:35:02+01:00</time>
      </trkpt>
      <trkpt lat="48.66809" lon="-3.84726">
        <ele>9.4</ele>
        <time>2023-01-11T17:35:21+01:00</time>
      </trkpt>
      <trkpt lat="48.66793" lon="-3.84713">
        <ele>10.4</ele>
        <time>2023-01-11T17:35:37+01:00</time>
      </trkpt>
      <trkpt lat="48.66771" lon="-3.84705">
        <ele>10.3</ele>
        <time>2023-01-11T17:35:58+01:00</time>
      </trkpt>
      <trkpt lat="48.66752" lon="-3.84696">
        <ele>10.8</ele>
        <time>2023-01-11T17:36:10+01:00</time>
      </trkpt>
      <trkpt lat="48.66736" lon="-3.84681">
        <ele>11.2</ele>
        <time>2023-01-11T17:36:23+01:00</time>
      </trkpt>
      <trkpt lat="48.66719" lon="-3.84673">
        <ele>12.5</ele>
        <time>2023-01-11T17:36:39+01:00</time>
      </trkpt>
      <trkpt lat="48.667" lon="-3.84686">
        <ele>7.5</ele>
        <time>2023-01-11T17:36:58+01:00</time>
      </trkpt>
      <trkpt lat="48.66682" lon="-3.8468">
        <ele>9.3</ele>
        <time>2023-01-11T17:37:15+01:00</time>
      </trkpt>
      <trkpt lat="48.66663" lon="-3.8467">
        <ele>12.5</ele>
        <time>2023-01-11T17:37:33+01:00</time>
      </trkpt>
      <trkpt lat="48.66646" lon="-3.8466">
        <ele>13.7</ele>
        <time>2023-01-11T17:37:53+01:00</time>
      </trkpt>
      <trkpt lat="48.66629" lon="-3.84648">
        <ele>13.4</ele>
        <time>2023-01-11T17:38:06+01:00</time>
      </trkpt>
      <trkpt lat="48.6661" lon="-3.84645">
        <ele>13.3</ele>
        <time>2023-01-11T17:38:21+01:00</time>
      </trkpt>
      <trkpt lat="48.66592" lon="-3.84644">
        <ele>12.1</ele>
        <time>2023-01-11T17:38:37+01:00</time>
      </trkpt>
      <trkpt lat="48.66574" lon="-3.84652">
        <ele>10.9</ele>
        <time>2023-01-11T17:38:53+01:00</time>
      </trkpt>
      <trkpt lat="48.66561" lon="-3.84677">
        <ele>8.8</ele>
        <time>2023-01-11T17:39:25+01:00</time>
      </trkpt>
      <trkpt lat="48.66552" lon="-3.84703">
        <ele>7.3</ele>
        <time>2023-01-11T17:39:47+01:00</time>
      </trkpt>
      <trkpt lat="48.66534" lon="-3.84713">
        <ele>5.9</ele>
        <time>2023-01-11T17:40:03+01:00</time>
      </trkpt>
      <trkpt lat="48.66513" lon="-3.84717">
        <ele>5</ele>
        <time>2023-01-11T17:40:19+01:00</time>
      </trkpt>
      <trkpt lat="48.66495" lon="-3.84716">
        <ele>4.5</ele>
        <time>2023-01-11T17:40:34+01:00</time>
      </trkpt>
      <trkpt lat="48.66476" lon="-3.84712">
        <ele>4.2</ele>
        <time>2023-01-11T17:40:48+01:00</time>
      </trkpt>
      <trkpt lat="48.66456" lon="-3.84702">
        <ele>4.6</ele>
        <time>2023-01-11T17:41:03+01:00</time>
      </trkpt>
      <trkpt lat="48.66437" lon="-3.84691">
        <ele>4.8</ele>
        <time>2023-01-11T17:41:19+01:00</time>
      </trkpt>
      <trkpt lat="48.66418" lon="-3.84686">
        <ele>4</ele>
        <time>2023-01-11T17:41:43+01:00</time>
      </trkpt>
      <trkpt lat="48.66399" lon="-3.84678">
        <ele>4.4</ele>
        <time>2023-01-11T17:41:59+01:00</time>
      </trkpt>
      <trkpt lat="48.66379" lon="-3.84672">
        <ele>4.6</ele>
        <time>2023-01-11T17:42:15+01:00</time>
      </trkpt>
      <trkpt lat="48.6636" lon="-3.84671">
        <ele>4.7</ele>
        <time>2023-01-11T17:42:27+01:00</time>
      </trkpt>
      <trkpt lat="48.66338" lon="-3.84667">
        <ele>5</ele>
        <time>2023-01-11T17:42:41+01:00</time>
      </trkpt>
      <trkpt lat="48.66318" lon="-3.84663">
        <ele>4.7</ele>
        <time>2023-01-11T17:42:55+01:00</time>
      </trkpt>
      <trkpt lat="48.66298" lon="-3.84655">
        <ele>4.6</ele>
        <time>2023-01-11T17:43:10+01:00</time>
      </trkpt>
      <trkpt lat="48.6628" lon="-3.84648">
        <ele>4.4</ele>
        <time>2023-01-11T17:43:23+01:00</time>
      </trkpt>
      <trkpt lat="48.66263" lon="-3.84638">
        <ele>4.5</ele>
        <time>2023-01-11T17:43:39+01:00</time>
      </trkpt>
      <trkpt lat="48.66245" lon="-3.84625">
        <ele>4.8</ele>
        <time>2023-01-11T17:43:55+01:00</time>
      </trkpt>
      <trkpt lat="48.66227" lon="-3.84623">
        <ele>4.2</ele>
        <time>2023-01-11T17:44:09+01:00</time>
      </trkpt>
      <trkpt lat="48.66211" lon="-3.8461">
        <ele>4</ele>
        <time>2023-01-11T17:44:22+01:00</time>
      </trkpt>
      <trkpt lat="48.66194" lon="-3.84597">
        <ele>4.5</ele>
        <time>2023-01-11T17:44:39+01:00</time>
      </trkpt>
      <trkpt lat="48.66175" lon="-3.84591">
        <ele>4.7</ele>
        <time>2023-01-11T17:44:52+01:00</time>
      </trkpt>
      <trkpt lat="48.66155" lon="-3.8459">
        <ele>4.8</ele>
        <time>2023-01-11T17:45:08+01:00</time>
      </trkpt>
      <trkpt lat="48.66135" lon="-3.84593">
        <ele>4.8</ele>
        <time>2023-01-11T17:45:27+01:00</time>
      </trkpt>
      <trkpt lat="48.66117" lon="-3.84601">
        <ele>5.2</ele>
        <time>2023-01-11T17:45:48+01:00</time>
      </trkpt>
      <trkpt lat="48.66099" lon="-3.84613">
        <ele>4.9</ele>
        <time>2023-01-11T17:46:06+01:00</time>
      </trkpt>
      <trkpt lat="48.66079" lon="-3.84602">
        <ele>5.6</ele>
        <time>2023-01-11T17:46:26+01:00</time>
      </trkpt>
      <trkpt lat="48.66059" lon="-3.84598">
        <ele>5.9</ele>
        <time>2023-01-11T17:46:40+01:00</time>
      </trkpt>
      <trkpt lat="48.66041" lon="-3.84597">
        <ele>6</ele>
        <time>2023-01-11T17:46:59+01:00</time>
      </trkpt>
      <trkpt lat="48.66026" lon="-3.84611">
        <ele>6.1</ele>
        <time>2023-01-11T17:48:03+01:00</time>
      </trkpt>
      <trkpt lat="48.66015" lon="-3.84636">
        <ele>5.5</ele>
        <time>2023-01-11T17:48:20+01:00</time>
      </trkpt>
      <trkpt lat="48.66009" lon="-3.84664">
        <ele>6</ele>
        <time>2023-01-11T17:48:40+01:00</time>
      </trkpt>
      <trkpt lat="48.66008" lon="-3.84694">
        <ele>6</ele>
        <time>2023-01-11T17:48:57+01:00</time>
      </trkpt>
      <trkpt lat="48.66003" lon="-3.84721">
        <ele>6.8</ele>
        <time>2023-01-11T17:49:16+01:00</time>
      </trkpt>
      <trkpt lat="48.65998" lon="-3.84751">
        <ele>6.1</ele>
        <time>2023-01-11T17:49:30+01:00</time>
      </trkpt>
      <trkpt lat="48.65997" lon="-3.84781">
        <ele>6.1</ele>
        <time>2023-01-11T17:49:43+01:00</time>
      </trkpt>
      <trkpt lat="48.65997" lon="-3.84809">
        <ele>6.1</ele>
        <time>2023-01-11T17:49:57+01:00</time>
      </trkpt>
      <trkpt lat="48.65993" lon="-3.8484">
        <ele>6.2</ele>
        <time>2023-01-11T17:50:13+01:00</time>
      </trkpt>
      <trkpt lat="48.6599" lon="-3.8487">
        <ele>6.2</ele>
        <time>2023-01-11T17:50:32+01:00</time>
      </trkpt>
      <trkpt lat="48.65987" lon="-3.84899">
        <ele>6.1</ele>
        <time>2023-01-11T17:50:48+01:00</time>
      </trkpt>
      <trkpt lat="48.65983" lon="-3.84926">
        <ele>6.6</ele>
        <time>2023-01-11T17:51:07+01:00</time>
      </trkpt>
      <trkpt lat="48.65987" lon="-3.84956">
        <ele>6.5</ele>
        <time>2023-01-11T17:51:21+01:00</time>
      </trkpt>
      <trkpt lat="48.65977" lon="-3.84981">
        <ele>7.3</ele>
        <time>2023-01-11T17:51:36+01:00</time>
      </trkpt>
      <trkpt lat="48.65966" lon="-3.85006">
        <ele>7.6</ele>
        <time>2023-01-11T17:51:48+01:00</time>
      </trkpt>
      <trkpt lat="48.65956" lon="-3.85033">
        <ele>8.6</ele>
        <time>2023-01-11T17:52:01+01:00</time>
      </trkpt>
      <trkpt lat="48.65953" lon="-3.85061">
        <ele>8.7</ele>
        <time>2023-01-11T17:52:19+01:00</time>
      </trkpt>
      <trkpt lat="48.65938" lon="-3.85083">
        <ele>9.4</ele>
        <time>2023-01-11T17:52:45+01:00</time>
      </trkpt>
      <trkpt lat="48.65925" lon="-3.85106">
        <ele>10.6</ele>
        <time>2023-01-11T17:53:08+01:00</time>
      </trkpt>
      <trkpt lat="48.65913" lon="-3.85129">
        <ele>11.9</ele>
        <time>2023-01-11T17:53:22+01:00</time>
      </trkpt>
      <trkpt lat="48.65903" lon="-3.85152">
        <ele>13.4</ele>
        <time>2023-01-11T17:53:38+01:00</time>
      </trkpt>
      <trkpt lat="48.65895" lon="-3.85179">
        <ele>15</ele>
        <time>2023-01-11T17:53:57+01:00</time>
      </trkpt>
      <trkpt lat="48.65913" lon="-3.85197">
        <ele>14.5</ele>
        <time>2023-01-11T17:54:22+01:00</time>
      </trkpt>
      <trkpt lat="48.65932" lon="-3.85209">
        <ele>15</ele>
        <time>2023-01-11T17:54:38+01:00</time>
      </trkpt>
      <trkpt lat="48.65951" lon="-3.85216">
        <ele>14.1</ele>
        <time>2023-01-11T17:54:54+01:00</time>
      </trkpt>
      <trkpt lat="48.65967" lon="-3.85228">
        <ele>12.9</ele>
        <time>2023-01-11T17:55:10+01:00</time>
      </trkpt>
      <trkpt lat="48.65984" lon="-3.85238">
        <ele>12.7</ele>
        <time>2023-01-11T17:55:23+01:00</time>
      </trkpt>
      <trkpt lat="48.66001" lon="-3.85252">
        <ele>13.1</ele>
        <time>2023-01-11T17:55:36+01:00</time>
      </trkpt>
      <trkpt lat="48.66019" lon="-3.85262">
        <ele>12.5</ele>
        <time>2023-01-11T17:55:50+01:00</time>
      </trkpt>
      <trkpt lat="48.66037" lon="-3.8527">
        <ele>11.1</ele>
        <time>2023-01-11T17:56:03+01:00</time>
      </trkpt>
      <trkpt lat="48.66055" lon="-3.85277">
        <ele>10</ele>
        <time>2023-01-11T17:56:16+01:00</time>
      </trkpt>
      <trkpt lat="48.6607" lon="-3.85296">
        <ele>9.6</ele>
        <time>2023-01-11T17:56:30+01:00</time>
      </trkpt>
      <trkpt lat="48.66076" lon="-3.85325">
        <ele>10.6</ele>
        <time>2023-01-11T17:56:41+01:00</time>
      </trkpt>
      <trkpt lat="48.66092" lon="-3.8534">
        <ele>9.6</ele>
        <time>2023-01-11T17:56:53+01:00</time>
      </trkpt>
      <trkpt lat="48.66112" lon="-3.85334">
        <ele>8</ele>
        <time>2023-01-11T17:57:04+01:00</time>
      </trkpt>
      <trkpt lat="48.66132" lon="-3.85328">
        <ele>7.2</ele>
        <time>2023-01-11T17:57:20+01:00</time>
      </trkpt>
      <trkpt lat="48.66151" lon="-3.8532">
        <ele>6.5</ele>
        <time>2023-01-11T17:57:35+01:00</time>
      </trkpt>
      <trkpt lat="48.6617" lon="-3.85327">
        <ele>5.6</ele>
        <time>2023-01-11T17:57:51+01:00</time>
      </trkpt>
      <trkpt lat="48.66181" lon="-3.85351">
        <ele>4.4</ele>
        <time>2023-01-11T17:58:06+01:00</time>
      </trkpt>
      <trkpt lat="48.66191" lon="-3.85376">
        <ele>4.4</ele>
        <time>2023-01-11T17:58:23+01:00</time>
      </trkpt>
      <trkpt lat="48.6621" lon="-3.85388">
        <ele>3.9</ele>
        <time>2023-01-11T13:23:24+01:00</time>
      </trkpt>
      <trkpt lat="48.66228" lon="-3.85396">
        <ele>3.5</ele>
        <time>2023-01-11T13:23:39+01:00</time>
      </trkpt>
      <trkpt lat="48.66248" lon="-3.85408">
        <ele>4.2</ele>
        <time>2023-01-11T13:23:53+01:00</time>
      </trkpt>
      <trkpt lat="48.66267" lon="-3.85418">
        <ele>3.8</ele>
        <time>2023-01-11T13:24:06+01:00</time>
      </trkpt>
      <trkpt lat="48.66285" lon="-3.85424">
        <ele>3.8</ele>
        <time>2023-01-11T13:24:17+01:00</time>
      </trkpt>
      <trkpt lat="48.66304" lon="-3.85426">
        <ele>4</ele>
        <time>2023-01-11T13:24:28+01:00</time>
      </trkpt>
      <trkpt lat="48.66324" lon="-3.85421">
        <ele>4.7</ele>
        <time>2023-01-11T13:24:44+01:00</time>
      </trkpt>
      <trkpt lat="48.66344" lon="-3.85417">
        <ele>5</ele>
        <time>2023-01-11T13:24:57+01:00</time>
      </trkpt>
      <trkpt lat="48.66364" lon="-3.85423">
        <ele>5.8</ele>
        <time>2023-01-11T13:25:11+01:00</time>
      </trkpt>
      <trkpt lat="48.66382" lon="-3.85429">
        <ele>6.4</ele>
        <time>2023-01-11T13:25:24+01:00</time>
      </trkpt>
      <trkpt lat="48.66401" lon="-3.85439">
        <ele>6.8</ele>
        <time>2023-01-11T13:25:37+01:00</time>
      </trkpt>
      <trkpt lat="48.66419" lon="-3.85442">
        <ele>6.9</ele>
        <time>2023-01-11T13:25:48+01:00</time>
      </trkpt>
      <trkpt lat="48.66439" lon="-3.85442">
        <ele>6.9</ele>
        <time>2023-01-11T13:26:02+01:00</time>
      </trkpt>
      <trkpt lat="48.6646" lon="-3.85439">
        <ele>5.6</ele>
        <time>2023-01-11T13:26:17+01:00</time>
      </trkpt>
      <trkpt lat="48.66478" lon="-3.8544">
        <ele>4.6</ele>
        <time>2023-01-11T13:26:33+01:00</time>
      </trkpt>
      <trkpt lat="48.66494" lon="-3.85424">
        <ele>2.9</ele>
        <time>2023-01-11T13:26:49+01:00</time>
      </trkpt>
      <trkpt lat="48.66502" lon="-3.85451">
        <ele>5.3</ele>
        <time>2023-01-11T13:27:03+01:00</time>
      </trkpt>
      <trkpt lat="48.66522" lon="-3.85455">
        <ele>4.2</ele>
        <time>2023-01-11T13:27:14+01:00</time>
      </trkpt>
      <trkpt lat="48.66541" lon="-3.85466">
        <ele>4.7</ele>
        <time>2023-01-11T13:27:26+01:00</time>
      </trkpt>
      <trkpt lat="48.66557" lon="-3.85484">
        <ele>5.8</ele>
        <time>2023-01-11T13:27:39+01:00</time>
      </trkpt>
      <trkpt lat="48.66573" lon="-3.85503">
        <ele>6.7</ele>
        <time>2023-01-11T13:27:52+01:00</time>
      </trkpt>
      <trkpt lat="48.6659" lon="-3.85522">
        <ele>8.2</ele>
        <time>2023-01-11T13:28:06+01:00</time>
      </trkpt>
      <trkpt lat="48.66603" lon="-3.8554">
        <ele>9.6</ele>
        <time>2023-01-11T13:28:17+01:00</time>
      </trkpt>
      <trkpt lat="48.66619" lon="-3.85557">
        <ele>10.2</ele>
        <time>2023-01-11T13:28:30+01:00</time>
      </trkpt>
      <trkpt lat="48.66635" lon="-3.85574">
        <ele>11.4</ele>
        <time>2023-01-11T13:28:44+01:00</time>
      </trkpt>
      <trkpt lat="48.66651" lon="-3.8556">
        <ele>10.8</ele>
        <time>2023-01-11T13:29:00+01:00</time>
      </trkpt>
      <trkpt lat="48.66671" lon="-3.85548">
        <ele>10.7</ele>
        <time>2023-01-11T13:29:17+01:00</time>
      </trkpt>
      <trkpt lat="48.66688" lon="-3.85532">
        <ele>10.2</ele>
        <time>2023-01-11T13:29:31+01:00</time>
      </trkpt>
      <trkpt lat="48.66706" lon="-3.8552">
        <ele>9.5</ele>
        <time>2023-01-11T13:29:45+01:00</time>
      </trkpt>
      <trkpt lat="48.66725" lon="-3.85519">
        <ele>10.4</ele>
        <time>2023-01-11T13:29:54+01:00</time>
      </trkpt>
      <trkpt lat="48.66743" lon="-3.85513">
        <ele>10.7</ele>
        <time>2023-01-11T13:30:05+01:00</time>
      </trkpt>
      <trkpt lat="48.66761" lon="-3.85515">
        <ele>11.5</ele>
        <time>2023-01-11T13:30:17+01:00</time>
      </trkpt>
      <trkpt lat="48.66764" lon="-3.85484">
        <ele>9.7</ele>
        <time>2023-01-11T13:30:38+01:00</time>
      </trkpt>
      <trkpt lat="48.66763" lon="-3.85456">
        <ele>7.5</ele>
        <time>2023-01-11T13:30:54+01:00</time>
      </trkpt>
      <trkpt lat="48.66778" lon="-3.85439">
        <ele>6.6</ele>
        <time>2023-01-11T13:31:11+01:00</time>
      </trkpt>
      <trkpt lat="48.66798" lon="-3.85428">
        <ele>6.8</ele>
        <time>2023-01-11T13:31:25+01:00</time>
      </trkpt>
      <trkpt lat="48.66816" lon="-3.85425">
        <ele>7.6</ele>
        <time>2023-01-11T13:31:38+01:00</time>
      </trkpt>
      <trkpt lat="48.6683" lon="-3.85408">
        <ele>7.1</ele>
        <time>2023-01-11T13:31:59+01:00</time>
      </trkpt>
      <trkpt lat="48.66849" lon="-3.85394">
        <ele>6.9</ele>
        <time>2023-01-11T13:32:19+01:00</time>
      </trkpt>
      <trkpt lat="48.66867" lon="-3.85386">
        <ele>6.8</ele>
        <time>2023-01-11T13:32:37+01:00</time>
      </trkpt>
      <trkpt lat="48.66886" lon="-3.85394">
        <ele>8.4</ele>
        <time>2023-01-11T13:33:00+01:00</time>
      </trkpt>
      <trkpt lat="48.66905" lon="-3.85395">
        <ele>8.6</ele>
        <time>2023-01-11T13:33:13+01:00</time>
      </trkpt>
      <trkpt lat="48.66927" lon="-3.85401">
        <ele>9.3</ele>
        <time>2023-01-11T13:33:27+01:00</time>
      </trkpt>
      <trkpt lat="48.66948" lon="-3.85405">
        <ele>9.7</ele>
        <time>2023-01-11T13:33:36+01:00</time>
      </trkpt>
      <trkpt lat="48.66967" lon="-3.85409">
        <ele>10</ele>
        <time>2023-01-11T13:33:46+01:00</time>
      </trkpt>
      <trkpt lat="48.66986" lon="-3.85411">
        <ele>9</ele>
        <time>2023-01-11T13:34:01+01:00</time>
      </trkpt>
      <trkpt lat="48.67005" lon="-3.8542">
        <ele>9</ele>
        <time>2023-01-11T13:34:21+01:00</time>
      </trkpt>
      <trkpt lat="48.67022" lon="-3.8543">
        <ele>9.3</ele>
        <time>2023-01-11T13:34:36+01:00</time>
      </trkpt>
      <trkpt lat="48.67041" lon="-3.85441">
        <ele>10.2</ele>
        <time>2023-01-11T13:34:52+01:00</time>
      </trkpt>
      <trkpt lat="48.67059" lon="-3.85456">
        <ele>11.2</ele>
        <time>2023-01-11T13:35:05+01:00</time>
      </trkpt>
      <trkpt lat="48.67074" lon="-3.85478">
        <ele>13.8</ele>
        <time>2023-01-11T13:35:19+01:00</time>
      </trkpt>
      <trkpt lat="48.67094" lon="-3.85489">
        <ele>12.8</ele>
        <time>2023-01-11T13:35:33+01:00</time>
      </trkpt>
      <trkpt lat="48.67111" lon="-3.855">
        <ele>12.1</ele>
        <time>2023-01-11T13:35:45+01:00</time>
      </trkpt>
      <trkpt lat="48.67127" lon="-3.85514">
        <ele>10.5</ele>
        <time>2023-01-11T13:35:56+01:00</time>
      </trkpt>
      <trkpt lat="48.67141" lon="-3.85535">
        <ele>11.6</ele>
        <time>2023-01-11T13:36:09+01:00</time>
      </trkpt>
      <trkpt lat="48.6715" lon="-3.8556">
        <ele>13.5</ele>
        <time>2023-01-11T13:36:22+01:00</time>
      </trkpt>
      <trkpt lat="48.67155" lon="-3.85586">
        <ele>17</ele>
        <time>2023-01-11T13:36:37+01:00</time>
      </trkpt>
      <trkpt lat="48.67166" lon="-3.85612">
        <ele>18.2</ele>
        <time>2023-01-11T13:36:55+01:00</time>
      </trkpt>
      <trkpt lat="48.67177" lon="-3.85634">
        <ele>18.9</ele>
        <time>2023-01-11T13:37:13+01:00</time>
      </trkpt>
      <trkpt lat="48.67186" lon="-3.85661">
        <ele>20.1</ele>
        <time>2023-01-11T13:37:29+01:00</time>
      </trkpt>
      <trkpt lat="48.67181" lon="-3.85692">
        <ele>23.2</ele>
        <time>2023-01-11T13:37:58+01:00</time>
      </trkpt>
      <trkpt lat="48.67187" lon="-3.85722">
        <ele>23.2</ele>
        <time>2023-01-11T13:38:12+01:00</time>
      </trkpt>
      <trkpt lat="48.67199" lon="-3.85748">
        <ele>22.2</ele>
        <time>2023-01-11T13:38:40+01:00</time>
      </trkpt>
      <trkpt lat="48.67204" lon="-3.85776">
        <ele>22.6</ele>
        <time>2023-01-11T13:38:53+01:00</time>
      </trkpt>
      <trkpt lat="48.67203" lon="-3.85803">
        <ele>25.4</ele>
        <time>2023-01-11T13:39:07+01:00</time>
      </trkpt>
      <trkpt lat="48.67204" lon="-3.8583">
        <ele>26.2</ele>
        <time>2023-01-11T13:39:18+01:00</time>
      </trkpt>
      <trkpt lat="48.67204" lon="-3.85859">
        <ele>28.6</ele>
        <time>2023-01-11T13:39:29+01:00</time>
      </trkpt>
      <trkpt lat="48.67207" lon="-3.85887">
        <ele>29.7</ele>
        <time>2023-01-11T13:39:46+01:00</time>
      </trkpt>
      <trkpt lat="48.67209" lon="-3.85919">
        <ele>31</ele>
        <time>2023-01-11T13:40:25+01:00</time>
      </trkpt>
      <trkpt lat="48.67211" lon="-3.85948">
        <ele>32</ele>
        <time>2023-01-11T13:40:38+01:00</time>
      </trkpt>
      <trkpt lat="48.67214" lon="-3.85977">
        <ele>32.3</ele>
        <time>2023-01-11T13:40:55+01:00</time>
      </trkpt>
      <trkpt lat="48.67216" lon="-3.86005">
        <ele>32.3</ele>
        <time>2023-01-11T13:41:12+01:00</time>
      </trkpt>
      <trkpt lat="48.67215" lon="-3.86034">
        <ele>33.1</ele>
        <time>2023-01-11T13:41:28+01:00</time>
      </trkpt>
      <trkpt lat="48.67215" lon="-3.86061">
        <ele>33</ele>
        <time>2023-01-11T13:41:41+01:00</time>
      </trkpt>
      <trkpt lat="48.67218" lon="-3.86091">
        <ele>32.9</ele>
        <time>2023-01-11T13:42:00+01:00</time>
      </trkpt>
      <trkpt lat="48.67237" lon="-3.86097">
        <ele>31.2</ele>
        <time>2023-01-11T13:42:18+01:00</time>
      </trkpt>
      <trkpt lat="48.67253" lon="-3.86108">
        <ele>30</ele>
        <time>2023-01-11T13:43:03+01:00</time>
      </trkpt>
      <trkpt lat="48.6727" lon="-3.86117">
        <ele>25.7</ele>
        <time>2023-01-11T13:43:15+01:00</time>
      </trkpt>
      <trkpt lat="48.67285" lon="-3.86137">
        <ele>21.7</ele>
        <time>2023-01-11T13:43:47+01:00</time>
      </trkpt>
      <trkpt lat="48.67296" lon="-3.8616">
        <ele>16.7</ele>
        <time>2023-01-11T13:44:08+01:00</time>
      </trkpt>
      <trkpt lat="48.67285" lon="-3.86186">
        <ele>13.5</ele>
        <time>2023-01-11T13:44:23+01:00</time>
      </trkpt>
      <trkpt lat="48.67274" lon="-3.8621">
        <ele>10</ele>
        <time>2023-01-11T13:44:39+01:00</time>
      </trkpt>
      <trkpt lat="48.67262" lon="-3.86235">
        <ele>8.8</ele>
        <time>2023-01-11T13:44:54+01:00</time>
      </trkpt>
      <trkpt lat="48.67246" lon="-3.86258">
        <ele>8.6</ele>
        <time>2023-01-11T13:45:10+01:00</time>
      </trkpt>
      <trkpt lat="48.67232" lon="-3.86277">
        <ele>10.1</ele>
        <time>2023-01-11T13:45:26+01:00</time>
      </trkpt>
      <trkpt lat="48.6722" lon="-3.86297">
        <ele>7.5</ele>
        <time>2023-01-11T13:45:40+01:00</time>
      </trkpt>
      <trkpt lat="48.67207" lon="-3.86321">
        <ele>6.7</ele>
        <time>2023-01-11T13:45:55+01:00</time>
      </trkpt>
      <trkpt lat="48.67179" lon="-3.86352">
        <ele>8.6</ele>
        <time>2023-01-11T13:47:48+01:00</time>
      </trkpt>
      <trkpt lat="48.67166" lon="-3.86373">
        <ele>8.5</ele>
        <time>2023-01-11T13:48:10+01:00</time>
      </trkpt>
      <trkpt lat="48.67151" lon="-3.86389">
        <ele>11.8</ele>
        <time>2023-01-11T13:49:05+01:00</time>
      </trkpt>
      <trkpt lat="48.67142" lon="-3.86414">
        <ele>13.8</ele>
        <time>2023-01-11T13:49:23+01:00</time>
      </trkpt>
      <trkpt lat="48.6713" lon="-3.86437">
        <ele>11.2</ele>
        <time>2023-01-11T13:49:43+01:00</time>
      </trkpt>
      <trkpt lat="48.67106" lon="-3.86445">
        <ele>14</ele>
        <time>2023-01-11T13:50:21+01:00</time>
      </trkpt>
      <trkpt lat="48.67088" lon="-3.86445">
        <ele>14</ele>
        <time>2023-01-11T13:50:32+01:00</time>
      </trkpt>
      <trkpt lat="48.6707" lon="-3.86433">
        <ele>15</ele>
        <time>2023-01-11T13:51:38+01:00</time>
      </trkpt>
      <trkpt lat="48.67051" lon="-3.86433">
        <ele>12.5</ele>
        <time>2023-01-11T13:53:05+01:00</time>
      </trkpt>
      <trkpt lat="48.67038" lon="-3.86414">
        <ele>13</ele>
        <time>2023-01-11T13:53:23+01:00</time>
      </trkpt>
      <trkpt lat="48.67019" lon="-3.86403">
        <ele>10.1</ele>
        <time>2023-01-11T13:53:39+01:00</time>
      </trkpt>
      <trkpt lat="48.67002" lon="-3.8639">
        <ele>9</ele>
        <time>2023-01-11T13:53:54+01:00</time>
      </trkpt>
      <trkpt lat="48.66983" lon="-3.86383">
        <ele>6.9</ele>
        <time>2023-01-11T13:54:07+01:00</time>
      </trkpt>
      <trkpt lat="48.66969" lon="-3.86362">
        <ele>10</ele>
        <time>2023-01-11T13:54:23+01:00</time>
      </trkpt>
      <trkpt lat="48.66958" lon="-3.86336">
        <ele>13.7</ele>
        <time>2023-01-11T13:54:39+01:00</time>
      </trkpt>
      <trkpt lat="48.66938" lon="-3.86324">
        <ele>13.6</ele>
        <time>2023-01-11T13:55:30+01:00</time>
      </trkpt>
      <trkpt lat="48.6692" lon="-3.86322">
        <ele>9.9</ele>
        <time>2023-01-11T13:56:26+01:00</time>
      </trkpt>
      <trkpt lat="48.66901" lon="-3.8632">
        <ele>7.9</ele>
        <time>2023-01-11T13:56:37+01:00</time>
      </trkpt>
      <trkpt lat="48.66885" lon="-3.86302">
        <ele>9.8</ele>
        <time>2023-01-11T13:56:53+01:00</time>
      </trkpt>
      <trkpt lat="48.66874" lon="-3.86279">
        <ele>12.1</ele>
        <time>2023-01-11T13:57:16+01:00</time>
      </trkpt>
      <trkpt lat="48.66858" lon="-3.86264">
        <ele>11.2</ele>
        <time>2023-01-11T13:57:30+01:00</time>
      </trkpt>
      <trkpt lat="48.66841" lon="-3.86253">
        <ele>9.3</ele>
        <time>2023-01-11T13:57:43+01:00</time>
      </trkpt>
      <trkpt lat="48.66823" lon="-3.86237">
        <ele>8.9</ele>
        <time>2023-01-11T13:57:56+01:00</time>
      </trkpt>
      <trkpt lat="48.66806" lon="-3.86224">
        <ele>6.8</ele>
        <time>2023-01-11T13:58:10+01:00</time>
      </trkpt>
      <trkpt lat="48.6679" lon="-3.86207">
        <ele>9.4</ele>
        <time>2023-01-11T13:58:21+01:00</time>
      </trkpt>
      <trkpt lat="48.66774" lon="-3.86194">
        <ele>10.2</ele>
        <time>2023-01-11T13:58:37+01:00</time>
      </trkpt>
      <trkpt lat="48.66756" lon="-3.86182">
        <ele>8.6</ele>
        <time>2023-01-11T13:58:53+01:00</time>
      </trkpt>
      <trkpt lat="48.66737" lon="-3.86168">
        <ele>7.5</ele>
        <time>2023-01-11T13:59:06+01:00</time>
      </trkpt>
      <trkpt lat="48.66719" lon="-3.86152">
        <ele>6.5</ele>
        <time>2023-01-11T13:59:22+01:00</time>
      </trkpt>
      <trkpt lat="48.66704" lon="-3.86129">
        <ele>7.3</ele>
        <time>2023-01-11T13:59:38+01:00</time>
      </trkpt>
      <trkpt lat="48.66688" lon="-3.86107">
        <ele>8.1</ele>
        <time>2023-01-11T13:59:53+01:00</time>
      </trkpt>
      <trkpt lat="48.66677" lon="-3.86082">
        <ele>8.5</ele>
        <time>2023-01-11T14:00:11+01:00</time>
      </trkpt>
      <trkpt lat="48.66662" lon="-3.86065">
        <ele>8.3</ele>
        <time>2023-01-11T14:00:28+01:00</time>
      </trkpt>
      <trkpt lat="48.66647" lon="-3.86042">
        <ele>8.2</ele>
        <time>2023-01-11T14:00:47+01:00</time>
      </trkpt>
      <trkpt lat="48.66634" lon="-3.86023">
        <ele>8.5</ele>
        <time>2023-01-11T14:01:00+01:00</time>
      </trkpt>
      <trkpt lat="48.66619" lon="-3.86003">
        <ele>6.9</ele>
        <time>2023-01-11T14:01:13+01:00</time>
      </trkpt>
      <trkpt lat="48.66609" lon="-3.85976">
        <ele>9.7</ele>
        <time>2023-01-11T14:01:26+01:00</time>
      </trkpt>
      <trkpt lat="48.66592" lon="-3.85965">
        <ele>7.5</ele>
        <time>2023-01-11T14:01:40+01:00</time>
      </trkpt>
      <trkpt lat="48.66576" lon="-3.85946">
        <ele>7.8</ele>
        <time>2023-01-11T14:01:53+01:00</time>
      </trkpt>
      <trkpt lat="48.66559" lon="-3.85929">
        <ele>7</ele>
        <time>2023-01-11T14:02:11+01:00</time>
      </trkpt>
      <trkpt lat="48.66544" lon="-3.85911">
        <ele>8</ele>
        <time>2023-01-11T14:02:28+01:00</time>
      </trkpt>
      <trkpt lat="48.66525" lon="-3.85895">
        <ele>9</ele>
        <time>2023-01-11T14:02:44+01:00</time>
      </trkpt>
      <trkpt lat="48.66507" lon="-3.8588">
        <ele>8.9</ele>
        <time>2023-01-11T14:02:59+01:00</time>
      </trkpt>
      <trkpt lat="48.66489" lon="-3.8587">
        <ele>9.6</ele>
        <time>2023-01-11T14:03:12+01:00</time>
      </trkpt>
      <trkpt lat="48.66471" lon="-3.85861">
        <ele>9</ele>
        <time>2023-01-11T14:03:33+01:00</time>
      </trkpt>
      <trkpt lat="48.66452" lon="-3.85857">
        <ele>8.2</ele>
        <time>2023-01-11T14:03:48+01:00</time>
      </trkpt>
      <trkpt lat="48.66433" lon="-3.85858">
        <ele>7</ele>
        <time>2023-01-11T14:04:02+01:00</time>
      </trkpt>
      <trkpt lat="48.66414" lon="-3.85853">
        <ele>8.2</ele>
        <time>2023-01-11T14:04:16+01:00</time>
      </trkpt>
      <trkpt lat="48.66396" lon="-3.85841">
        <ele>11.5</ele>
        <time>2023-01-11T14:04:30+01:00</time>
      </trkpt>
      <trkpt lat="48.66376" lon="-3.85839">
        <ele>11.4</ele>
        <time>2023-01-11T14:04:43+01:00</time>
      </trkpt>
      <trkpt lat="48.66357" lon="-3.85839">
        <ele>10.8</ele>
        <time>2023-01-11T14:04:57+01:00</time>
      </trkpt>
      <trkpt lat="48.6634" lon="-3.85831">
        <ele>11.4</ele>
        <time>2023-01-11T14:05:11+01:00</time>
      </trkpt>
      <trkpt lat="48.6632" lon="-3.85828">
        <ele>10.2</ele>
        <time>2023-01-11T14:05:22+01:00</time>
      </trkpt>
      <trkpt lat="48.66303" lon="-3.85819">
        <ele>10.4</ele>
        <time>2023-01-11T14:05:33+01:00</time>
      </trkpt>
      <trkpt lat="48.66284" lon="-3.85807">
        <ele>8.5</ele>
        <time>2023-01-11T14:05:49+01:00</time>
      </trkpt>
      <trkpt lat="48.6627" lon="-3.85783">
        <ele>10.9</ele>
        <time>2023-01-11T14:06:25+01:00</time>
      </trkpt>
      <trkpt lat="48.66251" lon="-3.85777">
        <ele>5</ele>
        <time>2023-01-11T14:06:41+01:00</time>
      </trkpt>
      <trkpt lat="48.66235" lon="-3.85762">
        <ele>6.5</ele>
        <time>2023-01-11T14:06:55+01:00</time>
      </trkpt>
      <trkpt lat="48.66227" lon="-3.85736">
        <ele>10.5</ele>
        <time>2023-01-11T14:07:11+01:00</time>
      </trkpt>
      <trkpt lat="48.66215" lon="-3.85716">
        <ele>11.3</ele>
        <time>2023-01-11T14:07:24+01:00</time>
      </trkpt>
      <trkpt lat="48.662" lon="-3.85698">
        <ele>9.3</ele>
        <time>2023-01-11T14:07:43+01:00</time>
      </trkpt>
      <trkpt lat="48.6618" lon="-3.85689">
        <ele>7.2</ele>
        <time>2023-01-11T14:08:54+01:00</time>
      </trkpt>
      <trkpt lat="48.66163" lon="-3.85673">
        <ele>9</ele>
        <time>2023-01-11T14:09:05+01:00</time>
      </trkpt>
      <trkpt lat="48.66146" lon="-3.85659">
        <ele>9.4</ele>
        <time>2023-01-11T14:09:21+01:00</time>
      </trkpt>
      <trkpt lat="48.66128" lon="-3.85649">
        <ele>12.4</ele>
        <time>2023-01-11T14:09:40+01:00</time>
      </trkpt>
      <trkpt lat="48.66109" lon="-3.85645">
        <ele>14</ele>
        <time>2023-01-11T14:09:54+01:00</time>
      </trkpt>
      <trkpt lat="48.66091" lon="-3.85643">
        <ele>17.3</ele>
        <time>2023-01-11T14:10:07+01:00</time>
      </trkpt>
      <trkpt lat="48.66073" lon="-3.85656">
        <ele>13.7</ele>
        <time>2023-01-11T14:10:25+01:00</time>
      </trkpt>
      <trkpt lat="48.66054" lon="-3.85657">
        <ele>18.3</ele>
        <time>2023-01-11T14:10:45+01:00</time>
      </trkpt>
      <trkpt lat="48.66037" lon="-3.85665">
        <ele>18.2</ele>
        <time>2023-01-11T14:11:05+01:00</time>
      </trkpt>
      <trkpt lat="48.66017" lon="-3.85667">
        <ele>19.4</ele>
        <time>2023-01-11T14:11:41+01:00</time>
      </trkpt>
      <trkpt lat="48.65998" lon="-3.85675">
        <ele>16.6</ele>
        <time>2023-01-11T14:11:55+01:00</time>
      </trkpt>
      <trkpt lat="48.65981" lon="-3.85687">
        <ele>16.7</ele>
        <time>2023-01-11T14:12:09+01:00</time>
      </trkpt>
      <trkpt lat="48.65962" lon="-3.85696">
        <ele>18.2</ele>
        <time>2023-01-11T14:12:25+01:00</time>
      </trkpt>
      <trkpt lat="48.65944" lon="-3.85705">
        <ele>16.5</ele>
        <time>2023-01-11T14:12:38+01:00</time>
      </trkpt>
      <trkpt lat="48.65924" lon="-3.8571">
        <ele>17.9</ele>
        <time>2023-01-11T14:12:51+01:00</time>
      </trkpt>
      <trkpt lat="48.65905" lon="-3.85704">
        <ele>21.5</ele>
        <time>2023-01-11T14:13:09+01:00</time>
      </trkpt>
      <trkpt lat="48.65886" lon="-3.85706">
        <ele>20.8</ele>
        <time>2023-01-11T14:13:26+01:00</time>
      </trkpt>
      <trkpt lat="48.65867" lon="-3.85716">
        <ele>20.8</ele>
        <time>2023-01-11T14:14:13+01:00</time>
      </trkpt>
      <trkpt lat="48.65853" lon="-3.85735">
        <ele>15.7</ele>
        <time>2023-01-11T14:14:31+01:00</time>
      </trkpt>
      <trkpt lat="48.65839" lon="-3.85754">
        <ele>13</ele>
        <time>2023-01-11T14:14:50+01:00</time>
      </trkpt>
      <trkpt lat="48.65823" lon="-3.85773">
        <ele>9.4</ele>
        <time>2023-01-11T14:15:07+01:00</time>
      </trkpt>
      <trkpt lat="48.65805" lon="-3.85783">
        <ele>11.4</ele>
        <time>2023-01-11T14:15:32+01:00</time>
      </trkpt>
      <trkpt lat="48.65785" lon="-3.85789">
        <ele>10.4</ele>
        <time>2023-01-11T14:15:45+01:00</time>
      </trkpt>
      <trkpt lat="48.65765" lon="-3.85789">
        <ele>11</ele>
        <time>2023-01-11T14:16:02+01:00</time>
      </trkpt>
      <trkpt lat="48.65746" lon="-3.85788">
        <ele>11.2</ele>
        <time>2023-01-11T14:16:20+01:00</time>
      </trkpt>
      <trkpt lat="48.65728" lon="-3.85777">
        <ele>10.7</ele>
        <time>2023-01-11T14:16:38+01:00</time>
      </trkpt>
      <trkpt lat="48.65718" lon="-3.85753">
        <ele>12.6</ele>
        <time>2023-01-11T14:16:53+01:00</time>
      </trkpt>
      <trkpt lat="48.65705" lon="-3.85732">
        <ele>14.7</ele>
        <time>2023-01-11T14:17:09+01:00</time>
      </trkpt>
      <trkpt lat="48.65688" lon="-3.85716">
        <ele>15.4</ele>
        <time>2023-01-11T14:17:25+01:00</time>
      </trkpt>
      <trkpt lat="48.6567" lon="-3.85706">
        <ele>14.8</ele>
        <time>2023-01-11T14:17:40+01:00</time>
      </trkpt>
      <trkpt lat="48.6565" lon="-3.85696">
        <ele>16.8</ele>
        <time>2023-01-11T14:17:57+01:00</time>
      </trkpt>
      <trkpt lat="48.65632" lon="-3.85689">
        <ele>16.8</ele>
        <time>2023-01-11T14:18:10+01:00</time>
      </trkpt>
      <trkpt lat="48.65612" lon="-3.85699">
        <ele>13.1</ele>
        <time>2023-01-11T14:18:37+01:00</time>
      </trkpt>
      <trkpt lat="48.65593" lon="-3.857">
        <ele>13.6</ele>
        <time>2023-01-11T14:18:51+01:00</time>
      </trkpt>
      <trkpt lat="48.65574" lon="-3.85711">
        <ele>10</ele>
        <time>2023-01-11T14:19:07+01:00</time>
      </trkpt>
      <trkpt lat="48.65555" lon="-3.85718">
        <ele>8.9</ele>
        <time>2023-01-11T14:19:22+01:00</time>
      </trkpt>
      <trkpt lat="48.65535" lon="-3.85708">
        <ele>10.5</ele>
        <time>2023-01-11T14:19:38+01:00</time>
      </trkpt>
      <trkpt lat="48.65518" lon="-3.85699">
        <ele>13.7</ele>
        <time>2023-01-11T14:19:56+01:00</time>
      </trkpt>
      <trkpt lat="48.65497" lon="-3.85694">
        <ele>16.4</ele>
        <time>2023-01-11T14:20:15+01:00</time>
      </trkpt>
      <trkpt lat="48.65476" lon="-3.85694">
        <ele>17.8</ele>
        <time>2023-01-11T14:20:31+01:00</time>
      </trkpt>
      <trkpt lat="48.65459" lon="-3.85682">
        <ele>18.9</ele>
        <time>2023-01-11T14:20:46+01:00</time>
      </trkpt>
      <trkpt lat="48.6544" lon="-3.85674">
        <ele>19.8</ele>
        <time>2023-01-11T14:21:05+01:00</time>
      </trkpt>
      <trkpt lat="48.65423" lon="-3.85686">
        <ele>16.3</ele>
        <time>2023-01-11T14:21:28+01:00</time>
      </trkpt>
      <trkpt lat="48.65402" lon="-3.85684">
        <ele>18.8</ele>
        <time>2023-01-11T14:21:44+01:00</time>
      </trkpt>
      <trkpt lat="48.65383" lon="-3.85682">
        <ele>20.3</ele>
        <time>2023-01-11T14:22:02+01:00</time>
      </trkpt>
      <trkpt lat="48.65363" lon="-3.85684">
        <ele>15.8</ele>
        <time>2023-01-11T14:22:16+01:00</time>
      </trkpt>
      <trkpt lat="48.65345" lon="-3.85684">
        <ele>13.7</ele>
        <time>2023-01-11T14:22:32+01:00</time>
      </trkpt>
      <trkpt lat="48.65323" lon="-3.85682">
        <ele>14.1</ele>
        <time>2023-01-11T14:22:48+01:00</time>
      </trkpt>
      <trkpt lat="48.65303" lon="-3.85687">
        <ele>12.8</ele>
        <time>2023-01-11T14:23:01+01:00</time>
      </trkpt>
      <trkpt lat="48.65285" lon="-3.85685">
        <ele>13.8</ele>
        <time>2023-01-11T14:23:18+01:00</time>
      </trkpt>
      <trkpt lat="48.65266" lon="-3.8568">
        <ele>13.9</ele>
        <time>2023-01-11T14:23:32+01:00</time>
      </trkpt>
      <trkpt lat="48.65248" lon="-3.85671">
        <ele>15.6</ele>
        <time>2023-01-11T14:23:45+01:00</time>
      </trkpt>
      <trkpt lat="48.65233" lon="-3.85652">
        <ele>19.6</ele>
        <time>2023-01-11T14:24:01+01:00</time>
      </trkpt>
      <trkpt lat="48.65221" lon="-3.8563">
        <ele>22.3</ele>
        <time>2023-01-11T14:24:33+01:00</time>
      </trkpt>
      <trkpt lat="48.65208" lon="-3.85611">
        <ele>21.3</ele>
        <time>2023-01-11T14:24:53+01:00</time>
      </trkpt>
      <trkpt lat="48.65194" lon="-3.85592">
        <ele>22.8</ele>
        <time>2023-01-11T14:25:10+01:00</time>
      </trkpt>
      <trkpt lat="48.65175" lon="-3.85583">
        <ele>21.1</ele>
        <time>2023-01-11T14:25:26+01:00</time>
      </trkpt>
      <trkpt lat="48.65156" lon="-3.85575">
        <ele>18.6</ele>
        <time>2023-01-11T14:25:51+01:00</time>
      </trkpt>
      <trkpt lat="48.65137" lon="-3.85581">
        <ele>11.8</ele>
        <time>2023-01-11T14:26:06+01:00</time>
      </trkpt>
      <trkpt lat="48.65116" lon="-3.85571">
        <ele>14.1</ele>
        <time>2023-01-11T14:26:20+01:00</time>
      </trkpt>
      <trkpt lat="48.65097" lon="-3.85562">
        <ele>17.2</ele>
        <time>2023-01-11T14:26:33+01:00</time>
      </trkpt>
      <trkpt lat="48.65076" lon="-3.85558">
        <ele>17</ele>
        <time>2023-01-11T14:26:48+01:00</time>
      </trkpt>
      <trkpt lat="48.65056" lon="-3.85559">
        <ele>13.6</ele>
        <time>2023-01-11T14:27:10+01:00</time>
      </trkpt>
      <trkpt lat="48.65036" lon="-3.85568">
        <ele>9.4</ele>
        <time>2023-01-11T14:27:25+01:00</time>
      </trkpt>
      <trkpt lat="48.65016" lon="-3.85574">
        <ele>7.3</ele>
        <time>2023-01-11T14:27:44+01:00</time>
      </trkpt>
      <trkpt lat="48.64998" lon="-3.85578">
        <ele>6.8</ele>
        <time>2023-01-11T14:28:04+01:00</time>
      </trkpt>
      <trkpt lat="48.64981" lon="-3.85588">
        <ele>5.1</ele>
        <time>2023-01-11T14:28:15+01:00</time>
      </trkpt>
      <trkpt lat="48.64962" lon="-3.85592">
        <ele>5.4</ele>
        <time>2023-01-11T14:28:31+01:00</time>
      </trkpt>
      <trkpt lat="48.64944" lon="-3.85599">
        <ele>5.2</ele>
        <time>2023-01-11T14:28:43+01:00</time>
      </trkpt>
      <trkpt lat="48.64924" lon="-3.85608">
        <ele>4.7</ele>
        <time>2023-01-11T14:28:56+01:00</time>
      </trkpt>
      <trkpt lat="48.64904" lon="-3.85612">
        <ele>4.9</ele>
        <time>2023-01-11T14:29:09+01:00</time>
      </trkpt>
      <trkpt lat="48.64884" lon="-3.85609">
        <ele>5</ele>
        <time>2023-01-11T14:29:23+01:00</time>
      </trkpt>
      <trkpt lat="48.64865" lon="-3.85604">
        <ele>4.8</ele>
        <time>2023-01-11T14:29:34+01:00</time>
      </trkpt>
      <trkpt lat="48.64848" lon="-3.85597">
        <ele>4.7</ele>
        <time>2023-01-11T14:29:47+01:00</time>
      </trkpt>
      <trkpt lat="48.64834" lon="-3.85578">
        <ele>5</ele>
        <time>2023-01-11T14:30:04+01:00</time>
      </trkpt>
      <trkpt lat="48.6483" lon="-3.85552">
        <ele>5</ele>
        <time>2023-01-11T14:30:33+01:00</time>
      </trkpt>
      <trkpt lat="48.64819" lon="-3.85529">
        <ele>5</ele>
        <time>2023-01-11T14:30:44+01:00</time>
      </trkpt>
      <trkpt lat="48.64802" lon="-3.85511">
        <ele>5</ele>
        <time>2023-01-11T14:30:59+01:00</time>
      </trkpt>
      <trkpt lat="48.64788" lon="-3.85492">
        <ele>5.5</ele>
        <time>2023-01-11T14:31:52+01:00</time>
      </trkpt>
      <trkpt lat="48.6477" lon="-3.85472">
        <ele>4.8</ele>
        <time>2023-01-11T14:32:25+01:00</time>
      </trkpt>
      <trkpt lat="48.64754" lon="-3.85455">
        <ele>5.1</ele>
        <time>2023-01-11T14:32:40+01:00</time>
      </trkpt>
      <trkpt lat="48.64738" lon="-3.85433">
        <ele>6.3</ele>
        <time>2023-01-11T14:32:55+01:00</time>
      </trkpt>
      <trkpt lat="48.6472" lon="-3.85421">
        <ele>4.5</ele>
        <time>2023-01-11T14:33:10+01:00</time>
      </trkpt>
      <trkpt lat="48.64699" lon="-3.85414">
        <ele>3.9</ele>
        <time>2023-01-11T14:33:25+01:00</time>
      </trkpt>
      <trkpt lat="48.64684" lon="-3.85398">
        <ele>5.4</ele>
        <time>2023-01-11T14:33:39+01:00</time>
      </trkpt>
      <trkpt lat="48.64667" lon="-3.85384">
        <ele>5.9</ele>
        <time>2023-01-11T14:33:53+01:00</time>
      </trkpt>
      <trkpt lat="48.64648" lon="-3.85375">
        <ele>4.7</ele>
        <time>2023-01-11T14:34:08+01:00</time>
      </trkpt>
      <trkpt lat="48.6463" lon="-3.85364">
        <ele>4.1</ele>
        <time>2023-01-11T14:34:22+01:00</time>
      </trkpt>
      <trkpt lat="48.64614" lon="-3.85348">
        <ele>5.1</ele>
        <time>2023-01-11T14:34:38+01:00</time>
      </trkpt>
      <trkpt lat="48.64601" lon="-3.85328">
        <ele>6.3</ele>
        <time>2023-01-11T14:34:57+01:00</time>
      </trkpt>
      <trkpt lat="48.64588" lon="-3.85306">
        <ele>8</ele>
        <time>2023-01-11T14:35:15+01:00</time>
      </trkpt>
      <trkpt lat="48.6457" lon="-3.85291">
        <ele>7.7</ele>
        <time>2023-01-11T14:35:28+01:00</time>
      </trkpt>
      <trkpt lat="48.64553" lon="-3.85281">
        <ele>7.8</ele>
        <time>2023-01-11T14:35:41+01:00</time>
      </trkpt>
      <trkpt lat="48.64534" lon="-3.85268">
        <ele>8.1</ele>
        <time>2023-01-11T14:35:58+01:00</time>
      </trkpt>
      <trkpt lat="48.64514" lon="-3.85261">
        <ele>9.2</ele>
        <time>2023-01-11T14:36:13+01:00</time>
      </trkpt>
      <trkpt lat="48.64497" lon="-3.85253">
        <ele>10.8</ele>
        <time>2023-01-11T14:36:28+01:00</time>
      </trkpt>
      <trkpt lat="48.64478" lon="-3.8525">
        <ele>9.5</ele>
        <time>2023-01-11T14:36:42+01:00</time>
      </trkpt>
      <trkpt lat="48.64458" lon="-3.85239">
        <ele>10.3</ele>
        <time>2023-01-11T14:36:57+01:00</time>
      </trkpt>
      <trkpt lat="48.64439" lon="-3.85233">
        <ele>10.4</ele>
        <time>2023-01-11T14:37:11+01:00</time>
      </trkpt>
      <trkpt lat="48.64418" lon="-3.85233">
        <ele>9.3</ele>
        <time>2023-01-11T14:37:25+01:00</time>
      </trkpt>
      <trkpt lat="48.64398" lon="-3.85222">
        <ele>9.7</ele>
        <time>2023-01-11T14:37:41+01:00</time>
      </trkpt>
      <trkpt lat="48.64377" lon="-3.85215">
        <ele>9.3</ele>
        <time>2023-01-11T14:38:01+01:00</time>
      </trkpt>
      <trkpt lat="48.64359" lon="-3.85216">
        <ele>7.8</ele>
        <time>2023-01-11T14:38:26+01:00</time>
      </trkpt>
      <trkpt lat="48.6434" lon="-3.85214">
        <ele>7.1</ele>
        <time>2023-01-11T14:38:47+01:00</time>
      </trkpt>
      <trkpt lat="48.64321" lon="-3.852">
        <ele>10.5</ele>
        <time>2023-01-11T14:39:08+01:00</time>
      </trkpt>
      <trkpt lat="48.64303" lon="-3.85194">
        <ele>10.4</ele>
        <time>2023-01-11T14:39:22+01:00</time>
      </trkpt>
      <trkpt lat="48.64284" lon="-3.85182">
        <ele>9</ele>
        <time>2023-01-11T14:39:37+01:00</time>
      </trkpt>
      <trkpt lat="48.64266" lon="-3.85175">
        <ele>8.6</ele>
        <time>2023-01-11T14:39:54+01:00</time>
      </trkpt>
      <trkpt lat="48.64245" lon="-3.85161">
        <ele>8.4</ele>
        <time>2023-01-11T14:40:10+01:00</time>
      </trkpt>
      <trkpt lat="48.64226" lon="-3.85153">
        <ele>7.4</ele>
        <time>2023-01-11T14:40:21+01:00</time>
      </trkpt>
      <trkpt lat="48.64208" lon="-3.85147">
        <ele>6.7</ele>
        <time>2023-01-11T14:40:32+01:00</time>
      </trkpt>
      <trkpt lat="48.64189" lon="-3.85142">
        <ele>5.3</ele>
        <time>2023-01-11T14:40:46+01:00</time>
      </trkpt>
      <trkpt lat="48.64169" lon="-3.85137">
        <ele>4.3</ele>
        <time>2023-01-11T14:40:57+01:00</time>
      </trkpt>
      <trkpt lat="48.64151" lon="-3.8513">
        <ele>4</ele>
        <time>2023-01-11T14:41:06+01:00</time>
      </trkpt>
      <trkpt lat="48.64131" lon="-3.85126">
        <ele>3.7</ele>
        <time>2023-01-11T14:41:18+01:00</time>
      </trkpt>
      <trkpt lat="48.64112" lon="-3.8512">
        <ele>4.1</ele>
        <time>2023-01-11T14:41:29+01:00</time>
      </trkpt>
      <trkpt lat="48.64092" lon="-3.85112">
        <ele>3.6</ele>
        <time>2023-01-11T14:41:42+01:00</time>
      </trkpt>
      <trkpt lat="48.64074" lon="-3.85098">
        <ele>3.8</ele>
        <time>2023-01-11T14:41:55+01:00</time>
      </trkpt>
      <trkpt lat="48.64056" lon="-3.8509">
        <ele>4.3</ele>
        <time>2023-01-11T14:42:09+01:00</time>
      </trkpt>
      <trkpt lat="48.64037" lon="-3.85081">
        <ele>3.2</ele>
        <time>2023-01-11T14:42:32+01:00</time>
      </trkpt>
      <trkpt lat="48.64018" lon="-3.85072">
        <ele>3.2</ele>
        <time>2023-01-11T14:42:46+01:00</time>
      </trkpt>
      <trkpt lat="48.64" lon="-3.85064">
        <ele>4.1</ele>
        <time>2023-01-11T14:43:01+01:00</time>
      </trkpt>
      <trkpt lat="48.63979" lon="-3.85065">
        <ele>4</ele>
        <time>2023-01-11T14:43:40+01:00</time>
      </trkpt>
      <trkpt lat="48.63961" lon="-3.8507">
        <ele>3.7</ele>
        <time>2023-01-11T14:44:27+01:00</time>
      </trkpt>
      <trkpt lat="48.63941" lon="-3.85072">
        <ele>3.8</ele>
        <time>2023-01-11T14:45:20+01:00</time>
      </trkpt>
      <trkpt lat="48.63923" lon="-3.85069">
        <ele>4</ele>
        <time>2023-01-11T14:45:35+01:00</time>
      </trkpt>
      <trkpt lat="48.63903" lon="-3.85061">
        <ele>4.1</ele>
        <time>2023-01-11T14:45:57+01:00</time>
      </trkpt>
      <trkpt lat="48.63888" lon="-3.85042">
        <ele>4.4</ele>
        <time>2023-01-11T14:46:18+01:00</time>
      </trkpt>
      <trkpt lat="48.63875" lon="-3.8502">
        <ele>4.8</ele>
        <time>2023-01-11T14:46:37+01:00</time>
      </trkpt>
      <trkpt lat="48.63869" lon="-3.84993">
        <ele>5.5</ele>
        <time>2023-01-11T14:47:03+01:00</time>
      </trkpt>
      <trkpt lat="48.63866" lon="-3.84963">
        <ele>5.1</ele>
        <time>2023-01-11T14:47:33+01:00</time>
      </trkpt>
      <trkpt lat="48.63861" lon="-3.84931">
        <ele>5.5</ele>
        <time>2023-01-11T14:48:31+01:00</time>
      </trkpt>
      <trkpt lat="48.63845" lon="-3.84917">
        <ele>5.4</ele>
        <time>2023-01-11T14:49:45+01:00</time>
      </trkpt>
      <trkpt lat="48.63825" lon="-3.84914">
        <ele>5.2</ele>
        <time>2023-01-11T14:50:07+01:00</time>
      </trkpt>
      <trkpt lat="48.63812" lon="-3.84894">
        <ele>6</ele>
        <time>2023-01-11T14:50:25+01:00</time>
      </trkpt>
      <trkpt lat="48.63793" lon="-3.84901">
        <ele>5.6</ele>
        <time>2023-01-11T14:50:45+01:00</time>
      </trkpt>
      <trkpt lat="48.6377" lon="-3.84903">
        <ele>5.2</ele>
        <time>2023-01-11T14:51:03+01:00</time>
      </trkpt>
      <trkpt lat="48.6375" lon="-3.849">
        <ele>4.8</ele>
        <time>2023-01-11T14:51:14+01:00</time>
      </trkpt>
      <trkpt lat="48.6373" lon="-3.84902">
        <ele>3.9</ele>
        <time>2023-01-11T14:51:26+01:00</time>
      </trkpt>
      <trkpt lat="48.63708" lon="-3.84902">
        <ele>3.9</ele>
        <time>2023-01-11T14:51:39+01:00</time>
      </trkpt>
      <trkpt lat="48.6369" lon="-3.8491">
        <ele>3.1</ele>
        <time>2023-01-11T14:51:50+01:00</time>
      </trkpt>
      <trkpt lat="48.63672" lon="-3.84917">
        <ele>2.8</ele>
        <time>2023-01-11T14:52:04+01:00</time>
      </trkpt>
      <trkpt lat="48.63657" lon="-3.84895">
        <ele>5.1</ele>
        <time>2023-01-11T14:52:32+01:00</time>
      </trkpt>
      <trkpt lat="48.63641" lon="-3.8488">
        <ele>5.4</ele>
        <time>2023-01-11T14:52:47+01:00</time>
      </trkpt>
      <trkpt lat="48.63623" lon="-3.84878">
        <ele>5.6</ele>
        <time>2023-01-11T14:53:08+01:00</time>
      </trkpt>
      <trkpt lat="48.63602" lon="-3.84885">
        <ele>5.3</ele>
        <time>2023-01-11T14:53:58+01:00</time>
      </trkpt>
      <trkpt lat="48.63581" lon="-3.84894">
        <ele>4.6</ele>
        <time>2023-01-11T14:54:13+01:00</time>
      </trkpt>
      <trkpt lat="48.63563" lon="-3.84892">
        <ele>4.8</ele>
        <time>2023-01-11T14:54:25+01:00</time>
      </trkpt>
      <trkpt lat="48.63543" lon="-3.84889">
        <ele>5</ele>
        <time>2023-01-11T14:54:38+01:00</time>
      </trkpt>
      <trkpt lat="48.63523" lon="-3.84888">
        <ele>5.1</ele>
        <time>2023-01-11T14:54:54+01:00</time>
      </trkpt>
      <trkpt lat="48.63504" lon="-3.84887">
        <ele>5.1</ele>
        <time>2023-01-11T14:55:10+01:00</time>
      </trkpt>
      <trkpt lat="48.63486" lon="-3.84878">
        <ele>5.1</ele>
        <time>2023-01-11T14:55:25+01:00</time>
      </trkpt>
      <trkpt lat="48.63468" lon="-3.84872">
        <ele>5</ele>
        <time>2023-01-11T14:55:39+01:00</time>
      </trkpt>
      <trkpt lat="48.6345" lon="-3.8486">
        <ele>5.7</ele>
        <time>2023-01-11T14:55:54+01:00</time>
      </trkpt>
      <trkpt lat="48.63433" lon="-3.84849">
        <ele>7.1</ele>
        <time>2023-01-11T14:56:11+01:00</time>
      </trkpt>
      <trkpt lat="48.63415" lon="-3.84839">
        <ele>6.8</ele>
        <time>2023-01-11T14:56:24+01:00</time>
      </trkpt>
      <trkpt lat="48.63398" lon="-3.8483">
        <ele>7.1</ele>
        <time>2023-01-11T14:56:39+01:00</time>
      </trkpt>
      <trkpt lat="48.63379" lon="-3.8483">
        <ele>5.6</ele>
        <time>2023-01-11T14:56:53+01:00</time>
      </trkpt>
      <trkpt lat="48.6336" lon="-3.84825">
        <ele>6.1</ele>
        <time>2023-01-11T14:57:06+01:00</time>
      </trkpt>
      <trkpt lat="48.6334" lon="-3.84821">
        <ele>4.5</ele>
        <time>2023-01-11T14:57:19+01:00</time>
      </trkpt>
      <trkpt lat="48.63321" lon="-3.84814">
        <ele>4.4</ele>
        <time>2023-01-11T14:57:31+01:00</time>
      </trkpt>
      <trkpt lat="48.63301" lon="-3.84809">
        <ele>4.5</ele>
        <time>2023-01-11T14:57:45+01:00</time>
      </trkpt>
      <trkpt lat="48.63282" lon="-3.84798">
        <ele>5.6</ele>
        <time>2023-01-11T14:57:59+01:00</time>
      </trkpt>
      <trkpt lat="48.63264" lon="-3.8479">
        <ele>6.6</ele>
        <time>2023-01-11T14:58:12+01:00</time>
      </trkpt>
      <trkpt lat="48.63248" lon="-3.84776">
        <ele>9.1</ele>
        <time>2023-01-11T14:58:26+01:00</time>
      </trkpt>
      <trkpt lat="48.63228" lon="-3.84774">
        <ele>7.2</ele>
        <time>2023-01-11T14:58:40+01:00</time>
      </trkpt>
      <trkpt lat="48.6321" lon="-3.84771">
        <ele>6.6</ele>
        <time>2023-01-11T14:58:49+01:00</time>
      </trkpt>
      <trkpt lat="48.6319" lon="-3.84764">
        <ele>7.1</ele>
        <time>2023-01-11T14:59:00+01:00</time>
      </trkpt>
      <trkpt lat="48.63172" lon="-3.84769">
        <ele>4.9</ele>
        <time>2023-01-11T14:59:12+01:00</time>
      </trkpt>
      <trkpt lat="48.63153" lon="-3.84774">
        <ele>3.3</ele>
        <time>2023-01-11T14:59:23+01:00</time>
      </trkpt>
      <trkpt lat="48.63134" lon="-3.84773">
        <ele>4</ele>
        <time>2023-01-11T14:59:50+01:00</time>
      </trkpt>
      <trkpt lat="48.63114" lon="-3.84768">
        <ele>5</ele>
        <time>2023-01-11T15:00:23+01:00</time>
      </trkpt>
      <trkpt lat="48.631" lon="-3.8475">
        <ele>5.8</ele>
        <time>2023-01-11T15:00:43+01:00</time>
      </trkpt>
      <trkpt lat="48.63088" lon="-3.84726">
        <ele>5.9</ele>
        <time>2023-01-11T15:01:20+01:00</time>
      </trkpt>
      <trkpt lat="48.63074" lon="-3.84708">
        <ele>6</ele>
        <time>2023-01-11T15:01:33+01:00</time>
      </trkpt>
      <trkpt lat="48.63061" lon="-3.84689">
        <ele>5.6</ele>
        <time>2023-01-11T15:01:47+01:00</time>
      </trkpt>
      <trkpt lat="48.63045" lon="-3.84672">
        <ele>5.5</ele>
        <time>2023-01-11T15:02:02+01:00</time>
      </trkpt>
      <trkpt lat="48.63027" lon="-3.8468">
        <ele>5</ele>
        <time>2023-01-11T15:02:20+01:00</time>
      </trkpt>
      <trkpt lat="48.63015" lon="-3.84655">
        <ele>4.8</ele>
        <time>2023-01-11T15:02:37+01:00</time>
      </trkpt>
      <trkpt lat="48.63004" lon="-3.84633">
        <ele>4.5</ele>
        <time>2023-01-11T15:03:38+01:00</time>
      </trkpt>
      <trkpt lat="48.62998" lon="-3.84607">
        <ele>5</ele>
        <time>2023-01-11T15:03:55+01:00</time>
      </trkpt>
      <trkpt lat="48.62987" lon="-3.84585">
        <ele>4.6</ele>
        <time>2023-01-11T15:04:21+01:00</time>
      </trkpt>
      <trkpt lat="48.62975" lon="-3.84559">
        <ele>5.5</ele>
        <time>2023-01-11T15:04:34+01:00</time>
      </trkpt>
      <trkpt lat="48.62959" lon="-3.84543">
        <ele>4.9</ele>
        <time>2023-01-11T15:04:51+01:00</time>
      </trkpt>
      <trkpt lat="48.62949" lon="-3.84521">
        <ele>5.6</ele>
        <time>2023-01-11T15:05:05+01:00</time>
      </trkpt>
      <trkpt lat="48.62935" lon="-3.84501">
        <ele>5.6</ele>
        <time>2023-01-11T15:05:18+01:00</time>
      </trkpt>
    </trkseg>
  </trk>
</gpx>